Provisional Data: Sugar Creek near Troy, PA


Please select a monitoring station.
Please select start date.
Please select start date.
Historical Station - Data Range: 04/27/2010 - 05/30/2018

Toggle Unit: C/F Toggle Unit: C/F
Sample Time Temperature (C) Temperature (F) Specific Conductivity (mS/cm) pH   Turbidity (NTU+) DO (mg/L)
4/30/2018 12:00:00 AM 7.8 46.04 0.19 7.84 55 10.81
4/30/2018 12:15:00 AM 7.74 45.932 0.191 7.84 53 10.83
4/30/2018 12:30:00 AM 7.67 45.806 0.191 7.84 66.1 10.84
4/30/2018 12:45:00 AM 7.61 45.698 0.191 7.82 53.8 10.86
4/30/2018 1:00:00 AM 7.55 45.59 0.19 7.82 261.1 10.86
4/30/2018 1:15:00 AM 7.47 45.446 0.189 7.82 65.5 10.88
4/30/2018 1:30:00 AM 7.41 45.338 0.191 7.81 51.6 10.89
4/30/2018 1:45:00 AM 7.34 45.212 0.192 7.83 51.7 10.92
4/30/2018 2:00:00 AM 7.29 45.122 0.191 7.81 143.9 10.93
4/30/2018 2:15:00 AM 7.24 45.032 0.192 7.81 51.2 10.96
4/30/2018 2:30:00 AM 7.19 44.942 0.184 7.8 113.3 10.97
4/30/2018 2:45:00 AM 7.15 44.87 0.192 7.8 53.6 10.97
4/30/2018 3:00:00 AM 7.1 44.78 0.191 7.82 167.8 10.98
4/30/2018 3:15:00 AM 7.07 44.726 0.192 7.8 57.5 11
4/30/2018 3:30:00 AM 7.03 44.654 0.192 7.81 54 11.01
4/30/2018 3:45:00 AM 6.98 44.564 0.193 7.8 55 11.02
4/30/2018 4:00:00 AM 6.93 44.474 0.193 7.8 131.6 11.02
4/30/2018 4:15:00 AM 6.89 44.402 0.192 7.81 53.6 11.05
4/30/2018 4:30:00 AM 6.83 44.294 0.192 7.79 54.5 11.05
4/30/2018 4:45:00 AM 6.78 44.204 0.191 7.81 53.5 11.08
4/30/2018 5:00:00 AM 6.74 44.132 0.188 7.81 67.8 11.07
4/30/2018 5:15:00 AM 6.7 44.06 0.192 7.8 52 11.11
4/30/2018 5:30:00 AM 6.67 44.006 0.192 7.82 63 11.1
4/30/2018 5:45:00 AM 6.63 43.934 0.193 7.79 1187.3 11.1
4/30/2018 6:00:00 AM 6.58 43.844 0.192 7.8 54.7 11.12
4/30/2018 6:15:00 AM 6.53 43.754 0.192 7.79 56.2 11.16
4/30/2018 6:30:00 AM 6.49 43.682 0.192 7.81 53.6 11.18
4/30/2018 6:45:00 AM 6.47 43.646 0.191 7.82 52.2 11.23
4/30/2018 7:00:00 AM 6.46 43.628 0.191 7.81 54.1 11.3
4/30/2018 7:15:00 AM 6.44 43.592 0.193 7.84 52.9 11.35
4/30/2018 7:30:00 AM 6.43 43.574 0.191 7.84 49.2 11.44
4/30/2018 7:45:00 AM 6.42 43.556 0.188 7.85 82.4 11.54
4/30/2018 8:00:00 AM 6.43 43.574 0.191 7.89 76.6 11.7
4/30/2018 8:15:00 AM 6.45 43.61 0.193 7.92 49.7 11.82
4/30/2018 8:30:00 AM 6.49 43.682 0.191 7.96 54.4 11.91
4/30/2018 8:45:00 AM 6.54 43.772 0.192 7.99 49.4 12.03
4/30/2018 9:00:00 AM 6.56 43.808 0.192 8.02 50.1 12.13
4/30/2018 9:15:00 AM 6.58 43.844 0.193 8.06 47.7 12.22
4/30/2018 9:30:00 AM 6.65 43.97 0.192 8.09 50.3 12.31
4/30/2018 9:45:00 AM 6.74 44.132 0.19 8.13 50.3 12.4
4/30/2018 10:00:00 AM 6.96 44.528 0.191 8.17 50.5 12.46
4/30/2018 10:15:00 AM 7.24 45.032 0.193 8.2 52.2 12.51
4/30/2018 10:30:00 AM 7.3 45.14 0.191 8.24 52 12.51
4/30/2018 10:45:00 AM 7.47 45.446 0.193 8.27 50.2 12.57
4/30/2018 11:00:00 AM 7.63 45.734 0.193 8.33 50.5 12.6
4/30/2018 11:15:00 AM 7.76 45.968 0.192 8.37 45.5 12.61
4/30/2018 11:30:00 AM 7.87 46.166 0.184 8.4 281.2 12.64
4/30/2018 11:45:00 AM 7.96 46.328 0.192 8.43 50.5 12.58
4/30/2018 12:00:00 PM 8.07 46.526 0.167 8.46 154.9 12.58
4/30/2018 12:15:00 PM 8.19 46.742 0.192 8.5 50.6 12.53
4/30/2018 12:30:00 PM 8.44 47.192 0.174 8.51 325.1 12.56
4/30/2018 12:45:00 PM 8.85 47.93 0.191 8.56 51.6 12.56
4/30/2018 1:00:00 PM 9.18 48.524 0.192 8.59 51.7 12.53
4/30/2018 1:15:00 PM 9.43 48.974 0.192 8.62 49.1 12.48
4/30/2018 1:30:00 PM 9.68 49.424 0.191 8.63 46.1 12.45
4/30/2018 1:45:00 PM 9.96 49.928 0.16 8.64 64.7 12.38
4/30/2018 2:00:00 PM 10.24 50.432 0.191 8.66 51.9 12.34
4/30/2018 2:15:00 PM 10.52 50.936 0.189 8.68 48.4 12.31
4/30/2018 2:30:00 PM 10.81 51.458 0.191 8.7 50.6 12.24
4/30/2018 2:45:00 PM 11.07 51.926 0.191 8.73 53.1 12.2
4/30/2018 3:00:00 PM 11.3 52.34 0.183 8.75 661.9 12.15
4/30/2018 3:15:00 PM 11.49 52.682 0.163 8.76 123.2 12.08
4/30/2018 3:30:00 PM 11.67 53.006 0.176 8.79 768.7 12.02
4/30/2018 3:45:00 PM 11.82 53.276 0.188 8.79 54.1 11.95
4/30/2018 4:00:00 PM 11.96 53.528 0.183 8.77 96.2 11.87
4/30/2018 4:15:00 PM 12.05 53.69 0.191 8.79 51.1 11.83
4/30/2018 4:30:00 PM 12.12 53.816 0.192 8.79 50.5 11.72
4/30/2018 4:45:00 PM 12.14 53.852 0.192 8.8 51.9 11.71
4/30/2018 5:00:00 PM 12.14 53.852 0.19 8.79 51.9 11.63
4/30/2018 5:15:00 PM 12.14 53.852 0.177 8.78 186.8 11.54
4/30/2018 5:30:00 PM 12.09 53.762 0.19 8.77 46.2 11.54
4/30/2018 5:45:00 PM 12.04 53.672 0.167 8.76 26.8 11.45
4/30/2018 6:00:00 PM 11.97 53.546 0.182 8.73 1020.2 11.39
4/30/2018 6:15:00 PM 11.86 53.348 0.181 8.7 373.9 11.31
4/30/2018 6:30:00 PM 11.75 53.15 0.189 8.67 277.4 11.23
4/30/2018 6:45:00 PM 11.61 52.898 0.122 8.63 19.2 11.17
4/30/2018 7:00:00 PM 11.48 52.664 0.191 8.57 1006.2 11.08
4/30/2018 7:15:00 PM 11.34 52.412 0.165 8.5 28.5 11.01
4/30/2018 7:30:00 PM 11.2 52.16 0.189 8.41 401.9 10.9
4/30/2018 7:45:00 PM 11.06 51.908 0.187 8.34 234.5 10.79
4/30/2018 8:00:00 PM 10.94 51.692 0.192 8.25 19.6 10.69
4/30/2018 8:15:00 PM 10.81 51.458 0.191 8.17 610.1 10.59
4/30/2018 8:30:00 PM 10.68 51.224 0.193 8.11 19.4 10.52
4/30/2018 8:45:00 PM 10.57 51.026 0.197 8.05 231 10.47
4/30/2018 9:00:00 PM 10.46 50.828 0.195 8 152 10.42
4/30/2018 9:15:00 PM 10.34 50.612 0.193 7.97 1179.1 10.38
4/30/2018 9:30:00 PM 10.23 50.414 0.192 7.94 189.3 10.36
4/30/2018 9:45:00 PM 10.11 50.198 0.192 7.92 451.6 10.36
4/30/2018 10:00:00 PM 10.01 50.018 0.194 7.89 203.7 10.32
4/30/2018 10:15:00 PM 9.89 49.802 0.195 7.88 968.2 10.32
4/30/2018 10:30:00 PM 9.78 49.604 0.196 7.85 132.2 10.34
4/30/2018 10:45:00 PM 9.68 49.424 0.196 7.84 75.3 10.32
4/30/2018 11:00:00 PM 9.58 49.244 0.196 7.84 766.2 10.37
4/30/2018 11:15:00 PM 9.47 49.046 0.194 7.83 165.9 10.36
4/30/2018 11:30:00 PM 9.37 48.866 0.195 7.82 129 10.38
4/30/2018 11:45:00 PM 9.26 48.668 0.195 7.81 403.8 10.39
5/1/2018 12:00:00 AM 9.16 48.488 0.195 7.81 30.7 10.41
5/1/2018 12:15:00 AM 9.05 48.29 0.194 7.81 902.9 10.46
5/1/2018 12:30:00 AM 8.96 48.128 0.196 7.8 174.7 10.44
5/1/2018 12:45:00 AM 8.86 47.948 0.195 7.8 130.6 10.47
5/1/2018 1:00:00 AM 8.77 47.786 0.194 7.79 82.7 10.49
5/1/2018 1:15:00 AM 8.68 47.624 0.195 7.79 59.5 10.53
5/1/2018 1:30:00 AM 8.59 47.462 0.194 7.79 75.8 10.55
5/1/2018 1:45:00 AM 8.49 47.282 0.194 7.78 492.4 10.57
5/1/2018 2:00:00 AM 8.4 47.12 0.195 7.79 19.5 10.58
5/1/2018 2:15:00 AM 8.31 46.958 0.193 7.79 19.5 10.61
5/1/2018 2:30:00 AM 8.22 46.796 0.194 7.79 22.8 10.61
5/1/2018 2:45:00 AM 8.15 46.67 0.195 7.78 166.9 10.64
5/1/2018 3:00:00 AM 8.08 46.544 0.196 7.78 18.2 10.66
5/1/2018 3:15:00 AM 8.01 46.418 0.197 7.78 170.2 10.67
5/1/2018 3:30:00 AM 7.94 46.292 0.196 7.77 245 10.69
5/1/2018 3:45:00 AM 7.87 46.166 0.197 7.77 165.1 10.71
5/1/2018 4:00:00 AM 7.79 46.022 0.195 7.78 528 10.74
5/1/2018 4:15:00 AM 7.73 45.914 0.195 7.78 22.2 10.73
5/1/2018 4:30:00 AM 7.66 45.788 0.195 7.76 83.9 10.78
5/1/2018 4:45:00 AM 7.59 45.662 0.196 7.77 233 10.79
5/1/2018 5:00:00 AM 7.54 45.572 0.196 7.77 159.2 10.8
5/1/2018 5:15:00 AM 7.47 45.446 0.195 7.76 334.1 10.85
5/1/2018 5:30:00 AM 7.41 45.338 0.197 7.76 138.6 10.86
5/1/2018 5:45:00 AM 7.36 45.248 0.197 7.75 136.5 10.88
5/1/2018 6:00:00 AM 7.3 45.14 0.196 7.76 302.5 10.89
5/1/2018 6:15:00 AM 7.25 45.05 0.195 7.78 20.7 10.93
5/1/2018 6:30:00 AM 7.2 44.96 0.195 7.76 102.5 10.97
5/1/2018 6:45:00 AM 7.16 44.888 0.195 7.78 15 11.02
5/1/2018 7:00:00 AM 7.13 44.834 0.192 7.78 16.5 11.09
5/1/2018 7:15:00 AM 7.11 44.798 0.193 7.79 16.2 11.14
5/1/2018 7:30:00 AM 7.12 44.816 0.194 7.82 248.8 11.27
5/1/2018 7:45:00 AM 7.14 44.852 0.195 7.85 19 11.37
5/1/2018 8:00:00 AM 7.19 44.942 0.196 7.87 35.8 11.47
5/1/2018 8:15:00 AM 7.26 45.068 0.197 7.88 102.5 11.57
5/1/2018 8:30:00 AM 7.35 45.23 0.195 7.91 18.6 11.65
5/1/2018 8:45:00 AM 7.46 45.428 0.197 7.94 152.1 11.77
5/1/2018 9:00:00 AM 7.6 45.68 0.196 7.98 800.7 11.82
5/1/2018 9:15:00 AM 7.76 45.968 0.197 8.02 859.9 11.94
5/1/2018 9:30:00 AM 7.93 46.274 0.194 8.05 284.4 11.97
5/1/2018 9:45:00 AM 8.11 46.598 0.196 8.1 207.9 12.07
5/1/2018 10:00:00 AM 8.32 46.976 0.193 8.12 469.1 12.08
5/1/2018 10:15:00 AM 8.55 47.39 0.189 8.16 288.1 12.14
5/1/2018 10:30:00 AM 8.8 47.84 0.195 8.21 -1.5 12.21
5/1/2018 10:45:00 AM 9.06 48.308 0.193 8.26 18.7 12.17
5/1/2018 11:00:00 AM 9.33 48.794 0.193 8.31 94.2 12.17
5/1/2018 11:15:00 AM 9.61 49.298 0.194 8.36 54.5 12.19
5/1/2018 11:30:00 AM 9.93 49.874 0.194 8.42 290.5 12.23
5/1/2018 11:45:00 AM 10.22 50.396 0.193 8.46 20.3 12.17
5/1/2018 12:00:00 PM 10.55 50.99 0.193 8.49 66.4 12.2
5/1/2018 12:15:00 PM 10.9 51.62 0.192 8.55 20.9 12.17
5/1/2018 12:30:00 PM 11.24 52.232 0.191 8.59 814.1 12.06
5/1/2018 12:45:00 PM 11.58 52.844 0.192 8.63 16.1 12.09
5/1/2018 1:00:00 PM 11.94 53.492 0.189 8.66 919.5 12.04
5/1/2018 1:15:00 PM 12.3 54.14 0.191 8.7 112.4 11.99
5/1/2018 1:30:00 PM 12.64 54.752 0.194 8.73 713 11.99
5/1/2018 1:45:00 PM 12.98 55.364 0.192 8.78 16.8 11.87
5/1/2018 2:00:00 PM 13.32 55.976 0.192 8.81 274.9 11.82
5/1/2018 2:15:00 PM 13.5 56.3 0.191 8.81 17.6 11.75
5/1/2018 2:30:00 PM 13.81 56.858 0.191 8.85 69.3 11.68
5/1/2018 2:45:00 PM 14.13 57.434 0.19 8.88 21.1 11.63
5/1/2018 3:00:00 PM 14.42 57.956 0.191 8.9 16.6 11.59
5/1/2018 3:15:00 PM 14.69 58.442 0.189 8.94 12.6 11.53
5/1/2018 3:30:00 PM 14.88 58.784 0.187 8.94 15.1 11.48
5/1/2018 3:45:00 PM 15.06 59.108 0.192 8.95 15.6 11.39
5/1/2018 4:00:00 PM 15.25 59.45 0.191 8.95 15.2 11.37
5/1/2018 4:15:00 PM 15.32 59.576 0.191 8.96 16.5 11.3
5/1/2018 4:30:00 PM 15.34 59.612 0.19 8.97 15.2 11.2
5/1/2018 4:45:00 PM 15.37 59.666 0.191 8.96 20.4 11.11
5/1/2018 5:00:00 PM 15.49 59.882 0.19 8.97 15.5 11.06
5/1/2018 5:15:00 PM 15.53 59.954 0.194 8.95 13.6 10.99
5/1/2018 5:30:00 PM 15.53 59.954 0.193 8.95 13.4 10.91
5/1/2018 5:45:00 PM 15.47 59.846 0.194 8.92 112.1 10.84
5/1/2018 6:00:00 PM 15.42 59.756 0.192 8.91 13.3 10.67
5/1/2018 6:15:00 PM 15.34 59.612 0.192 8.88 15.4 10.62
5/1/2018 6:30:00 PM 15.27 59.486 0.194 8.85 973.3 10.54
5/1/2018 6:45:00 PM 15.18 59.324 0.191 8.81 12.3 10.45
5/1/2018 7:00:00 PM 15.07 59.126 0.194 8.77 13.2 10.35
5/1/2018 7:15:00 PM 14.95 58.91 0.196 8.67 10.9 10.2
5/1/2018 7:30:00 PM 14.82 58.676 0.195 8.59 1117.5 10.11
5/1/2018 7:45:00 PM 14.68 58.424 0.195 8.48 13.7 10
5/1/2018 8:00:00 PM 14.54 58.172 0.195 8.38 17.2 9.86
5/1/2018 8:15:00 PM 14.41 57.938 0.195 8.27 955.9 9.77
5/1/2018 8:30:00 PM 14.27 57.686 0.196 8.16 161.2 9.67
5/1/2018 8:45:00 PM 14.14 57.452 0.196 8.08 661.5 9.61
5/1/2018 9:00:00 PM 14.02 57.236 0.197 8.02 15.3 9.57
5/1/2018 9:15:00 PM 13.9 57.02 0.199 7.97 11.9 9.51
5/1/2018 9:30:00 PM 13.77 56.786 0.201 7.93 307.9 9.49
5/1/2018 9:45:00 PM 13.65 56.57 0.199 7.89 12.8 9.46
5/1/2018 10:00:00 PM 13.52 56.336 0.2 7.87 937.1 9.47
5/1/2018 10:15:00 PM 13.4 56.12 0.197 7.84 18.3 9.44
5/1/2018 10:30:00 PM 13.28 55.904 0.2 7.83 18 9.43
5/1/2018 10:45:00 PM 13.15 55.67 0.199 7.82 66.3 9.48
5/1/2018 11:00:00 PM 13.04 55.472 0.202 7.8 1040.8 9.44
5/1/2018 11:15:00 PM 12.91 55.238 0.201 7.79 87.1 9.52
5/1/2018 11:30:00 PM 12.8 55.04 0.198 7.78 17.1 9.44
5/1/2018 11:45:00 PM 12.68 54.824 0.199 7.77 11.9 9.5
5/2/2018 12:00:00 AM 12.57 54.626 0.197 7.76 1026.1 9.49
5/2/2018 12:15:00 AM 12.46 54.428 0.198 7.77 10.6 9.53
5/2/2018 12:30:00 AM 12.35 54.23 0.199 7.76 53 9.52
5/2/2018 12:45:00 AM 12.24 54.032 0.198 7.76 14.1 9.55
5/2/2018 1:00:00 AM 12.13 53.834 0.198 7.75 12.9 9.57
5/2/2018 1:15:00 AM 12.04 53.672 0.197 7.75 12.1 9.58
5/2/2018 1:30:00 AM 11.94 53.492 0.198 7.74 13.2 9.61
5/2/2018 1:45:00 AM 11.86 53.348 0.198 7.74 12.9 9.7
5/2/2018 2:00:00 AM 11.79 53.222 0.199 7.74 13.6 9.67
5/2/2018 2:15:00 AM 11.71 53.078 0.195 7.75 11 9.68
5/2/2018 2:30:00 AM 11.6 52.88 0.196 7.75 10.9 9.74
5/2/2018 2:45:00 AM 11.51 52.718 0.199 7.75 10.5 9.75
5/2/2018 3:00:00 AM 11.42 52.556 0.198 7.74 10.9 9.8
5/2/2018 3:15:00 AM 11.34 52.412 0.199 7.73 11 9.78
5/2/2018 3:30:00 AM 11.26 52.268 0.199 7.73 11.6 9.8
5/2/2018 3:45:00 AM 11.18 52.124 0.2 7.74 12.4 9.79
5/2/2018 4:00:00 AM 11.1 51.98 0.2 7.73 11.1 9.79
5/2/2018 4:15:00 AM 11.03 51.854 0.199 7.74 15.9 9.9
5/2/2018 4:30:00 AM 10.95 51.71 0.198 7.73 11.2 9.9
5/2/2018 4:45:00 AM 10.88 51.584 0.2 7.74 11.7 9.93
5/2/2018 5:00:00 AM 10.8 51.44 0.201 7.74 13.1 9.92
5/2/2018 5:15:00 AM 10.73 51.314 0.2 7.73 15.6 9.93
5/2/2018 5:30:00 AM 10.66 51.188 0.2 7.72 11.6 9.91
5/2/2018 5:45:00 AM 10.59 51.062 0.2 7.73 11.7 10
5/2/2018 6:00:00 AM 10.52 50.936 0.2 7.73 10.5 9.98
5/2/2018 6:15:00 AM 10.45 50.81 0.2 7.74 11.8 10.03
5/2/2018 6:30:00 AM 10.4 50.72 0.2 7.74 11.7 10.08
5/2/2018 6:45:00 AM 10.35 50.63 0.201 7.74 11.2 10.11
5/2/2018 7:00:00 AM 10.3 50.54 0.201 7.77 10.5 10.19
5/2/2018 7:15:00 AM 10.27 50.486 0.201 7.79 11.4 10.29
5/2/2018 7:30:00 AM 10.27 50.486 0.2 7.8 11.8 10.39
5/2/2018 7:45:00 AM 10.27 50.486 0.202 7.82 12.3 10.51
5/2/2018 8:00:00 AM 10.31 50.558 0.202 7.86 377.1 10.62
5/2/2018 8:15:00 AM 10.37 50.666 0.202 7.87 10.6 10.72
5/2/2018 8:30:00 AM 10.46 50.828 0.202 7.92 15.3 10.84
5/2/2018 8:45:00 AM 10.57 51.026 0.202 7.95 22 10.92
5/2/2018 9:00:00 AM 10.7 51.26 0.2 7.98 681.1 11
5/2/2018 9:15:00 AM 10.84 51.512 0.202 8.03 270.8 11.09
5/2/2018 9:30:00 AM 11.01 51.818 0.201 8.08 499.3 11.19
5/2/2018 9:45:00 AM 11.2 52.16 0.2 8.12 375.2 11.29
5/2/2018 10:00:00 AM 11.43 52.574 0.2 8.18 356.3 11.35
5/2/2018 10:15:00 AM 11.65 52.97 0.202 8.22 359.7 11.42
5/2/2018 10:30:00 AM 11.88 53.384 0.199 8.29 361.1 11.43
5/2/2018 10:45:00 AM 12.14 53.852 0.198 8.33 159.7 11.52
5/2/2018 11:00:00 AM 12.41 54.338 0.198 8.38 168.8 11.51
5/2/2018 11:15:00 AM 12.7 54.86 0.199 8.46 21.4 11.57
5/2/2018 11:30:00 AM 12.99 55.382 0.198 8.52 8 11.64
5/2/2018 11:45:00 AM 13.3 55.94 0.198 8.57 12.2 11.65
5/2/2018 12:00:00 PM 13.61 56.498 0.198 8.61 10 11.61
5/2/2018 12:15:00 PM 13.92 57.056 0.198 8.67 10.6 11.58
5/2/2018 12:30:00 PM 14.27 57.686 0.197 8.72 18.4 11.66
5/2/2018 12:45:00 PM 14.6 58.28 0.196 8.76 9.8 11.63
5/2/2018 1:00:00 PM 14.92 58.856 0.197 8.8 11.9 11.62
5/2/2018 1:15:00 PM 15.26 59.468 0.198 8.83 11.4 11.5
5/2/2018 1:30:00 PM 15.59 60.062 0.196 8.86 11.8 11.38
5/2/2018 1:45:00 PM 15.93 60.674 0.197 8.92 11.4 11.43
5/2/2018 2:00:00 PM 16.23 61.214 0.199 8.93 10.5 11.42
5/2/2018 2:15:00 PM 16.53 61.754 0.198 8.96 10.1 11.28
5/2/2018 2:30:00 PM 16.78 62.204 0.198 8.97 12 11.15
5/2/2018 2:45:00 PM 17.04 62.672 0.198 8.99 13 11.13
5/2/2018 3:00:00 PM 17.28 63.104 0.197 9.01 11.4 11.13
5/2/2018 3:15:00 PM 17.49 63.482 0.199 9.02 10.5 11.16
5/2/2018 3:30:00 PM 17.66 63.788 0.198 9.04 10.5 11.04
5/2/2018 3:45:00 PM 17.74 63.932 0.194 9.06 10.9 11.04
5/2/2018 4:00:00 PM 17.85 64.13 0.194 9.07 9.8 10.92
5/2/2018 4:15:00 PM 17.97 64.346 0.194 9.08 10 10.87
5/2/2018 4:30:00 PM 17.99 64.382 0.196 9.05 10.1 10.85
5/2/2018 4:45:00 PM 18.02 64.436 0.198 9.05 11.4 10.75
5/2/2018 5:00:00 PM 18.05 64.49 0.197 9.04 11.6 10.72
5/2/2018 5:15:00 PM 18.09 64.562 0.2 9.04 9.1 10.65
5/2/2018 5:30:00 PM 18.03 64.454 0.2 9.01 11.6 10.47
5/2/2018 5:45:00 PM 17.99 64.382 0.199 9.02 12.2 10.5
5/2/2018 6:00:00 PM 17.94 64.292 0.2 9 12.8 10.4
5/2/2018 6:15:00 PM 17.9 64.22 0.201 8.98 22.5 10.32
5/2/2018 6:30:00 PM 17.83 64.094 0.201 8.95 9.2 10.25
5/2/2018 6:45:00 PM 17.72 63.896 0.202 8.91 11.4 10.13
5/2/2018 7:00:00 PM 17.61 63.698 0.2 8.85 10.6 9.98
5/2/2018 7:15:00 PM 17.48 63.464 0.2 8.78 10.7 9.81
5/2/2018 7:30:00 PM 17.35 63.23 0.202 8.7 11.3 9.52
5/2/2018 7:45:00 PM 17.24 63.032 0.201 8.62 16.7 9.47
5/2/2018 8:00:00 PM 17.11 62.798 0.201 8.52 9.2 9.34
5/2/2018 8:15:00 PM 16.99 62.582 0.201 8.41 10.9 9.25
5/2/2018 8:30:00 PM 16.88 62.384 0.202 8.31 9.9 9.13
5/2/2018 8:45:00 PM 16.78 62.204 0.202 8.21 8.5 9.03
5/2/2018 9:00:00 PM 16.66 61.988 0.203 8.13 9.5 8.95
5/2/2018 9:15:00 PM 16.53 61.754 0.205 8.05 10.4 8.88
5/2/2018 9:30:00 PM 16.44 61.592 0.206 7.99 9.4 8.82
5/2/2018 9:45:00 PM 16.32 61.376 0.206 7.95 12.6 8.8
5/2/2018 10:00:00 PM 16.22 61.196 0.207 7.91 17.1 8.73
5/2/2018 10:15:00 PM 16.15 61.07 0.206 7.88 10.1 8.73
5/2/2018 10:30:00 PM 16.07 60.926 0.206 7.86 8.7 8.71
5/2/2018 10:45:00 PM 16 60.8 0.207 7.84 10.1 8.77
5/2/2018 11:00:00 PM 15.93 60.674 0.205 7.82 10.6 8.64
5/2/2018 11:15:00 PM 15.84 60.512 0.206 7.81 11.6 8.67
5/2/2018 11:30:00 PM 15.73 60.314 0.207 7.81 10.4 8.66
5/2/2018 11:45:00 PM 15.64 60.152 0.204 7.78 8.2 8.69
5/3/2018 12:00:00 AM 15.56 60.008 0.204 7.78 9.5 8.68
5/3/2018 12:15:00 AM 15.48 59.864 0.206 7.77 11.6 8.66
5/3/2018 12:30:00 AM 15.4 59.72 0.206 7.76 11.9 8.66
5/3/2018 12:45:00 AM 15.32 59.576 0.205 7.76 11.1 8.68
5/3/2018 1:00:00 AM 15.23 59.414 0.206 7.76 82.8 8.71
5/3/2018 1:15:00 AM 15.16 59.288 0.206 7.74 73.8 8.77
5/3/2018 1:30:00 AM 15.1 59.18 0.206 7.75 62.6 8.92
5/3/2018 1:45:00 AM 15.03 59.054 0.207 7.74 62.2 8.84
5/3/2018 2:00:00 AM 14.95 58.91 0.207 7.73 59.2 8.86
5/3/2018 2:15:00 AM 14.87 58.766 0.207 7.74 58.4 8.87
5/3/2018 2:30:00 AM 14.8 58.64 0.207 7.72 67.1 8.88
5/3/2018 2:45:00 AM 14.73 58.514 0.207 7.73 53.4 8.92
5/3/2018 3:00:00 AM 14.66 58.388 0.205 7.73 56.8 8.79
5/3/2018 3:15:00 AM 14.59 58.262 0.203 7.73 54.6 8.82
5/3/2018 3:30:00 AM 14.51 58.118 0.206 7.72 59.5 8.82
5/3/2018 3:45:00 AM 14.43 57.974 0.207 7.73 57.8 8.39
5/3/2018 4:00:00 AM 14.36 57.848 0.208 7.72 51.7 8.85
5/3/2018 4:15:00 AM 14.3 57.74 0.208 7.72 53.2 8.9
5/3/2018 4:30:00 AM 14.24 57.632 0.208 7.72 44.5 8.87
5/3/2018 4:45:00 AM 14.18 57.524 0.209 7.73 92.6 8.92
5/3/2018 5:00:00 AM 14.12 57.416 0.21 7.71 65.4 8.94
5/3/2018 5:15:00 AM 14.06 57.308 0.209 7.71 64.1 8.9
5/3/2018 5:30:00 AM 13.99 57.182 0.208 7.72 63.6 8.93
5/3/2018 5:45:00 AM 13.93 57.074 0.207 7.71 51.2 8.92
5/3/2018 6:00:00 AM 13.88 56.984 0.208 7.73 59.9 8.93
5/3/2018 6:15:00 AM 13.85 56.93 0.208 7.73 56.4 8.97
5/3/2018 6:30:00 AM 13.82 56.876 0.207 7.73 53.4 9.04
5/3/2018 6:45:00 AM 13.8 56.84 0.208 7.74 51.9 9.12
5/3/2018 7:00:00 AM 13.8 56.84 0.206 7.77 52.5 9.25
5/3/2018 7:15:00 AM 13.79 56.822 0.208 7.78 58.8 9.36
5/3/2018 7:30:00 AM 13.82 56.876 0.207 7.82 394.6 9.55
5/3/2018 7:45:00 AM 13.86 56.948 0.207 7.83 55.2 9.64
5/3/2018 8:00:00 AM 13.9 57.02 0.208 7.85 55.9 9.76
5/3/2018 8:15:00 AM 13.93 57.074 0.207 7.88 49.5 9.85
5/3/2018 8:30:00 AM 13.95 57.11 0.208 7.92 782.3 9.94
5/3/2018 8:45:00 AM 14.02 57.236 0.208 7.96 479 10.09
5/3/2018 9:00:00 AM 14.11 57.398 0.207 8.01 381.2 10.25
5/3/2018 9:15:00 AM 14.21 57.578 0.207 8.06 979.6 10.38
5/3/2018 9:30:00 AM 14.4 57.92 0.207 8.1 139.3 10.5
5/3/2018 9:45:00 AM 14.57 58.226 0.208 8.18 321.5 10.65
5/3/2018 10:00:00 AM 14.67 58.406 0.207 8.24 171.5 10.7
5/3/2018 10:15:00 AM 14.86 58.748 0.205 8.29 522.3 10.87
5/3/2018 10:30:00 AM 15.09 59.162 0.206 8.37 793.4 10.93
5/3/2018 10:45:00 AM 15.21 59.378 0.206 8.43 957 11.01
5/3/2018 11:00:00 AM 15.4 59.72 0.208 8.48 1251 11.08
5/3/2018 11:15:00 AM 15.46 59.828 0.206 8.55 1057.6 11.11
5/3/2018 11:30:00 AM 15.56 60.008 0.205 8.59 154.1 11.08
5/3/2018 11:45:00 AM 15.66 60.188 0.206 8.63 145 11.09
5/3/2018 12:00:00 PM 15.91 60.638 0.208 8.69 37.2 11.14
5/3/2018 12:15:00 PM 16.18 61.124 0.205 8.76 19.2 11.26
5/3/2018 12:30:00 PM 16.42 61.556 0.205 8.78 17.2 11.15
5/3/2018 12:45:00 PM 16.83 62.294 0.205 8.83 18.4 11.24
5/3/2018 1:00:00 PM 17.01 62.618 0.204 8.86 12.9 11.18
5/3/2018 1:15:00 PM 17.1 62.78 0.207 8.87 17.5 11.1
5/3/2018 1:30:00 PM 17.09 62.762 0.208 8.86 9.4 10.97
5/3/2018 1:45:00 PM 17.21 62.978 0.205 8.89 67 10.88
5/3/2018 2:00:00 PM 17.38 63.284 0.205 8.9 10.9 10.73
5/3/2018 2:15:00 PM 17.53 63.554 0.207 8.92 11.2 10.8
5/3/2018 2:30:00 PM 17.77 63.986 0.206 8.94 12.1 10.76
5/3/2018 2:45:00 PM 17.91 64.238 0.206 8.97 9.9 10.7
5/3/2018 3:00:00 PM 18.01 64.418 0.207 8.98 11.8 10.27
5/3/2018 3:15:00 PM 18.01 64.418 0.204 8.94 11.1 10.39
5/3/2018 3:30:00 PM 17.97 64.346 0.209 8.89 9.7 10.22
5/3/2018 3:45:00 PM 17.98 64.364 0.209 8.84 12.9 10
5/3/2018 4:00:00 PM 17.97 64.346 0.205 8.81 23.4 9.71
5/3/2018 4:15:00 PM 17.98 64.364 0.207 8.76 10.7 9.71
5/3/2018 4:30:00 PM 18.01 64.418 0.206 8.76 100.1 9.69
5/3/2018 4:45:00 PM 18.06 64.508 0.204 8.73 11.4 9.72
5/3/2018 5:00:00 PM 18.08 64.544 0.206 8.68 408.4 9.58
5/3/2018 5:15:00 PM 18.08 64.544 0.209 8.63 403.8 9.52
5/3/2018 5:30:00 PM 18.07 64.526 0.212 8.53 11.7 9.4
5/3/2018 5:45:00 PM 18.01 64.418 0.216 8.4 12.5 9.24
5/3/2018 6:00:00 PM 17.97 64.346 0.214 8.29 8.3 9.09
5/3/2018 6:15:00 PM 17.92 64.256 0.216 8.19 11.4 8.95
5/3/2018 6:30:00 PM 17.86 64.148 0.217 8.12 14.3 8.91
5/3/2018 6:45:00 PM 17.8 64.04 0.215 8.06 18.3 8.8
5/3/2018 7:00:00 PM 17.73 63.914 0.216 8.02 17.5 8.78
5/3/2018 7:15:00 PM 17.66 63.788 0.219 8 13.3 8.8
5/3/2018 7:30:00 PM 17.59 63.662 0.218 7.97 24.7 8.78
5/3/2018 7:45:00 PM 17.49 63.482 0.221 7.95 26.2 8.75
5/3/2018 8:00:00 PM 17.41 63.338 0.22 7.92 61.8 8.73
5/3/2018 8:15:00 PM 17.32 63.176 0.221 7.89 334.5 8.72
5/3/2018 8:30:00 PM 17.22 62.996 0.222 7.87 814.2 8.69
5/3/2018 8:45:00 PM 17.13 62.834 0.223 7.84 8.2 8.66
5/3/2018 9:00:00 PM 17.03 62.654 0.224 7.82 11.9 8.58
5/3/2018 9:15:00 PM 16.96 62.528 0.222 7.82 10.1 8.57
5/3/2018 9:30:00 PM 16.87 62.366 0.221 7.81 14.7 8.59
5/3/2018 9:45:00 PM 16.79 62.222 0.22 7.79 12.2 8.65
5/3/2018 10:00:00 PM 16.71 62.078 0.222 7.79 617.2 8.56
5/3/2018 10:15:00 PM 16.64 61.952 0.221 7.78 13.2 8.58
5/3/2018 10:30:00 PM 16.59 61.862 0.219 7.77 17.3 8.63
5/3/2018 10:45:00 PM 16.54 61.772 0.217 7.78 11.6 8.59
5/3/2018 11:00:00 PM 16.48 61.664 0.217 7.77 50.8 8.65
5/3/2018 11:15:00 PM 16.43 61.574 0.216 7.77 399.9 8.64
5/3/2018 11:30:00 PM 16.37 61.466 0.214 7.78 40.4 8.64
5/3/2018 11:45:00 PM 16.32 61.376 0.216 7.76 21.1 8.7
5/4/2018 12:00:00 AM 16.26 61.268 0.214 7.77 12.7 8.6
5/4/2018 12:15:00 AM 16.21 61.178 0.215 7.76 361 8.62
5/4/2018 12:30:00 AM 16.16 61.088 0.211 7.75 62.3 8.61
5/4/2018 12:45:00 AM 16.1 60.98 0.211 7.75 660.3 8.7
5/4/2018 1:00:00 AM 16.05 60.89 0.21 7.75 101.7 8.66
5/4/2018 1:15:00 AM 16 60.8 0.206 7.75 106 8.68
5/4/2018 1:30:00 AM 15.96 60.728 0.208 7.74 358.2 8.65
5/4/2018 1:45:00 AM 15.92 60.656 0.21 7.75 19.1 8.65
5/4/2018 2:00:00 AM 15.86 60.548 0.209 7.74 25 8.68
5/4/2018 2:15:00 AM 15.82 60.476 0.21 7.74 138.1 8.69
5/4/2018 2:30:00 AM 15.78 60.404 0.207 7.74 9.6 8.71
5/4/2018 2:45:00 AM 15.74 60.332 0.207 7.74 310.1 8.75
5/4/2018 3:00:00 AM 15.7 60.26 0.207 7.74 29.8 8.74
5/4/2018 3:15:00 AM 15.65 60.17 0.208 7.75 447.8 8.78
5/4/2018 3:30:00 AM 15.62 60.116 0.208 7.73 80.3 8.74
5/4/2018 3:45:00 AM 15.58 60.044 0.209 7.74 26.9 8.77
5/4/2018 4:00:00 AM 15.53 59.954 0.208 7.74 12.3 8.78
5/4/2018 4:15:00 AM 15.5 59.9 0.208 7.73 18 8.78
5/4/2018 4:30:00 AM 15.47 59.846 0.208 7.74 917.9 8.78
5/4/2018 4:45:00 AM 15.45 59.81 0.208 7.74 15.2 8.76
5/4/2018 5:00:00 AM 15.42 59.756 0.208 7.74 49.6 8.82
5/4/2018 5:15:00 AM 15.39 59.702 0.21 7.73 214.8 8.82
5/4/2018 5:30:00 AM 15.37 59.666 0.21 7.74 285 8.79
5/4/2018 5:45:00 AM 15.34 59.612 0.209 7.73 346.8 8.78
5/4/2018 6:00:00 AM 15.32 59.576 0.21 7.73 11.1 8.83
5/4/2018 6:15:00 AM 15.29 59.522 0.212 7.73 156.4 8.81
5/4/2018 6:30:00 AM 15.28 59.504 0.212 7.74 9.2 8.81
5/4/2018 6:45:00 AM 15.26 59.468 0.21 7.73 16.4 8.88
5/4/2018 7:00:00 AM 15.24 59.432 0.21 7.75 17.3 8.87
5/4/2018 7:15:00 AM 15.23 59.414 0.21 7.74 15 8.89
5/4/2018 7:30:00 AM 15.22 59.396 0.213 7.75 10.9 8.92
5/4/2018 7:45:00 AM 15.21 59.378 0.213 7.76 20.5 8.99
5/4/2018 8:00:00 AM 15.22 59.396 0.212 7.77 236.2 9.06
5/4/2018 8:15:00 AM 15.22 59.396 0.215 7.79 372.5 9.1
5/4/2018 8:30:00 AM 15.22 59.396 0.213 7.8 18.7 9.15
5/4/2018 8:45:00 AM 15.23 59.414 0.212 7.83 14.9 9.25
5/4/2018 9:00:00 AM 15.23 59.414 0.211 7.83 10.5 9.25
5/4/2018 9:15:00 AM 15.24 59.432 0.212 7.84 12.5 9.32
5/4/2018 9:30:00 AM 15.25 59.45 0.21 7.86 12.5 9.36
5/4/2018 9:45:00 AM 15.28 59.504 0.21 7.88 8.9 9.44
5/4/2018 10:00:00 AM 15.29 59.522 0.212 7.9 604.6 9.51
5/4/2018 10:15:00 AM 15.31 59.558 0.211 7.94 119.2 9.58
5/4/2018 10:30:00 AM 15.34 59.612 0.211 7.95 44.8 9.64
5/4/2018 10:45:00 AM 15.45 59.81 0.209 8.04 13.9 9.84
5/4/2018 11:00:00 AM 15.6 60.08 0.209 8.09 82.6 10
5/4/2018 11:15:00 AM 15.76 60.368 0.207 8.16 9.3 10.13
5/4/2018 11:30:00 AM 15.89 60.602 0.206 8.22 38.7 10.16
5/4/2018 11:45:00 AM 16.01 60.818 0.207 8.28 41.3 10.28
5/4/2018 12:00:00 PM 16.06 60.908 0.206 8.32 738.9 10.35
5/4/2018 12:15:00 PM 16.19 61.142 0.205 8.39 76.2 10.37
5/4/2018 12:30:00 PM 16.38 61.484 0.207 8.46 15.6 10.54
5/4/2018 12:45:00 PM 16.53 61.754 0.207 8.53 9.7 10.58
5/4/2018 1:00:00 PM 16.66 61.988 0.205 8.58 10 10.57
5/4/2018 1:15:00 PM 16.86 62.348 0.206 8.65 1037.3 10.55
5/4/2018 1:30:00 PM 16.97 62.546 0.206 8.71 12.2 10.64
5/4/2018 1:45:00 PM 17.14 62.852 0.202 8.76 11.6 10.69
5/4/2018 2:00:00 PM 17.37 63.266 0.206 8.8 8.8 10.64
5/4/2018 2:15:00 PM 17.42 63.356 0.209 8.79 11.4 10.69
5/4/2018 2:30:00 PM 17.51 63.518 0.207 8.82 296.3 10.52
5/4/2018 2:45:00 PM 17.76 63.968 0.206 8.86 120.1 10.57
5/4/2018 3:00:00 PM 18.13 64.634 0.205 8.89 10.8 10.66
5/4/2018 3:15:00 PM 18.38 65.084 0.205 8.91 11 10.56
5/4/2018 3:30:00 PM 18.61 65.498 0.204 8.92 13.2 10.58
5/4/2018 3:45:00 PM 18.74 65.732 0.205 8.94 10.2 10.49
5/4/2018 4:00:00 PM 18.79 65.82201 0.205 8.95 13.2 10.42
5/4/2018 4:15:00 PM 18.88 65.984 0.205 8.96 7.8 10.4
5/4/2018 4:30:00 PM 18.92 66.056 0.207 8.96 10.1 10.32
5/4/2018 4:45:00 PM 18.9 66.02 0.206 8.96 95.4 10.14
5/4/2018 5:00:00 PM 18.88 65.984 0.205 8.94 18.9 10.16
5/4/2018 5:15:00 PM 18.84 65.912 0.205 8.91 632.5 10
5/4/2018 5:30:00 PM 18.82 65.876 0.206 8.88 23.7 9.84
5/4/2018 5:45:00 PM 18.82 65.876 0.207 8.86 312.8 9.82
5/4/2018 6:00:00 PM 18.78 65.804 0.207 8.83 50.2 9.71
5/4/2018 6:15:00 PM 18.74 65.732 0.207 8.82 584.1 9.68
5/4/2018 6:30:00 PM 18.65 65.57 0.206 8.74 12.1 9.55
5/4/2018 6:45:00 PM 18.53 65.354 0.207 8.65 16.8 9.39
5/4/2018 7:00:00 PM 18.36 65.048 0.208 8.55 9.8 9.19
5/4/2018 7:15:00 PM 18.22 64.796 0.208 8.44 31.5 9.04
5/4/2018 7:30:00 PM 18.13 64.634 0.207 8.35 530.9 8.97
5/4/2018 7:45:00 PM 18.04 64.472 0.209 8.28 49 8.93
5/4/2018 8:00:00 PM 17.95 64.31 0.208 8.2 730.7 8.83
5/4/2018 8:15:00 PM 17.85 64.13 0.208 8.12 84.5 8.71
5/4/2018 8:30:00 PM 17.72 63.896 0.21 8.05 496.5 8.61
5/4/2018 8:45:00 PM 17.6 63.68 0.208 8 169.4 8.59
5/4/2018 9:00:00 PM 17.45 63.41 0.211 7.95 934 8.52
5/4/2018 9:15:00 PM 17.31 63.158 0.211 7.91 7.9 8.48
5/4/2018 9:30:00 PM 17.15 62.87 0.212 7.89 80.7 8.48
5/4/2018 9:45:00 PM 17 62.6 0.211 7.87 161.7 8.46
5/4/2018 10:00:00 PM 16.82 62.276 0.212 7.85 88.7 8.46
5/4/2018 10:15:00 PM 16.69 62.042 0.211 7.83 27 8.48
5/4/2018 10:30:00 PM 16.59 61.862 0.212 7.82 141.1 8.41
5/4/2018 10:45:00 PM 16.48 61.664 0.211 7.82 209 8.45
5/4/2018 11:00:00 PM 16.37 61.466 0.213 7.8 81.5 8.49
5/4/2018 11:15:00 PM 16.23 61.214 0.212 7.8 81.3 8.47
5/4/2018 11:30:00 PM 16.1 60.98 0.21 7.8 114.7 8.5
5/4/2018 11:45:00 PM 15.99 60.782 0.209 7.8 85.6 8.51
5/5/2018 12:00:00 AM 15.9 60.62 0.211 7.8 175.4 8.56
5/5/2018 12:15:00 AM 15.82 60.476 0.208 7.79 58.2 8.6
5/5/2018 12:30:00 AM 15.73 60.314 0.212 7.79 10.4 8.62
5/5/2018 12:45:00 AM 15.6 60.08 0.212 7.79 19.3 8.64
5/5/2018 1:00:00 AM 15.49 59.882 0.209 7.79 65 8.69
5/5/2018 1:15:00 AM 15.38 59.684 0.211 7.79 78 8.67
5/5/2018 1:30:00 AM 15.27 59.486 0.209 7.79 219.3 8.68
5/5/2018 1:45:00 AM 15.15 59.27 0.21 7.79 69.8 8.73
5/5/2018 2:00:00 AM 15.06 59.108 0.209 7.78 391.5 8.73
5/5/2018 2:15:00 AM 14.95 58.91 0.209 7.78 23.6 8.75
5/5/2018 2:30:00 AM 14.86 58.748 0.21 7.78 33.6 8.77
5/5/2018 2:45:00 AM 14.79 58.622 0.209 7.78 9.1 8.82
5/5/2018 3:00:00 AM 14.7 58.46 0.207 7.77 22.4 8.87
5/5/2018 3:15:00 AM 14.6 58.28 0.21 7.77 34.5 8.85
5/5/2018 3:30:00 AM 14.51 58.118 0.208 7.76 356.1 8.9
5/5/2018 3:45:00 AM 14.42 57.956 0.209 7.77 483.1 8.88
5/5/2018 4:00:00 AM 14.32 57.776 0.211 7.76 18.6 8.98
5/5/2018 4:15:00 AM 14.22 57.596 0.207 7.76 37.4 8.98
5/5/2018 4:30:00 AM 14.13 57.434 0.209 7.77 17.7 9.04
5/5/2018 4:45:00 AM 14.04 57.272 0.208 7.77 11.3 9
5/5/2018 5:00:00 AM 13.95 57.11 0.21 7.76 31.2 9.04
5/5/2018 5:15:00 AM 13.85 56.93 0.209 7.76 33 9.05
5/5/2018 5:30:00 AM 13.76 56.768 0.213 7.77 7.6 9.24
5/5/2018 5:45:00 AM 13.67 56.606 0.21 7.75 10.9 9.2
5/5/2018 6:00:00 AM 13.57 56.426 0.213 7.76 11.1 9.25
5/5/2018 6:15:00 AM 13.48 56.264 0.21 7.76 11.3 9.2
5/5/2018 6:30:00 AM 13.39 56.102 0.211 7.76 17.7 9.26
5/5/2018 6:45:00 AM 13.29 55.922 0.211 7.78 81.1 9.34
5/5/2018 7:00:00 AM 13.22 55.796 0.215 7.8 11.9 9.39
5/5/2018 7:15:00 AM 13.18 55.724 0.211 7.8 42.7 9.48
5/5/2018 7:30:00 AM 13.16 55.688 0.209 7.82 52.7 9.62
5/5/2018 7:45:00 AM 13.15 55.67 0.213 7.84 19.1 9.71
5/5/2018 8:00:00 AM 13.16 55.688 0.213 7.85 13.7 9.83
5/5/2018 8:15:00 AM 13.2 55.76 0.213 7.89 10.6 9.92
5/5/2018 8:30:00 AM 13.26 55.868 0.215 7.93 49.5 10.02
5/5/2018 8:45:00 AM 13.34 56.012 0.213 7.96 675.5 10.1
5/5/2018 9:00:00 AM 13.43 56.174 0.214 7.98 216 10.21
5/5/2018 9:15:00 AM 13.51 56.318 0.213 8.04 707.7 10.29
5/5/2018 9:30:00 AM 13.63 56.534 0.215 8.08 526.4 10.33
5/5/2018 9:45:00 AM 13.79 56.822 0.214 8.12 314.7 10.41
5/5/2018 10:00:00 AM 13.97 57.146 0.214 8.16 522.5 10.5
5/5/2018 10:15:00 AM 14.14 57.452 0.214 8.23 338.5 10.63
5/5/2018 10:30:00 AM 14.34 57.812 0.213 8.29 552.1 10.65
5/5/2018 10:45:00 AM 14.56 58.208 0.215 8.34 485.5 10.61
5/5/2018 11:00:00 AM 14.67 58.406 0.214 8.38 125.2 10.66
5/5/2018 11:15:00 AM 14.84 58.712 0.214 8.45 87.3 10.79
5/5/2018 11:30:00 AM 15.06 59.108 0.212 8.5 46 10.93
5/5/2018 11:45:00 AM 15.29 59.522 0.211 8.56 17 10.72
5/5/2018 12:00:00 PM 15.51 59.918 0.211 8.61 22.9 10.83
5/5/2018 12:15:00 PM 15.79 60.422 0.21 8.66 631.3 11.01
5/5/2018 12:30:00 PM 16.07 60.926 0.212 8.73 14.2 10.88
5/5/2018 12:45:00 PM 16.3 61.34 0.211 8.76 11.3 11.05
5/5/2018 1:00:00 PM 16.42 61.556 0.21 8.81 9 10.92
5/5/2018 1:15:00 PM 16.58 61.844 0.211 8.84 9.3 10.98
5/5/2018 1:30:00 PM 16.77 62.186 0.209 8.87 10.1 10.65
5/5/2018 1:45:00 PM 16.99 62.582 0.21 8.9 10.7 10.79
5/5/2018 2:00:00 PM 17.19 62.942 0.209 8.92 14.8 10.94
5/5/2018 2:15:00 PM 17.31 63.158 0.207 8.94 12.1 11
5/5/2018 2:30:00 PM 17.53 63.554 0.208 8.97 16.9 10.82
5/5/2018 2:45:00 PM 17.61 63.698 0.207 8.98 19.6 11.15
5/5/2018 3:00:00 PM 17.85 64.13 0.209 8.99 36 11.11
5/5/2018 3:15:00 PM 18.05 64.49 0.21 9.01 39.8 11.03
5/5/2018 3:30:00 PM 18.24 64.832 0.211 9.02 11.5 11.06
5/5/2018 3:45:00 PM 18.26 64.868 0.211 9.03 15.2 10.96
5/5/2018 4:00:00 PM 18.39 65.102 0.212 9.03 7.9 10.91
5/5/2018 4:15:00 PM 18.42 65.156 0.209 9.02 14.2 10.77
5/5/2018 4:30:00 PM 18.58 65.444 0.21 9.02 11.1 10.76
5/5/2018 4:45:00 PM 18.61 65.498 0.21 9.03 10.5 10.69
5/5/2018 5:00:00 PM 18.58 65.444 0.209 9.02 16.5 10.59
5/5/2018 5:15:00 PM 18.63 65.534 0.209 9.01 10.4 10.58
5/5/2018 5:30:00 PM 18.63 65.534 0.208 9.01 10.1 10.51
5/5/2018 5:45:00 PM 18.57 65.426 0.21 8.98 14 10.41
5/5/2018 6:00:00 PM 18.43 65.174 0.211 8.95 9.4 10.2
5/5/2018 6:15:00 PM 18.32 64.976 0.21 8.9 7.7 10.02
5/5/2018 6:30:00 PM 18.24 64.832 0.208 8.85 9.7 9.86
5/5/2018 6:45:00 PM 18.14 64.652 0.21 8.8 177.3 9.71
5/5/2018 7:00:00 PM 18.05 64.49 0.209 8.74 65.1 9.63
5/5/2018 7:15:00 PM 17.94 64.292 0.21 8.68 10.6 9.47
5/5/2018 7:30:00 PM 17.81 64.058 0.212 8.59 9.4 9.36
5/5/2018 7:45:00 PM 17.71 63.878 0.213 8.49 9.8 9.21
5/5/2018 8:00:00 PM 17.6 63.68 0.212 8.39 9 9.08
5/5/2018 8:15:00 PM 17.47 63.446 0.214 8.3 10.5 8.97
5/5/2018 8:30:00 PM 17.34 63.212 0.214 8.21 9.7 8.88
5/5/2018 8:45:00 PM 17.24 63.032 0.214 8.14 9.2 8.8
5/5/2018 9:00:00 PM 17.11 62.798 0.215 8.07 9.6 8.8
5/5/2018 9:15:00 PM 16.99 62.582 0.216 8.01 8.2 8.75
5/5/2018 9:30:00 PM 16.87 62.366 0.215 7.99 10.5 8.73
5/5/2018 9:45:00 PM 16.75 62.15 0.216 7.95 7.9 8.69
5/5/2018 10:00:00 PM 16.65 61.97 0.215 7.92 7.8 8.65
5/5/2018 10:15:00 PM 16.55 61.79 0.216 7.89 7.5 8.6
5/5/2018 10:30:00 PM 16.46 61.628 0.215 7.87 7.4 8.65
5/5/2018 10:45:00 PM 16.36 61.448 0.216 7.85 10.7 8.63
5/5/2018 11:00:00 PM 16.26 61.268 0.216 7.84 11.8 8.57
5/5/2018 11:15:00 PM 16.18 61.124 0.216 7.83 8.3 8.54
5/5/2018 11:30:00 PM 16.09 60.962 0.217 7.81 10.1 8.5
5/5/2018 11:45:00 PM 16 60.8 0.216 7.81 8.3 8.52
5/6/2018 12:00:00 AM 15.93 60.674 0.216 7.8 10.3 8.56
5/6/2018 12:15:00 AM 15.85 60.53 0.216 7.8 8.1 8.58
5/6/2018 12:30:00 AM 15.78 60.404 0.217 7.78 7.1 8.54
5/6/2018 12:45:00 AM 15.72 60.296 0.217 7.79 7.5 8.52
5/6/2018 1:00:00 AM 15.66 60.188 0.217 7.78 8.2 8.53
5/6/2018 1:15:00 AM 15.59 60.062 0.218 7.78 11.7 8.58
5/6/2018 1:30:00 AM 15.52 59.936 0.218 7.77 7 8.56
5/6/2018 1:45:00 AM 15.47 59.846 0.215 7.77 9.7 8.61
5/6/2018 2:00:00 AM 15.41 59.738 0.214 7.76 11.2 8.59
5/6/2018 2:15:00 AM 15.35 59.63 0.214 7.76 8.3 8.64
5/6/2018 2:30:00 AM 15.29 59.522 0.215 7.77 8.8 8.63
5/6/2018 2:45:00 AM 15.23 59.414 0.217 7.76 58.9 8.64
5/6/2018 3:00:00 AM 15.17 59.306 0.218 7.75 7.4 8.65
5/6/2018 3:15:00 AM 15.12 59.216 0.217 7.76 7.2 8.7
5/6/2018 3:30:00 AM 15.07 59.126 0.218 7.76 8.2 8.73
5/6/2018 3:45:00 AM 15.01 59.018 0.218 7.76 8.1 8.75
5/6/2018 4:00:00 AM 14.95 58.91 0.218 7.76 11.9 8.82
5/6/2018 4:15:00 AM 14.91 58.838 0.218 7.76 7.5 8.81
5/6/2018 4:30:00 AM 14.86 58.748 0.216 7.76 7.3 8.72
5/6/2018 4:45:00 AM 14.81 58.658 0.217 7.75 10.5 8.84
5/6/2018 5:00:00 AM 14.76 58.568 0.217 7.76 10.1 8.76
5/6/2018 5:15:00 AM 14.71 58.478 0.217 7.76 6.9 8.77
5/6/2018 5:30:00 AM 14.66 58.388 0.217 7.76 822.7 8.74
5/6/2018 5:45:00 AM 14.61 58.298 0.217 7.75 6.9 8.77
5/6/2018 6:00:00 AM 14.57 58.226 0.217 7.76 7.5 8.84
5/6/2018 6:15:00 AM 14.52 58.136 0.217 7.75 7.3 8.84
5/6/2018 6:30:00 AM 14.48 58.064 0.217 7.75 10.1 8.81
5/6/2018 6:45:00 AM 14.44 57.992 0.218 7.76 12.6 8.86
5/6/2018 7:00:00 AM 14.4 57.92 0.218 7.76 6.9 8.89
5/6/2018 7:15:00 AM 14.37 57.866 0.218 7.77 9.5 8.88
5/6/2018 7:30:00 AM 14.34 57.812 0.219 7.77 9.2 8.94
5/6/2018 7:45:00 AM 14.3 57.74 0.216 7.8 9 9.03
5/6/2018 8:00:00 AM 14.28 57.704 0.218 7.79 8.1 9.05
5/6/2018 8:15:00 AM 14.26 57.668 0.218 7.8 9.7 9.13
5/6/2018 8:30:00 AM 14.23 57.614 0.219 7.82 8.7 9.2
5/6/2018 8:45:00 AM 14.21 57.578 0.218 7.84 10 9.32
5/6/2018 9:00:00 AM 14.21 57.578 0.219 7.87 8.8 9.49
5/6/2018 9:15:00 AM 14.23 57.614 0.217 7.9 12 9.63
5/6/2018 9:30:00 AM 14.27 57.686 0.217 7.95 13.1 9.83
5/6/2018 9:45:00 AM 14.32 57.776 0.218 8 11.9 10
5/6/2018 10:00:00 AM 14.37 57.866 0.216 8.04 11.8 10.15
5/6/2018 10:15:00 AM 14.43 57.974 0.218 8.09 8.2 10.31
5/6/2018 10:30:00 AM 14.5 58.1 0.216 8.16 7.8 10.45
5/6/2018 10:45:00 AM 14.55 58.19 0.217 8.19 9.7 10.53
5/6/2018 11:00:00 AM 14.6 58.28 0.216 8.25 8.9 10.65
5/6/2018 11:15:00 AM 14.7 58.46 0.217 8.34 7.8 10.81
5/6/2018 11:30:00 AM 14.8 58.64 0.216 8.41 11.1 10.96
5/6/2018 11:45:00 AM 14.94 58.892 0.215 8.49 7.6 11.07
5/6/2018 12:00:00 PM 15.04 59.072 0.216 8.54 14.7 11.19
5/6/2018 12:15:00 PM 15.15 59.27 0.215 8.62 70.6 11.25
5/6/2018 12:30:00 PM 15.25 59.45 0.215 8.68 41 11.26
5/6/2018 12:45:00 PM 15.35 59.63 0.214 8.73 13.6 11.33
5/6/2018 1:00:00 PM 15.4 59.72 0.213 8.76 8.5 11.32
5/6/2018 1:15:00 PM 15.38 59.684 0.213 8.77 9 11.17
5/6/2018 1:30:00 PM 15.36 59.648 0.213 8.78 30.3 10.89
5/6/2018 1:45:00 PM 15.38 59.684 0.213 8.78 13 10.87
5/6/2018 2:00:00 PM 15.4 59.72 0.215 8.8 8.1 10.83
5/6/2018 2:15:00 PM 15.43 59.774 0.213 8.8 50.1 10.83
5/6/2018 2:30:00 PM 15.46 59.828 0.209 8.82 12.4 10.82
5/6/2018 2:45:00 PM 15.44 59.792 0.211 8.8 19.3 10.69
5/6/2018 3:00:00 PM 15.42 59.756 0.21 8.78 18.7 10.55
5/6/2018 3:15:00 PM 15.39 59.702 0.21 8.76 19.3 10.42
5/6/2018 3:30:00 PM 15.37 59.666 0.21 8.73 62.9 10.17
5/6/2018 3:45:00 PM 15.34 59.612 0.21 8.71 29.6 10.33
5/6/2018 4:00:00 PM 15.3 59.54 0.211 8.66 28 10.21
5/6/2018 4:15:00 PM 15.24 59.432 0.211 8.59 19 10.13
5/6/2018 4:30:00 PM 15.18 59.324 0.212 8.53 16.7 10.05
5/6/2018 4:45:00 PM 15.12 59.216 0.212 8.45 39 9.97
5/6/2018 5:00:00 PM 15.05 59.09 0.212 8.36 19.2 9.87
5/6/2018 5:15:00 PM 14.97 58.946 0.215 8.26 404.1 9.74
5/6/2018 5:30:00 PM 14.93 58.874 0.211 8.22 292.7 9.69
5/6/2018 5:45:00 PM 14.86 58.748 0.212 8.15 380.4 9.62
5/6/2018 6:00:00 PM 14.8 58.64 0.214 8.1 448.9 9.55
5/6/2018 6:15:00 PM 14.76 58.568 0.214 8.07 210.6 9.56
5/6/2018 6:30:00 PM 14.72 58.496 0.215 8.05 200.2 9.54
5/6/2018 6:45:00 PM 14.66 58.388 0.212 8.03 1149.6 9.47
5/6/2018 7:00:00 PM 14.58 58.244 0.215 7.99 109.1 9.41
5/6/2018 7:15:00 PM 14.52 58.136 0.214 7.96 156.1 9.35
5/6/2018 7:30:00 PM 14.46 58.028 0.216 7.94 198.8 9.31
5/6/2018 7:45:00 PM 14.38 57.884 0.217 7.92 60.6 9.28
5/6/2018 8:00:00 PM 14.31 57.758 0.216 7.91 516.6 9.24
5/6/2018 8:15:00 PM 14.24 57.632 0.216 7.89 61.5 9.21
5/6/2018 8:30:00 PM 14.16 57.488 0.216 7.88 74.9 9.19
5/6/2018 8:45:00 PM 14.07 57.326 0.216 7.86 754.9 9.16
5/6/2018 9:00:00 PM 13.99 57.182 0.214 7.86 531.1 9.07
5/6/2018 9:15:00 PM 13.91 57.038 0.212 7.84 743.6 9.14
5/6/2018 9:30:00 PM 13.84 56.912 0.211 7.83 143.7 9.13
5/6/2018 9:45:00 PM 13.77 56.786 0.211 7.82 857.3 9.15
5/6/2018 10:00:00 PM 13.69 56.642 0.208 7.82 563.4 9.15
5/6/2018 10:15:00 PM 13.61 56.498 0.209 7.81 207.2 9.16
5/6/2018 10:30:00 PM 13.53 56.354 0.21 7.8 122.4 9.16
5/6/2018 10:45:00 PM 13.46 56.228 0.207 7.81 200.7 9.2
5/6/2018 11:00:00 PM 13.4 56.12 0.209 7.8 185.5 9.19
5/6/2018 11:15:00 PM 13.36 56.048 0.211 7.8 122.6 9.19
5/6/2018 11:30:00 PM 13.3 55.94 0.209 7.79 287.5 9.22
5/6/2018 11:45:00 PM 13.24 55.832 0.207 7.79 312.7 9.23
5/7/2018 12:00:00 AM 13.17 55.706 0.206 7.79 216.2 9.26
5/7/2018 12:15:00 AM 13.1 55.58 0.208 7.79 285.3 9.27
5/7/2018 12:30:00 AM 13.05 55.49 0.203 7.79 195.9 9.28
5/7/2018 12:45:00 AM 13 55.4 0.205 7.78 224.2 9.29
5/7/2018 1:00:00 AM 12.95 55.31 0.202 7.79 217.7 9.3
5/7/2018 1:15:00 AM 12.91 55.238 0.207 7.79 102.8 9.31
5/7/2018 1:30:00 AM 12.87 55.166 0.203 7.79 237.8 9.33
5/7/2018 1:45:00 AM 12.84 55.112 0.205 7.79 118.8 9.33
5/7/2018 2:00:00 AM 12.81 55.058 0.202 7.78 471.2 9.33
5/7/2018 2:15:00 AM 12.8 55.04 0.202 7.79 136.5 9.35
5/7/2018 2:30:00 AM 12.76 54.968 0.203 7.79 168 9.39
5/7/2018 2:45:00 AM 12.75 54.95 0.203 7.79 338.6 9.35
5/7/2018 3:00:00 AM 12.71 54.878 0.199 7.78 131.3 9.37
5/7/2018 3:15:00 AM 12.69 54.842 0.203 7.78 210.7 9.37
5/7/2018 3:30:00 AM 12.66 54.788 0.203 7.78 91.6 9.37
5/7/2018 3:45:00 AM 12.66 54.788 0.201 7.78 298.8 9.35
5/7/2018 4:00:00 AM 12.64 54.752 0.203 7.78 337.8 9.37
5/7/2018 4:15:00 AM 12.62 54.716 0.207 7.77 231 9.37
5/7/2018 4:30:00 AM 12.61 54.698 0.206 7.77 197 9.38
5/7/2018 4:45:00 AM 12.61 54.698 0.208 7.77 510.2 9.38
5/7/2018 5:00:00 AM 12.59 54.662 0.207 7.78 128.8 9.39
5/7/2018 5:15:00 AM 12.57 54.626 0.205 7.77 175 9.37
5/7/2018 5:30:00 AM 12.56 54.608 0.209 7.78 235.1 9.4
5/7/2018 5:45:00 AM 12.53 54.554 0.21 7.77 178.6 9.41
5/7/2018 6:00:00 AM 12.51 54.518 0.209 7.76 378.7 9.41
5/7/2018 6:15:00 AM 12.48 54.464 0.207 7.78 302.9 9.44
5/7/2018 6:30:00 AM 12.47 54.446 0.205 7.78 440.2 9.44
5/7/2018 6:45:00 AM 12.45 54.41 0.206 7.77 427.1 9.48
5/7/2018 7:00:00 AM 12.43 54.374 0.206 7.79 324.9 9.53
5/7/2018 7:15:00 AM 12.43 54.374 0.206 7.79 334.9 9.59
5/7/2018 7:30:00 AM 12.42 54.356 0.206 7.82 222.5 9.68
5/7/2018 7:45:00 AM 12.4 54.32 0.206 7.82 183.4 9.69
5/7/2018 8:00:00 AM 12.38 54.284 0.205 7.82 255 9.71
5/7/2018 8:15:00 AM 12.36 54.248 0.206 7.83 233.7 9.79
5/7/2018 8:30:00 AM 12.37 54.266 0.205 7.87 192.7 9.91
5/7/2018 8:45:00 AM 12.38 54.284 0.206 7.88 195.3 9.98
5/7/2018 9:00:00 AM 12.35 54.23 0.205 7.9 196.2 10
5/7/2018 9:15:00 AM 12.33 54.194 0.202 7.91 185.6 10.04
5/7/2018 9:30:00 AM 12.33 54.194 0.204 7.93 245.5 10.09
5/7/2018 9:45:00 AM 12.32 54.176 0.209 7.94 134.6 10.19
5/7/2018 10:00:00 AM 12.32 54.176 0.212 7.97 677.9 10.3
5/7/2018 10:15:00 AM 12.36 54.248 0.208 8 168.6 10.44
5/7/2018 10:30:00 AM 12.42 54.356 0.207 8.06 271.2 10.62
5/7/2018 10:45:00 AM 12.52 54.536 0.203 8.15 290.6 10.81
5/7/2018 11:00:00 AM 12.68 54.824 0.203 8.2 149 10.93
5/7/2018 11:15:00 AM 12.76 54.968 0.205 8.24 204 11.02
5/7/2018 11:30:00 AM 12.82 55.076 0.203 8.28 231.8 11.11
5/7/2018 11:45:00 AM 12.92 55.256 0.208 8.34 176.2 11.23
5/7/2018 12:00:00 PM 13.05 55.49 0.205 8.42 104.3 11.33
5/7/2018 12:15:00 PM 13.19 55.742 0.205 8.48 138.2 11.41
5/7/2018 12:30:00 PM 13.41 56.138 0.204 8.56 91 11.48
5/7/2018 12:45:00 PM 13.73 56.714 0.204 8.61 46.5 11.54
5/7/2018 1:00:00 PM 13.98 57.164 0.203 8.67 138.4 11.59
5/7/2018 1:15:00 PM 14 57.2 0.202 8.7 249.6 11.58
5/7/2018 1:30:00 PM 14.18 57.524 0.202 8.76 275.6 11.61
5/7/2018 1:45:00 PM 14.45 58.01 0.205 8.8 29 11.62
5/7/2018 2:00:00 PM 14.75 58.55 0.204 8.82 499.9 11.61
5/7/2018 2:15:00 PM 15 59 0.204 8.86 892.5 11.61
5/7/2018 2:30:00 PM 15.18 59.324 0.204 8.88 314.8 11.58
5/7/2018 2:45:00 PM 15.42 59.756 0.2 8.91 409.8 11.54
5/7/2018 3:00:00 PM 15.62 60.116 0.203 8.92 84.6 11.57
5/7/2018 3:15:00 PM 15.81 60.458 0.202 8.94 244.6 11.45
5/7/2018 3:30:00 PM 15.99 60.782 0.202 8.96 679.6 11.4
5/7/2018 3:45:00 PM 15.96 60.728 0.201 8.96 59.1 11.32
5/7/2018 4:00:00 PM 15.93 60.674 0.197 8.96 118.6 11.23
5/7/2018 4:15:00 PM 15.99 60.782 0.198 8.98 477.5 11.17
5/7/2018 4:30:00 PM 16.03 60.854 0.202 8.97 96.5 11.13
5/7/2018 4:45:00 PM 16.16 61.088 0.203 8.97 268.5 11.13
5/7/2018 5:00:00 PM 16.17 61.106 0.2 8.97 994.8 11.05
5/7/2018 5:15:00 PM 16.17 61.106 0.206 8.95 287.5 10.91
5/7/2018 5:30:00 PM 16.14 61.052 0.201 8.93 959.7 10.8
5/7/2018 5:45:00 PM 16.15 61.07 0.206 8.91 271.8 10.68
5/7/2018 6:00:00 PM 16.13 61.034 0.204 8.87 1266.7 10.55
5/7/2018 6:15:00 PM 16.11 60.998 0.206 8.84 179.5 10.49
5/7/2018 6:30:00 PM 16.09 60.962 0.207 8.82 412.2 10.43
5/7/2018 6:45:00 PM 16.06 60.908 0.207 8.78 81.1 10.33
5/7/2018 7:00:00 PM 15.99 60.782 0.206 8.74 144.1 10.22
5/7/2018 7:15:00 PM 15.89 60.602 0.203 8.66 144.8 10.08
5/7/2018 7:30:00 PM 15.79 60.422 0.203 8.59 277.4 9.94
5/7/2018 7:45:00 PM 15.68 60.224 0.204 8.49 141.8 9.8
5/7/2018 8:00:00 PM 15.57 60.026 0.204 8.39 134.5 9.67
5/7/2018 8:15:00 PM 15.46 59.828 0.207 8.28 439.1 9.53
5/7/2018 8:30:00 PM 15.33 59.594 0.208 8.19 750.4 9.44
5/7/2018 8:45:00 PM 15.21 59.378 0.208 8.1 605.6 9.34
5/7/2018 9:00:00 PM 15.08 59.144 0.208 8.04 10.4 9.3
5/7/2018 9:15:00 PM 14.95 58.91 0.209 8 534.4 9.25
5/7/2018 9:30:00 PM 14.84 58.712 0.21 7.95 731.5 9.24
5/7/2018 9:45:00 PM 14.72 58.496 0.211 7.92 457.9 9.2
5/7/2018 10:00:00 PM 14.6 58.28 0.211 7.9 363.9 9.22
5/7/2018 10:15:00 PM 14.48 58.064 0.211 7.86 380.1 9.2
5/7/2018 10:30:00 PM 14.36 57.848 0.213 7.86 76.4 9.23
5/7/2018 10:45:00 PM 14.25 57.65 0.212 7.84 884 9.18
5/7/2018 11:00:00 PM 14.14 57.452 0.213 7.83 218.4 9.23
5/7/2018 11:15:00 PM 14.02 57.236 0.212 7.82 870.4 9.17
5/7/2018 11:30:00 PM 13.9 57.02 0.209 7.81 413.6 9.2
5/7/2018 11:45:00 PM 13.79 56.822 0.209 7.8 562.4 9.24
5/8/2018 12:00:00 AM 13.67 56.606 0.209 7.79 1161.4 9.25
5/8/2018 12:15:00 AM 13.56 56.408 0.21 7.79 719.9 9.3
5/8/2018 12:30:00 AM 13.44 56.192 0.209 7.79 411.1 9.28
5/8/2018 12:45:00 AM 13.33 55.994 0.211 7.78 97.7 9.36
5/8/2018 1:00:00 AM 13.2 55.76 0.209 7.78 615 9.38
5/8/2018 1:15:00 AM 13.1 55.58 0.21 7.78 578.9 9.41
5/8/2018 1:30:00 AM 13 55.4 0.21 7.77 753.5 9.38
5/8/2018 1:45:00 AM 12.89 55.202 0.21 7.77 8.3 9.4
5/8/2018 2:00:00 AM 12.78 55.004 0.211 7.77 597.1 9.54
5/8/2018 2:15:00 AM 12.66 54.788 0.21 7.77 1024.6 9.48
5/8/2018 2:30:00 AM 12.56 54.608 0.21 7.76 72.2 9.54
5/8/2018 2:45:00 AM 12.45 54.41 0.21 7.75 238 9.58
5/8/2018 3:00:00 AM 12.35 54.23 0.208 7.76 414.8 9.65
5/8/2018 3:15:00 AM 12.25 54.05 0.21 7.76 332.9 9.67
5/8/2018 3:30:00 AM 12.15 53.87 0.209 7.75 747.8 9.68
5/8/2018 3:45:00 AM 12.05 53.69 0.21 7.76 32.3 9.73
5/8/2018 4:00:00 AM 11.95 53.51 0.21 7.76 207 9.78
5/8/2018 4:15:00 AM 11.85 53.33 0.209 7.74 662.9 9.72
5/8/2018 4:30:00 AM 11.76 53.168 0.208 7.75 819 9.8
5/8/2018 4:45:00 AM 11.66 52.988 0.209 7.76 580.7 9.88
5/8/2018 5:00:00 AM 11.58 52.844 0.21 7.75 476.4 9.88
5/8/2018 5:15:00 AM 11.49 52.682 0.209 7.74 1247.5 9.9
5/8/2018 5:30:00 AM 11.4 52.52 0.21 7.76 495.4 9.92
5/8/2018 5:45:00 AM 11.31 52.358 0.211 7.74 106.4 9.93
5/8/2018 6:00:00 AM 11.23 52.214 0.211 7.74 268.3 10.03
5/8/2018 6:15:00 AM 11.15 52.07 0.211 7.76 162 10.06
5/8/2018 6:30:00 AM 11.08 51.944 0.21 7.75 286.3 10.04
5/8/2018 6:45:00 AM 11.02 51.836 0.208 7.78 1244.7 10.06
5/8/2018 7:00:00 AM 10.96 51.728 0.21 7.78 404.2 10.18
5/8/2018 7:15:00 AM 10.93 51.674 0.211 7.79 11.3 10.21
5/8/2018 7:30:00 AM 10.93 51.674 0.209 7.82 826.9 10.28
5/8/2018 7:45:00 AM 10.94 51.692 0.211 7.83 205.5 10.39
5/8/2018 8:00:00 AM 10.98 51.764 0.212 7.86 401.2 10.51
5/8/2018 8:15:00 AM 11.04 51.872 0.211 7.9 575.3 10.58
5/8/2018 8:30:00 AM 11.11 51.998 0.212 7.95 966.9 10.64
5/8/2018 8:45:00 AM 11.22 52.196 0.211 7.98 427.5 10.71
5/8/2018 9:00:00 AM 11.33 52.394 0.212 8.02 426.6 10.75
5/8/2018 9:15:00 AM 11.47 52.646 0.211 8.04 676.1 10.83
5/8/2018 9:30:00 AM 11.64 52.952 0.211 8.1 258.4 10.9
5/8/2018 9:45:00 AM 11.82 53.276 0.209 8.15 452.9 10.93
5/8/2018 10:00:00 AM 12.02 53.636 0.212 8.19 777.5 10.89
5/8/2018 10:15:00 AM 12.25 54.05 0.211 8.25 1047.5 10.86
5/8/2018 10:30:00 AM 12.47 54.446 0.209 8.3 450.1 10.78
5/8/2018 10:45:00 AM 12.72 54.896 0.207 8.36 961.5 10.82
5/8/2018 11:00:00 AM 12.99 55.382 0.21 8.42 934.3 10.99
5/8/2018 11:15:00 AM 13.27 55.886 0.209 8.49 957.8 10.95
5/8/2018 11:30:00 AM 13.59 56.462 0.208 8.55 571.1 11.13
5/8/2018 11:45:00 AM 13.89 57.002 0.207 8.61 48.6 11.45
5/8/2018 12:00:00 PM 14.11 57.398 0.206 8.64 575.3 11.34
5/8/2018 12:15:00 PM 14.51 58.118 0.206 8.72 275.7 11.26
5/8/2018 12:30:00 PM 14.76 58.568 0.207 8.77 648.2 11.45
5/8/2018 12:45:00 PM 14.88 58.784 0.206 8.79 63.6 11.68
5/8/2018 1:00:00 PM 15.22 59.396 0.204 8.83 647 11.75
5/8/2018 1:15:00 PM 15.36 59.648 0.204 8.86 708.6 11.53
5/8/2018 1:30:00 PM 15.42 59.756 0.205 8.88 99.3 11.5
5/8/2018 1:45:00 PM 15.51 59.918 0.205 8.89 323.5 11.29
5/8/2018 2:00:00 PM 15.87 60.566 0.205 8.93 506 10.89
5/8/2018 2:15:00 PM 16.02 60.836 0.207 8.97 842.7 10.96
5/8/2018 2:30:00 PM 16.08 60.944 0.205 8.98 404.9 10.95
5/8/2018 2:45:00 PM 16.41 61.538 0.203 9 11.5 10.87
5/8/2018 3:00:00 PM 16.49 61.682 0.202 9 103.2 10.63
5/8/2018 3:15:00 PM 16.49 61.682 0.203 9 469.9 10.42
5/8/2018 3:30:00 PM 16.43 61.574 0.203 8.99 83.4 10.51
5/8/2018 3:45:00 PM 16.47 61.646 0.204 9.01 21.1 10.33
5/8/2018 4:00:00 PM 16.54 61.772 0.199 9.04 548.1 10.63
5/8/2018 4:15:00 PM 16.65 61.97 0.204 9.01 488.8 10.4
5/8/2018 4:30:00 PM 16.74 62.132 0.207 9.02 111.9 10.23
5/8/2018 4:45:00 PM 16.82 62.276 0.205 9.03 632.9 10.22
5/8/2018 5:00:00 PM 16.81 62.258 0.203 9.03 94.9 9.96
5/8/2018 5:15:00 PM 16.78 62.204 0.202 9.01 11.9 10.2
5/8/2018 5:30:00 PM 16.77 62.186 0.202 9.01 562.9 10.33
5/8/2018 5:45:00 PM 16.73 62.114 0.203 9 771 10.1
5/8/2018 6:00:00 PM 16.74 62.132 0.203 8.99 258.6 10.2
5/8/2018 6:15:00 PM 16.7 62.06 0.201 8.98 507.3 10.26
5/8/2018 6:30:00 PM 16.63 61.934 0.204 8.94 220 10.04
5/8/2018 6:45:00 PM 16.55 61.79 0.205 8.91 12.7 10.11
5/8/2018 7:00:00 PM 16.45 61.61 0.205 8.86 22.9 10.12
5/8/2018 7:15:00 PM 16.34 61.412 0.206 8.81 13.7 10.08
5/8/2018 7:30:00 PM 16.24 61.232 0.206 8.73 82.7 9.97
5/8/2018 7:45:00 PM 16.12 61.016 0.207 8.65 57.9 9.81
5/8/2018 8:00:00 PM 16.01 60.818 0.209 8.54 22 9.65
5/8/2018 8:15:00 PM 15.89 60.602 0.211 8.42 69.9 9.51
5/8/2018 8:30:00 PM 15.77 60.386 0.21 8.31 668 9.4
5/8/2018 8:45:00 PM 15.66 60.188 0.212 8.2 641 9.34
5/8/2018 9:00:00 PM 15.54 59.972 0.212 8.13 41.2 9.26
5/8/2018 9:15:00 PM 15.44 59.792 0.211 8.06 37.7 9.22
5/8/2018 9:30:00 PM 15.33 59.594 0.213 8.01 47.4 9.15
5/8/2018 9:45:00 PM 15.24 59.432 0.212 7.97 22.9 9.15
5/8/2018 10:00:00 PM 15.14 59.252 0.216 7.93 293.7 9.12
5/8/2018 10:15:00 PM 15.04 59.072 0.216 7.9 345.7 9.18
5/8/2018 10:30:00 PM 14.93 58.874 0.216 7.88 13.2 9.13
5/8/2018 10:45:00 PM 14.83 58.694 0.216 7.85 25.8 9.11
5/8/2018 11:00:00 PM 14.72 58.496 0.217 7.84 49.6 9.1
5/8/2018 11:15:00 PM 14.62 58.316 0.216 7.82 224.3 9.25
5/8/2018 11:30:00 PM 14.51 58.118 0.216 7.81 14.8 9.18
5/8/2018 11:45:00 PM 14.41 57.938 0.216 7.8 27.8 9.1
5/9/2018 12:00:00 AM 14.32 57.776 0.216 7.8 41.9 9.02
5/9/2018 12:15:00 AM 14.22 57.596 0.215 7.8 11.9 9.09
5/9/2018 12:30:00 AM 14.13 57.434 0.215 7.78 10.2 8.97
5/9/2018 12:45:00 AM 14.04 57.272 0.214 7.77 31.2 9.03
5/9/2018 1:00:00 AM 13.95 57.11 0.214 7.76 527.3 9.15
5/9/2018 1:15:00 AM 13.86 56.948 0.215 7.77 166.2 9.04
5/9/2018 1:30:00 AM 13.78 56.804 0.214 7.76 27.3 9.01
5/9/2018 1:45:00 AM 13.69 56.642 0.214 7.75 9.6 9.09
5/9/2018 2:00:00 AM 13.61 56.498 0.216 7.75 18 9.07
5/9/2018 2:15:00 AM 13.53 56.354 0.214 7.76 86.5 9.14
5/9/2018 2:30:00 AM 13.45 56.21 0.215 7.76 63.4 9.16
5/9/2018 2:45:00 AM 13.37 56.066 0.213 7.75 13.8 9.14
5/9/2018 3:00:00 AM 13.29 55.922 0.215 7.74 31.6 9.2
5/9/2018 3:15:00 AM 13.21 55.778 0.215 7.75 11.9 9.19
5/9/2018 3:30:00 AM 13.14 55.652 0.215 7.74 303.7 9.19
5/9/2018 3:45:00 AM 13.07 55.526 0.215 7.74 21.8 9.14
5/9/2018 4:00:00 AM 13 55.4 0.214 7.74 13 9.25
5/9/2018 4:15:00 AM 12.93 55.274 0.214 7.74 84.2 9.22
5/9/2018 4:30:00 AM 12.86 55.148 0.214 7.73 9.2 9.29
5/9/2018 4:45:00 AM 12.79 55.022 0.214 7.74 81.8 9.3
5/9/2018 5:00:00 AM 12.72 54.896 0.215 7.74 11 9.32
5/9/2018 5:15:00 AM 12.65 54.77 0.215 7.74 18.9 9.38
5/9/2018 5:30:00 AM 12.57 54.626 0.215 7.74 10.7 9.33
5/9/2018 5:45:00 AM 12.51 54.518 0.215 7.73 8.5 9.28
5/9/2018 6:00:00 AM 12.44 54.392 0.214 7.74 11.2 9.29
5/9/2018 6:15:00 AM 12.37 54.266 0.214 7.75 10.3 9.33
5/9/2018 6:30:00 AM 12.33 54.194 0.214 7.74 11.1 9.49
5/9/2018 6:45:00 AM 12.28 54.104 0.214 7.76 10.4 9.44
5/9/2018 7:00:00 AM 12.23 54.014 0.216 7.78 10.4 9.6
5/9/2018 7:15:00 AM 12.21 53.978 0.215 7.79 14.8 9.68
5/9/2018 7:30:00 AM 12.2 53.96 0.215 7.8 12.5 9.81
5/9/2018 7:45:00 AM 12.22 53.996 0.214 7.84 127.2 9.95
5/9/2018 8:00:00 AM 12.27 54.086 0.216 7.86 9 10.12
5/9/2018 8:15:00 AM 12.34 54.212 0.215 7.91 155.3 10.27
5/9/2018 8:30:00 AM 12.44 54.392 0.215 7.95 94.1 10.39
5/9/2018 8:45:00 AM 12.56 54.608 0.215 7.98 120.8 10.53
5/9/2018 9:00:00 AM 12.7 54.86 0.214 8.04 179.2 10.69
5/9/2018 9:15:00 AM 12.85 55.13 0.215 8.08 183.6 10.78
5/9/2018 9:30:00 AM 13.01 55.418 0.215 8.14 526.9 10.83
5/9/2018 9:45:00 AM 13.2 55.76 0.215 8.2 372.2 11.01
5/9/2018 10:00:00 AM 13.4 56.12 0.212 8.27 543.9 11.11
5/9/2018 10:15:00 AM 13.61 56.498 0.216 8.32 471.4 11.24
5/9/2018 10:30:00 AM 13.84 56.912 0.214 8.39 80.1 11.21
5/9/2018 10:45:00 AM 14.08 57.344 0.214 8.47 250.7 11.39
5/9/2018 11:00:00 AM 14.33 57.794 0.214 8.52 3.9 11.4
5/9/2018 11:15:00 AM 14.6 58.28 0.213 8.6 7.8 11.39
5/9/2018 11:30:00 AM 14.89 58.802 0.21 8.67 112.8 11.32
5/9/2018 11:45:00 AM 14.99 58.982 0.211 8.68 643.9 11.27
5/9/2018 12:00:00 PM 15.38 59.684 0.21 8.75 59.2 11.57
5/9/2018 12:15:00 PM 15.74 60.332 0.207 8.83 13.8 11.79
5/9/2018 12:30:00 PM 16.13 61.034 0.207 8.87 702.5 11.75
5/9/2018 12:45:00 PM 16.48 61.664 0.208 8.91 35.6 11.65
5/9/2018 1:00:00 PM 16.75 62.15 0.209 8.95 9.4 11.42
5/9/2018 1:15:00 PM 16.91 62.438 0.207 8.97 371.4 11.57
5/9/2018 1:30:00 PM 17.02 62.636 0.207 8.99 18.2 11.43
5/9/2018 1:45:00 PM 17.5 63.5 0.205 9.04 56.8 11.63
5/9/2018 2:00:00 PM 17.88 64.184 0.208 9.07 23.2 11.62
5/9/2018 2:15:00 PM 18.17 64.706 0.206 9.09 10.2 11.63
5/9/2018 2:30:00 PM 18.45 65.21 0.205 9.12 397.5 11.64
5/9/2018 2:45:00 PM 18.75 65.75 0.203 9.15 9.1 11.58
5/9/2018 3:00:00 PM 19 66.2 0.199 9.19 10.2 11.55
5/9/2018 3:15:00 PM 19.21 66.578 0.202 9.19 14.5 11.5
5/9/2018 3:30:00 PM 19.38 66.884 0.205 9.18 32.1 11.39
5/9/2018 3:45:00 PM 19.51 67.118 0.208 9.19 11.3 11.32
5/9/2018 4:00:00 PM 19.62 67.316 0.209 9.19 10.5 11.25
5/9/2018 4:15:00 PM 19.73 67.514 0.208 9.19 11.3 11.16
5/9/2018 4:30:00 PM 19.58 67.244 0.207 9.17 12.4 10.86
5/9/2018 4:45:00 PM 19.42 66.956 0.207 9.14 10.7 10.63
5/9/2018 5:00:00 PM 19.42 66.956 0.206 9.14 13 10.54
5/9/2018 5:15:00 PM 19.36 66.848 0.207 9.12 15.8 10.44
5/9/2018 5:30:00 PM 19.29 66.722 0.208 9.09 21.3 10.32
5/9/2018 5:45:00 PM 19.19 66.542 0.211 9.06 9.8 10.15
5/9/2018 6:00:00 PM 19.11 66.398 0.209 9.04 9.3 10.04
5/9/2018 6:15:00 PM 19.04 66.272 0.208 9.02 13.2 9.95
5/9/2018 6:30:00 PM 18.99 66.182 0.208 8.99 135.4 9.95
5/9/2018 6:45:00 PM 18.94 66.092 0.21 8.96 13.1 9.88
5/9/2018 7:00:00 PM 18.82 65.876 0.213 8.92 381.3 9.77
5/9/2018 7:15:00 PM 18.7 65.66 0.21 8.87 17.1 9.6
5/9/2018 7:30:00 PM 18.56 65.408 0.212 8.79 13.1 9.44
5/9/2018 7:45:00 PM 18.42 65.156 0.212 8.71 54.1 9.25
5/9/2018 8:00:00 PM 18.27 64.886 0.212 8.61 16.8 9.09
5/9/2018 8:15:00 PM 18.12 64.616 0.214 8.5 13.4 8.93
5/9/2018 8:30:00 PM 17.97 64.346 0.212 8.4 167.6 8.8
5/9/2018 8:45:00 PM 17.84 64.112 0.214 8.31 11.1 8.73
5/9/2018 9:00:00 PM 17.72 63.896 0.215 8.22 23.4 8.66
5/9/2018 9:15:00 PM 17.59 63.662 0.215 8.14 14.8 8.61
5/9/2018 9:30:00 PM 17.49 63.482 0.216 8.08 11.8 8.53
5/9/2018 9:45:00 PM 17.36 63.248 0.217 8.03 12.4 8.46
5/9/2018 10:00:00 PM 17.21 62.978 0.219 7.98 16.4 8.43
5/9/2018 10:15:00 PM 17.08 62.744 0.221 7.94 89.1 8.39
5/9/2018 10:30:00 PM 16.97 62.546 0.219 7.9 19.5 8.36
5/9/2018 10:45:00 PM 16.85 62.33 0.22 7.88 60.8 8.35
5/9/2018 11:00:00 PM 16.74 62.132 0.22 7.87 89.6 8.31
5/9/2018 11:15:00 PM 16.62 61.916 0.22 7.85 15.8 8.32
5/9/2018 11:30:00 PM 16.51 61.718 0.22 7.82 10.9 8.3
5/9/2018 11:45:00 PM 16.4 61.52 0.221 7.82 156.5 8.31
5/10/2018 12:00:00 AM 16.28 61.304 0.22 7.81 275.5 8.31
5/10/2018 12:15:00 AM 16.16 61.088 0.221 7.8 196.1 8.33
5/10/2018 12:30:00 AM 16.06 60.908 0.22 7.79 11.2 8.34
5/10/2018 12:45:00 AM 15.94 60.692 0.22 7.79 16.7 8.32
5/10/2018 1:00:00 AM 15.85 60.53 0.221 7.78 41.2 8.34
5/10/2018 1:15:00 AM 15.74 60.332 0.221 7.79 313.9 8.35
5/10/2018 1:30:00 AM 15.66 60.188 0.219 7.78 190.6 8.37
5/10/2018 1:45:00 AM 15.57 60.026 0.22 7.78 376.7 8.39
5/10/2018 2:00:00 AM 15.49 59.882 0.22 7.78 296.2 8.42
5/10/2018 2:15:00 AM 15.4 59.72 0.22 7.77 588.9 8.42
5/10/2018 2:30:00 AM 15.31 59.558 0.219 7.76 31.1 8.45
5/10/2018 2:45:00 AM 15.24 59.432 0.22 7.76 386.5 8.44
5/10/2018 3:00:00 AM 15.15 59.27 0.22 7.75 17.1 8.44
5/10/2018 3:15:00 AM 15.08 59.144 0.22 7.77 11.2 8.46
5/10/2018 3:30:00 AM 15.01 59.018 0.22 7.76 9.7 8.5
5/10/2018 3:45:00 AM 14.96 58.928 0.219 7.75 288.6 8.51
5/10/2018 4:00:00 AM 14.9 58.82 0.219 7.75 200.9 8.52
5/10/2018 4:15:00 AM 14.85 58.73 0.218 7.76 20.4 8.55
5/10/2018 4:30:00 AM 14.79 58.622 0.219 7.75 866.3 8.55
5/10/2018 4:45:00 AM 14.73 58.514 0.218 7.76 397.4 8.55
5/10/2018 5:00:00 AM 14.65 58.37 0.218 7.76 1029.2 8.56
5/10/2018 5:15:00 AM 14.59 58.262 0.219 7.76 411.6 8.59
5/10/2018 5:30:00 AM 14.53 58.154 0.218 7.76 843 8.6
5/10/2018 5:45:00 AM 14.48 58.064 0.219 7.76 189.7 8.6
5/10/2018 6:00:00 AM 14.43 57.974 0.219 7.75 55.7 8.64
5/10/2018 6:15:00 AM 14.39 57.902 0.218 7.77 597.1 8.66
5/10/2018 6:30:00 AM 14.37 57.866 0.218 7.78 156.3 8.76
5/10/2018 6:45:00 AM 14.36 57.848 0.218 7.78 34.7 8.77
5/10/2018 7:00:00 AM 14.34 57.812 0.217 7.79 377.6 8.82
5/10/2018 7:15:00 AM 14.32 57.776 0.218 7.79 988.7 8.89
5/10/2018 7:30:00 AM 14.3 57.74 0.219 7.79 1175.4 8.93
5/10/2018 7:45:00 AM 14.29 57.722 0.218 7.81 421.3 9.06
5/10/2018 8:00:00 AM 14.31 57.758 0.219 7.85 1139.2 9.3
5/10/2018 8:15:00 AM 14.38 57.884 0.219 7.9 546.8 9.55
5/10/2018 8:30:00 AM 14.43 57.974 0.218 7.95 314.2 9.71
5/10/2018 8:45:00 AM 14.41 57.938 0.218 7.94 797.8 9.62
5/10/2018 9:00:00 AM 14.37 57.866 0.219 7.91 128.6 9.45
5/10/2018 9:15:00 AM 14.32 57.776 0.218 7.92 48.2 9.4
5/10/2018 9:30:00 AM 14.3 57.74 0.218 7.91 690.8 9.45
5/10/2018 9:45:00 AM 14.3 57.74 0.218 7.94 512.1 9.54
5/10/2018 10:00:00 AM 14.38 57.884 0.217 8.02 79.9 9.87
5/10/2018 10:15:00 AM 14.44 57.992 0.218 8.06 25.9 10.04
5/10/2018 10:30:00 AM 14.59 58.262 0.218 8.16 82.5 10.37
5/10/2018 10:45:00 AM 14.66 58.388 0.217 8.21 118.2 10.46
5/10/2018 11:00:00 AM 14.78 58.604 0.218 8.28 12.9 10.61
5/10/2018 11:15:00 AM 14.84 58.712 0.214 8.35 15.1 10.72
5/10/2018 11:30:00 AM 14.92 58.856 0.215 8.4 8.9 10.76
5/10/2018 11:45:00 AM 15.01 59.018 0.217 8.44 7.7 10.9
5/10/2018 12:00:00 PM 15.11 59.198 0.216 8.5 8.6 11
5/10/2018 12:15:00 PM 15.32 59.576 0.216 8.57 8.9 11.15
5/10/2018 12:30:00 PM 15.64 60.152 0.215 8.66 9.2 11.27
5/10/2018 12:45:00 PM 16.06 60.908 0.213 8.72 9.8 11.32
5/10/2018 1:00:00 PM 16.38 61.484 0.212 8.79 8.9 11.39
5/10/2018 1:15:00 PM 16.38 61.484 0.213 8.8 10 11.26
5/10/2018 1:30:00 PM 16.67 62.006 0.211 8.87 9.7 11.38
5/10/2018 1:45:00 PM 16.86 62.348 0.21 8.91 10.8 11.41
5/10/2018 2:00:00 PM 17.07 62.726 0.21 8.96 10.1 11.54
5/10/2018 2:15:00 PM 17.23 63.014 0.211 9 12 11.51
5/10/2018 2:30:00 PM 17.21 62.978 0.211 8.99 13.6 11.22
5/10/2018 2:45:00 PM 17.32 63.176 0.209 8.99 15.9 11.02
5/10/2018 3:00:00 PM 17.48 63.464 0.209 9.01 10.1 11.17
5/10/2018 3:15:00 PM 17.57 63.626 0.206 9.02 10.1 10.97
5/10/2018 3:30:00 PM 17.6 63.68 0.203 8.98 10.1 10.5
5/10/2018 3:45:00 PM 17.5 63.5 0.206 8.9 10.5 10.2
5/10/2018 4:00:00 PM 17.47 63.446 0.21 8.88 9.6 10.1
5/10/2018 4:15:00 PM 17.52 63.536 0.211 8.92 9.8 10.16
5/10/2018 4:30:00 PM 17.71 63.878 0.21 8.95 12.2 10.29
5/10/2018 4:45:00 PM 17.76 63.968 0.211 8.97 11.8 10.25
5/10/2018 5:00:00 PM 17.82 64.076 0.21 8.96 10.6 10.29
5/10/2018 5:15:00 PM 17.88 64.184 0.211 8.94 11.5 10.3
5/10/2018 5:30:00 PM 17.93 64.274 0.211 8.92 12.9 10.25
5/10/2018 5:45:00 PM 17.93 64.274 0.21 8.88 14.2 10.01
5/10/2018 6:00:00 PM 17.86 64.148 0.211 8.79 13.7 9.73
5/10/2018 6:15:00 PM 17.79 64.022 0.212 8.73 19.4 9.66
5/10/2018 6:30:00 PM 17.79 64.022 0.213 8.7 19.1 9.68
5/10/2018 6:45:00 PM 17.75 63.95 0.213 8.67 16.9 9.65
5/10/2018 7:00:00 PM 17.7 63.86 0.213 8.64 15.5 9.55
5/10/2018 7:15:00 PM 17.59 63.662 0.213 8.59 16 9.47
5/10/2018 7:30:00 PM 17.48 63.464 0.214 8.53 17.7 9.37
5/10/2018 7:45:00 PM 17.37 63.266 0.214 8.45 17.8 9.26
5/10/2018 8:00:00 PM 17.28 63.104 0.214 8.37 19 9.13
5/10/2018 8:15:00 PM 17.17 62.906 0.216 8.29 17.1 9
5/10/2018 8:30:00 PM 17.07 62.726 0.216 8.22 12.9 8.91
5/10/2018 8:45:00 PM 16.98 62.564 0.217 8.15 14.6 8.83
5/10/2018 9:00:00 PM 16.89 62.402 0.216 8.09 12.8 8.74
5/10/2018 9:15:00 PM 16.82 62.276 0.216 8.04 12.5 8.68
5/10/2018 9:30:00 PM 16.74 62.132 0.217 8.01 19.3 8.62
5/10/2018 9:45:00 PM 16.67 62.006 0.216 7.97 14 8.58
5/10/2018 10:00:00 PM 16.59 61.862 0.217 7.94 16.4 8.55
5/10/2018 10:15:00 PM 16.5 61.7 0.217 7.91 16.6 8.54
5/10/2018 10:30:00 PM 16.41 61.538 0.217 7.88 13 8.53
5/10/2018 10:45:00 PM 16.33 61.394 0.216 7.86 16.3 8.5
5/10/2018 11:00:00 PM 16.25 61.25 0.216 7.85 12.7 8.46
5/10/2018 11:15:00 PM 16.16 61.088 0.215 7.83 16.7 8.47
5/10/2018 11:30:00 PM 16.07 60.926 0.215 7.83 18 8.52
5/10/2018 11:45:00 PM 15.99 60.782 0.213 7.82 95.8 8.49
5/11/2018 12:00:00 AM 15.92 60.656 0.213 7.81 9.8 8.54
5/11/2018 12:15:00 AM 15.85 60.53 0.212 7.8 22.9 8.6
5/11/2018 12:30:00 AM 15.79 60.422 0.212 7.79 10.3 8.66
5/11/2018 12:45:00 AM 15.72 60.296 0.212 7.78 11.5 8.7
5/11/2018 1:00:00 AM 15.66 60.188 0.212 7.79 80.4 8.72
5/11/2018 1:15:00 AM 15.61 60.098 0.212 7.78 41.2 8.71
5/11/2018 1:30:00 AM 15.55 59.99 0.211 7.78 107 8.73
5/11/2018 1:45:00 AM 15.48 59.864 0.211 7.77 54.4 8.64
5/11/2018 2:00:00 AM 15.41 59.738 0.211 7.77 63.5 8.63
5/11/2018 2:15:00 AM 15.34 59.612 0.21 7.77 54 8.68
5/11/2018 2:30:00 AM 15.26 59.468 0.21 7.76 231.3 8.8
5/11/2018 2:45:00 AM 15.17 59.306 0.211 7.77 42.3 8.73
5/11/2018 3:00:00 AM 15.08 59.144 0.21 7.78 230.3 8.81
5/11/2018 3:15:00 AM 15 59 0.21 7.77 10.9 8.79
5/11/2018 3:30:00 AM 14.93 58.874 0.21 7.77 9.9 9.11
5/11/2018 3:45:00 AM 14.83 58.694 0.21 7.76 8.4 8.9
5/11/2018 4:00:00 AM 14.73 58.514 0.21 7.78 116.8 9.06
5/11/2018 4:15:00 AM 14.65 58.37 0.21 7.77 164.2 8.78
5/11/2018 4:30:00 AM 14.57 58.226 0.21 7.77 597.5 8.89
5/11/2018 4:45:00 AM 14.48 58.064 0.21 7.77 109.7 9.01
5/11/2018 5:00:00 AM 14.41 57.938 0.209 7.76 398.3 8.88
5/11/2018 5:15:00 AM 14.32 57.776 0.208 7.77 60.7 8.91
5/11/2018 5:30:00 AM 14.25 57.65 0.207 7.77 653.2 8.95
5/11/2018 5:45:00 AM 14.16 57.488 0.209 7.77 477.2 9
5/11/2018 6:00:00 AM 14.07 57.326 0.21 7.77 510.1 8.99
5/11/2018 6:15:00 AM 13.98 57.164 0.209 7.77 368.7 9.08
5/11/2018 6:30:00 AM 13.89 57.002 0.21 7.78 309.9 9.1
5/11/2018 6:45:00 AM 13.79 56.822 0.21 7.79 876 9.1
5/11/2018 7:00:00 AM 13.69 56.642 0.211 7.8 326.1 9.22
5/11/2018 7:15:00 AM 13.63 56.534 0.209 7.81 866.6 9.32
5/11/2018 7:30:00 AM 13.58 56.444 0.209 7.83 38.9 9.45
5/11/2018 7:45:00 AM 13.58 56.444 0.211 7.88 274.5 9.68
5/11/2018 8:00:00 AM 13.59 56.462 0.211 7.91 788.5 9.8
5/11/2018 8:15:00 AM 13.55 56.39 0.211 7.95 127 9.92
5/11/2018 8:30:00 AM 13.5 56.3 0.211 7.97 307.4 9.99
5/11/2018 8:45:00 AM 13.51 56.318 0.216 8 746.4 10.1
5/11/2018 9:00:00 AM 13.62 56.516 0.219 8.04 684 10.24
5/11/2018 9:15:00 AM 13.73 56.714 0.214 8.12 1029.9 10.38
5/11/2018 9:30:00 AM 13.84 56.912 0.208 8.21 1076.6 10.5
5/11/2018 9:45:00 AM 13.97 57.146 0.205 8.28 1025.7 10.68
5/11/2018 10:00:00 AM 14.08 57.344 0.206 8.33 651.5 10.7
5/11/2018 10:15:00 AM 14.21 57.578 0.208 8.38 884.5 10.8
5/11/2018 10:30:00 AM 14.37 57.866 0.21 8.42 642.8 10.88
5/11/2018 10:45:00 AM 14.52 58.136 0.21 8.49 722.2 11.04
5/11/2018 11:00:00 AM 14.68 58.424 0.211 8.54 833.6 11.1
5/11/2018 11:15:00 AM 14.85 58.73 0.21 8.6 954.3 10.86
5/11/2018 11:30:00 AM 15.06 59.108 0.208 8.66 687.4 11.2
5/11/2018 11:45:00 AM 15.2 59.36 0.209 8.7 862.4 11.3
5/11/2018 12:00:00 PM 15.37 59.666 0.209 8.75 311.4 11.27
5/11/2018 12:15:00 PM 15.51 59.918 0.211 8.79 525.9 11.22
5/11/2018 12:30:00 PM 15.7 60.26 0.21 8.85 9.7 11.77
5/11/2018 12:45:00 PM 15.79 60.422 0.205 8.9 189.5 11.39
5/11/2018 1:00:00 PM 15.97 60.746 0.205 8.93 11.4 11.29
5/11/2018 1:15:00 PM 16.09 60.962 0.205 8.97 12.5 11.31
5/11/2018 1:30:00 PM 16.28 61.304 0.205 9 857 11.34
5/11/2018 1:45:00 PM 16.43 61.574 0.205 9.03 24.9 11.36
5/11/2018 2:00:00 PM 16.47 61.646 0.204 9.05 17.6 11.12
5/11/2018 2:15:00 PM 16.57 61.826 0.204 9.08 83 11.35
5/11/2018 2:30:00 PM 16.84 62.312 0.203 9.1 37.6 11.25
5/11/2018 2:45:00 PM 17 62.6 0.201 9.13 22.8 11.17
5/11/2018 3:00:00 PM 17.14 62.852 0.198 9.16 20.2 11.42
5/11/2018 3:15:00 PM 17.41 63.338 0.195 9.18 17 11.28
5/11/2018 3:30:00 PM 17.37 63.266 0.198 9.17 11.4 11.19
5/11/2018 3:45:00 PM 17.31 63.158 0.199 9.17 14.1 11.21
5/11/2018 4:00:00 PM 17.21 62.978 0.199 9.16 12.3 11.08
5/11/2018 4:15:00 PM 17.15 62.87 0.197 9.17 9.6 11.17
5/11/2018 4:30:00 PM 17.13 62.834 0.198 9.17 18.4 11
5/11/2018 4:45:00 PM 17.06 62.708 0.199 9.13 16.5 10.86
5/11/2018 5:00:00 PM 17 62.6 0.198 9.12 10.9 10.79
5/11/2018 5:15:00 PM 16.94 62.492 0.199 9.11 13.6 10.66
5/11/2018 5:30:00 PM 16.87 62.366 0.197 9.1 12.6 10.56
5/11/2018 5:45:00 PM 16.8 62.24 0.2 9.07 12.8 10.46
5/11/2018 6:00:00 PM 16.71 62.078 0.201 9.05 10.3 10.36
5/11/2018 6:15:00 PM 16.63 61.934 0.201 9.02 10.5 10.2
5/11/2018 6:30:00 PM 16.55 61.79 0.199 8.98 12.9 10.1
5/11/2018 6:45:00 PM 16.45 61.61 0.199 8.94 15.3 9.97
5/11/2018 7:00:00 PM 16.36 61.448 0.202 8.89 87.5 9.9
5/11/2018 7:15:00 PM 16.27 61.286 0.201 8.85 12.5 9.8
5/11/2018 7:30:00 PM 16.18 61.124 0.202 8.79 21.3 9.7
5/11/2018 7:45:00 PM 16.07 60.926 0.204 8.72 28.4 9.53
5/11/2018 8:00:00 PM 15.98 60.764 0.205 8.63 22.8 9.37
5/11/2018 8:15:00 PM 15.88 60.584 0.206 8.55 15.1 9.26
5/11/2018 8:30:00 PM 15.76 60.368 0.207 8.45 18.2 9.16
5/11/2018 8:45:00 PM 15.67 60.206 0.207 8.37 13.4 9.08
5/11/2018 9:00:00 PM 15.57 60.026 0.207 8.28 11 9.01
5/11/2018 9:15:00 PM 15.48 59.864 0.208 8.22 23.5 8.96
5/11/2018 9:30:00 PM 15.4 59.72 0.209 8.15 17.5 8.92
5/11/2018 9:45:00 PM 15.31 59.558 0.209 8.09 89.6 8.88
5/11/2018 10:00:00 PM 15.22 59.396 0.21 8.04 31 8.82
5/11/2018 10:15:00 PM 15.13 59.234 0.211 8.01 19.4 8.8
5/11/2018 10:30:00 PM 15.05 59.09 0.208 7.98 54.5 8.75
5/11/2018 10:45:00 PM 14.95 58.91 0.209 7.94 109.2 8.74
5/11/2018 11:00:00 PM 14.88 58.784 0.209 7.91 23.3 8.71
5/11/2018 11:15:00 PM 14.8 58.64 0.209 7.9 98.9 8.7
5/11/2018 11:30:00 PM 14.72 58.496 0.211 7.88 23.1 8.69
5/11/2018 11:45:00 PM 14.64 58.352 0.21 7.87 21.8 8.69
5/12/2018 12:00:00 AM 14.57 58.226 0.213 7.86 27.1 8.69
5/12/2018 12:15:00 AM 14.5 58.1 0.212 7.84 30.6 8.67
5/12/2018 12:30:00 AM 14.42 57.956 0.212 7.83 25.6 8.68
5/12/2018 12:45:00 AM 14.35 57.83 0.215 7.82 32.6 8.69
5/12/2018 1:00:00 AM 14.27 57.686 0.215 7.82 29.5 8.69
5/12/2018 1:15:00 AM 14.21 57.578 0.214 7.81 23.2 8.7
5/12/2018 1:30:00 AM 14.15 57.47 0.214 7.8 22.8 8.72
5/12/2018 1:45:00 AM 14.08 57.344 0.213 7.79 21.1 8.73
5/12/2018 2:00:00 AM 14.02 57.236 0.213 7.78 22.8 8.74
5/12/2018 2:15:00 AM 13.93 57.074 0.212 7.8 90 8.75
5/12/2018 2:30:00 AM 13.86 56.948 0.212 7.79 24.4 8.77
5/12/2018 2:45:00 AM 13.8 56.84 0.212 7.78 15.9 8.78
5/12/2018 3:00:00 AM 13.73 56.714 0.212 7.78 38.1 8.79
5/12/2018 3:15:00 AM 13.67 56.606 0.212 7.78 22.3 8.82
5/12/2018 3:30:00 AM 13.61 56.498 0.211 7.77 19.5 8.81
5/12/2018 3:45:00 AM 13.56 56.408 0.214 7.78 21.9 8.83
5/12/2018 4:00:00 AM 13.51 56.318 0.213 7.78 19.2 8.83
5/12/2018 4:15:00 AM 13.44 56.192 0.213 7.77 27.1 8.84
5/12/2018 4:30:00 AM 13.39 56.102 0.213 7.76 28.1 8.85
5/12/2018 4:45:00 AM 13.33 55.994 0.211 7.77 30.6 8.84
5/12/2018 5:00:00 AM 13.28 55.904 0.213 7.76 568.7 8.85
5/12/2018 5:15:00 AM 13.22 55.796 0.213 7.75 35.3 8.86
5/12/2018 5:30:00 AM 13.17 55.706 0.212 7.75 31 8.86
5/12/2018 5:45:00 AM 13.11 55.598 0.211 7.74 35.2 8.89
5/12/2018 6:00:00 AM 13.06 55.508 0.211 7.75 31 8.9
5/12/2018 6:15:00 AM 13.01 55.418 0.211 7.76 34.4 8.93
5/12/2018 6:30:00 AM 12.98 55.364 0.211 7.76 33.9 8.95
5/12/2018 6:45:00 AM 12.94 55.292 0.211 7.76 29.3 8.99
5/12/2018 7:00:00 AM 12.91 55.238 0.212 7.76 32.9 9.04
5/12/2018 7:15:00 AM 12.87 55.166 0.212 7.76 14.7 9.1
5/12/2018 7:30:00 AM 12.82 55.076 0.212 7.77 28.8 9.11
5/12/2018 7:45:00 AM 12.75 54.95 0.211 7.78 33.9 9.15
5/12/2018 8:00:00 AM 12.68 54.824 0.214 7.78 25.7 9.2
5/12/2018 8:15:00 AM 12.61 54.698 0.21 7.78 22.7 9.27
5/12/2018 8:30:00 AM 12.55 54.59 0.21 7.79 69.2 9.34
5/12/2018 8:45:00 AM 12.47 54.446 0.21 7.79 85.6 9.33
5/12/2018 9:00:00 AM 12.44 54.392 0.211 7.82 68.7 9.4
5/12/2018 9:15:00 AM 12.39 54.302 0.209 7.82 53.2 9.44
5/12/2018 9:30:00 AM 12.36 54.248 0.207 7.83 105.7 9.55
5/12/2018 9:45:00 AM 12.34 54.212 0.204 7.83 93.1 9.56
5/12/2018 10:00:00 AM 12.27 54.086 0.205 7.82 204 9.59
5/12/2018 10:15:00 AM 12.22 53.996 0.202 7.81 105.7 9.59
5/12/2018 10:30:00 AM 12.16 53.888 0.202 7.81 107.8 9.6
5/12/2018 10:45:00 AM 12.06 53.708 0.2 7.81 149.1 9.64
5/12/2018 11:00:00 AM 11.96 53.528 0.197 7.79 103.2 9.72
5/12/2018 11:15:00 AM 11.9 53.42 0.191 7.78 122.5 9.8
5/12/2018 11:30:00 AM 11.86 53.348 0.191 7.77 180.6 9.81
5/12/2018 11:45:00 AM 11.83 53.294 0.19 7.75 104.2 9.84
5/12/2018 12:00:00 PM 11.8 53.24 0.188 7.79 105.4 9.84
5/12/2018 12:15:00 PM 11.77 53.186 0.186 7.8 100.9 9.84
5/12/2018 12:30:00 PM 11.75 53.15 0.184 7.79 105.5 9.86
5/12/2018 12:45:00 PM 11.77 53.186 0.183 7.8 94.6 9.85
5/12/2018 1:00:00 PM 11.81 53.258 0.18 7.8 91.3 9.88
5/12/2018 1:15:00 PM 11.89 53.402 0.178 7.8 90 9.89
5/12/2018 1:30:00 PM 12 53.6 0.177 7.76 101.6 9.86
5/12/2018 1:45:00 PM 12.09 53.762 0.177 7.76 99 9.83
5/12/2018 2:00:00 PM 12.16 53.888 0.177 7.75 87.8 9.79
5/12/2018 2:15:00 PM 12.19 53.942 0.177 7.76 95.6 9.79
5/12/2018 2:30:00 PM 12.2 53.96 0.178 7.75 98.2 9.78
5/12/2018 2:45:00 PM 12.21 53.978 0.175 7.74 102.5 9.76
5/12/2018 3:00:00 PM 12.21 53.978 0.168 7.73 115.9 9.75
5/12/2018 3:15:00 PM 12.22 53.996 0.165 7.73 147.1 9.74
5/12/2018 3:30:00 PM 12.23 54.014 0.16 7.7 195.9 9.75
5/12/2018 3:45:00 PM 12.2 53.96 0.156 7.69 244.6 9.73
5/12/2018 4:00:00 PM 12.14 53.852 0.152 7.66 286.8 9.75
5/12/2018 4:15:00 PM 12.11 53.798 0.145 7.6 330.6 9.77
5/12/2018 4:30:00 PM 12.07 53.726 0.138 7.55 432.7 9.8
5/12/2018 4:45:00 PM 12.04 53.672 0.133 7.55 510.5 9.83
5/12/2018 5:00:00 PM 12.01 53.618 0.13 7.56 495.1 9.83
5/12/2018 5:15:00 PM 11.96 53.528 0.127 7.53 551.6 9.89
5/12/2018 5:30:00 PM 11.88 53.384 0.126 7.53 603.7 9.94
5/12/2018 5:45:00 PM 11.84 53.312 0.123 7.51 624.5 9.94
5/12/2018 6:00:00 PM 11.83 53.294 0.121 7.5 747.9 9.95
5/12/2018 6:15:00 PM 11.87 53.366 0.12 7.49 1239.9 9.95
5/12/2018 6:30:00 PM 11.9 53.42 0.119 7.48 1123.1 9.92
5/12/2018 6:45:00 PM 11.87 53.366 0.116 7.47 858 9.91
5/12/2018 7:00:00 PM 11.82 53.276 0.121 7.47 1007 9.92
5/12/2018 7:15:00 PM 11.79 53.222 0.124 7.48 1093.6 9.92
5/12/2018 7:30:00 PM 11.77 53.186 0.125 7.49 959.1 9.9
5/12/2018 7:45:00 PM 11.74 53.132 0.125 7.48 846.5 9.89
5/12/2018 8:00:00 PM 11.69 53.042 0.123 7.47 558.2 9.87
5/12/2018 8:15:00 PM 11.64 52.952 0.122 7.47 927 9.87
5/12/2018 8:30:00 PM 11.6 52.88 0.121 7.46 1219.2 9.88
5/12/2018 8:45:00 PM 11.57 52.826 0.12 7.45 383.2 9.88
5/12/2018 9:00:00 PM 11.54 52.772 0.117 7.45 415.7 9.88
5/12/2018 9:15:00 PM 11.5 52.7 0.12 7.45 375.5 9.91
5/12/2018 9:30:00 PM 11.48 52.664 0.116 7.43 371.2 9.88
5/12/2018 9:45:00 PM 11.46 52.628 0.114 7.45 275.4 9.89
5/12/2018 10:00:00 PM 11.44 52.592 0.116 7.44 259.7 9.9
5/12/2018 10:15:00 PM 11.42 52.556 0.116 7.45 245.7 9.89
5/12/2018 10:30:00 PM 11.4 52.52 0.12 7.44 226.4 9.9
5/12/2018 10:45:00 PM 11.38 52.484 0.12 7.43 207.9 9.91
5/12/2018 11:00:00 PM 11.35 52.43 0.121 7.43 192.6 9.91
5/12/2018 11:15:00 PM 11.33 52.394 0.12 7.44 182.7 9.9
5/12/2018 11:30:00 PM 11.31 52.358 0.122 7.45 162 9.91
5/12/2018 11:45:00 PM 11.29 52.322 0.123 7.45 155.7 9.91
5/13/2018 12:00:00 AM 11.26 52.268 0.122 7.45 152.2 9.88
5/13/2018 12:15:00 AM 11.24 52.232 0.123 7.45 141.5 9.86
5/13/2018 12:30:00 AM 11.22 52.196 0.124 7.45 128.6 9.83
5/13/2018 12:45:00 AM 11.19 52.142 0.124 7.46 120.5 9.92
5/13/2018 1:00:00 AM 11.16 52.088 0.125 7.47 116.6 9.9
5/13/2018 1:15:00 AM 11.14 52.052 0.126 7.46 111 9.95
5/13/2018 1:30:00 AM 11.12 52.016 0.126 7.46 102.6 9.92
5/13/2018 1:45:00 AM 11.09 51.962 0.128 7.47 101.1 9.93
5/13/2018 2:00:00 AM 11.06 51.908 0.128 7.47 95 9.92
5/13/2018 2:15:00 AM 11.04 51.872 0.128 7.47 92.3 9.94
5/13/2018 2:30:00 AM 11.01 51.818 0.128 7.46 85.4 9.94
5/13/2018 2:45:00 AM 10.99 51.782 0.129 7.47 90.3 9.95
5/13/2018 3:00:00 AM 10.96 51.728 0.127 7.47 82.4 9.99
5/13/2018 3:15:00 AM 10.94 51.692 0.13 7.48 80.3 10.03
5/13/2018 3:30:00 AM 10.91 51.638 0.13 7.47 77.2 10.05
5/13/2018 3:45:00 AM 10.89 51.602 0.131 7.48 72.2 10.06
5/13/2018 4:00:00 AM 10.86 51.548 0.131 7.48 72.3 10.07
5/13/2018 4:15:00 AM 10.84 51.512 0.13 7.49 69.5 10.08
5/13/2018 4:30:00 AM 10.82 51.476 0.131 7.48 70.7 10.08
5/13/2018 4:45:00 AM 10.79 51.422 0.131 7.49 67.5 10.12
5/13/2018 5:00:00 AM 10.77 51.386 0.131 7.48 65.3 10.08
5/13/2018 5:15:00 AM 10.75 51.35 0.131 7.49 67.8 10.1
5/13/2018 5:30:00 AM 10.72 51.296 0.132 7.5 66.2 10.11
5/13/2018 5:45:00 AM 10.7 51.26 0.13 7.51 84.6 10.13
5/13/2018 6:00:00 AM 10.68 51.224 0.132 7.51 97.9 10.12
5/13/2018 6:15:00 AM 10.66 51.188 0.13 7.51 62.1 10.14
5/13/2018 6:30:00 AM 10.64 51.152 0.131 7.51 61 10.15
5/13/2018 6:45:00 AM 10.63 51.134 0.131 7.52 63.5 10.16
5/13/2018 7:00:00 AM 10.61 51.098 0.132 7.51 55.2 10.17
5/13/2018 7:15:00 AM 10.59 51.062 0.132 7.51 99.2 10.19
5/13/2018 7:30:00 AM 10.58 51.044 0.132 7.51 103.3 10.19
5/13/2018 7:45:00 AM 10.56 51.008 0.131 7.51 54.8 10.2
5/13/2018 8:00:00 AM 10.56 51.008 0.132 7.51 60.4 10.24
5/13/2018 8:15:00 AM 10.55 50.99 0.132 7.52 67.4 10.23
5/13/2018 8:30:00 AM 10.54 50.972 0.133 7.53 59.4 10.26
5/13/2018 8:45:00 AM 10.54 50.972 0.134 7.51 65.9 10.24
5/13/2018 9:00:00 AM 10.54 50.972 0.133 7.52 450.2 10.26
5/13/2018 9:15:00 AM 10.53 50.954 0.134 7.53 249.3 10.26
5/13/2018 9:30:00 AM 10.54 50.972 0.135 7.53 67.6 10.29
5/13/2018 9:45:00 AM 10.55 50.99 0.134 7.53 130 10.29
5/13/2018 10:00:00 AM 10.55 50.99 0.134 7.53 241.3 10.32
5/13/2018 10:15:00 AM 10.57 51.026 0.133 7.53 49.8 10.33
5/13/2018 10:30:00 AM 10.59 51.062 0.133 7.54 109.1 10.34
5/13/2018 10:45:00 AM 10.61 51.098 0.133 7.54 57 10.35
5/13/2018 11:00:00 AM 10.62 51.116 0.135 7.55 107.9 10.34
5/13/2018 11:15:00 AM 10.63 51.134 0.136 7.55 45 10.35
5/13/2018 11:30:00 AM 10.63 51.134 0.133 7.56 42.9 10.34
5/13/2018 11:45:00 AM 10.66 51.188 0.133 7.56 41.4 10.33
5/13/2018 12:00:00 PM 10.67 51.206 0.133 7.57 39.8 10.33
5/13/2018 12:15:00 PM 10.66 51.188 0.133 7.58 39.2 10.34
5/13/2018 12:30:00 PM 10.68 51.224 0.133 7.57 39.5 10.33
5/13/2018 12:45:00 PM 10.7 51.26 0.134 7.58 53.2 10.31
5/13/2018 1:00:00 PM 10.71 51.278 0.134 7.58 39 10.32
5/13/2018 1:15:00 PM 10.71 51.278 0.136 7.57 38.6 10.31
5/13/2018 1:30:00 PM 10.72 51.296 0.134 7.59 35.2 10.32
5/13/2018 1:45:00 PM 10.73 51.314 0.135 7.59 37.1 10.32
5/13/2018 2:00:00 PM 10.74 51.332 0.137 7.6 37.4 10.32
5/13/2018 2:15:00 PM 10.74 51.332 0.137 7.6 35.3 10.31
5/13/2018 2:30:00 PM 10.75 51.35 0.137 7.59 35.8 10.31
5/13/2018 2:45:00 PM 10.76 51.368 0.137 7.59 34.3 10.32
5/13/2018 3:00:00 PM 10.77 51.386 0.135 7.59 34.6 10.3
5/13/2018 3:15:00 PM 10.79 51.422 0.136 7.61 35 10.31
5/13/2018 3:30:00 PM 10.8 51.44 0.136 7.6 34.6 10.31
5/13/2018 3:45:00 PM 10.81 51.458 0.137 7.6 35.7 10.32
5/13/2018 4:00:00 PM 10.81 51.458 0.137 7.61 34.7 10.31
5/13/2018 4:15:00 PM 10.83 51.494 0.137 7.62 35.8 10.3
5/13/2018 4:30:00 PM 10.84 51.512 0.138 7.6 33.9 10.29
5/13/2018 4:45:00 PM 10.85 51.53 0.139 7.61 34 10.29
5/13/2018 5:00:00 PM 10.85 51.53 0.138 7.61 33.5 10.27
5/13/2018 5:15:00 PM 10.86 51.548 0.139 7.6 34.1 10.26
5/13/2018 5:30:00 PM 10.87 51.566 0.14 7.59 34.7 10.26
5/13/2018 5:45:00 PM 10.87 51.566 0.138 7.61 37.3 10.25
5/13/2018 6:00:00 PM 10.87 51.566 0.138 7.59 32.9 10.22
5/13/2018 6:15:00 PM 10.87 51.566 0.138 7.58 34.3 10.23
5/13/2018 6:30:00 PM 10.88 51.584 0.137 7.59 33.9 10.2
5/13/2018 6:45:00 PM 10.88 51.584 0.141 7.58 34.5 10.2
5/13/2018 7:00:00 PM 10.88 51.584 0.139 7.57 34.7 10.18
5/13/2018 7:15:00 PM 10.88 51.584 0.14 7.59 35.1 10.18
5/13/2018 7:30:00 PM 10.88 51.584 0.139 7.58 32.6 10.17
5/13/2018 7:45:00 PM 10.87 51.566 0.139 7.58 32.8 10.17
5/13/2018 8:00:00 PM 10.88 51.584 0.138 7.58 32.6 10.16
5/13/2018 8:15:00 PM 10.88 51.584 0.14 7.58 33.7 10.16
5/13/2018 8:30:00 PM 10.88 51.584 0.14 7.57 34.1 10.14
5/13/2018 8:45:00 PM 10.87 51.566 0.141 7.57 33.7 10.14
5/13/2018 9:00:00 PM 10.87 51.566 0.142 7.56 33.1 10.14
5/13/2018 9:15:00 PM 10.87 51.566 0.14 7.57 34 10.13
5/13/2018 9:30:00 PM 10.87 51.566 0.14 7.57 32.8 10.14
5/13/2018 9:45:00 PM 10.86 51.548 0.14 7.57 32.3 10.12
5/13/2018 10:00:00 PM 10.86 51.548 0.141 7.57 34.8 10.13
5/13/2018 10:15:00 PM 10.86 51.548 0.141 7.57 32.7 10.15
5/13/2018 10:30:00 PM 10.86 51.548 0.141 7.57 33.6 10.12
5/13/2018 10:45:00 PM 10.85 51.53 0.142 7.57 34 10.14
5/13/2018 11:00:00 PM 10.85 51.53 0.141 7.58 33.7 10.13
5/13/2018 11:15:00 PM 10.84 51.512 0.142 7.57 32.4 10.13
5/13/2018 11:30:00 PM 10.83 51.494 0.141 7.59 33.9 10.15
5/13/2018 11:45:00 PM 10.84 51.512 0.143 7.57 33.1 10.12
5/14/2018 12:00:00 AM 10.83 51.494 0.142 7.57 32.8 10.13
5/14/2018 12:15:00 AM 10.82 51.476 0.142 7.58 32.5 10.12
5/14/2018 12:30:00 AM 10.82 51.476 0.141 7.58 32.4 10.11
5/14/2018 12:45:00 AM 10.81 51.458 0.144 7.58 31.5 10.12
5/14/2018 1:00:00 AM 10.81 51.458 0.142 7.58 31.9 10.13
5/14/2018 1:15:00 AM 10.81 51.458 0.142 7.58 32.1 10.13
5/14/2018 1:30:00 AM 10.8 51.44 0.142 7.57 31.7 10.12
5/14/2018 1:45:00 AM 10.8 51.44 0.142 7.57 33.3 10.12
5/14/2018 2:00:00 AM 10.79 51.422 0.144 7.58 32.6 10.12
5/14/2018 2:15:00 AM 10.78 51.404 0.142 7.58 31.8 10.12
5/14/2018 2:30:00 AM 10.78 51.404 0.147 7.58 32.5 10.13
5/14/2018 2:45:00 AM 10.78 51.404 0.144 7.56 32.7 10.11
5/14/2018 3:00:00 AM 10.77 51.386 0.145 7.56 31.7 10.12
5/14/2018 3:15:00 AM 10.76 51.368 0.146 7.59 31.9 10.14
5/14/2018 3:30:00 AM 10.76 51.368 0.145 7.59 31.2 10.12
5/14/2018 3:45:00 AM 10.75 51.35 0.144 7.57 31.8 10.12
5/14/2018 4:00:00 AM 10.74 51.332 0.144 7.58 31.4 10.13
5/14/2018 4:15:00 AM 10.74 51.332 0.144 7.58 31.8 10.11
5/14/2018 4:30:00 AM 10.73 51.314 0.144 7.58 30 10.12
5/14/2018 4:45:00 AM 10.72 51.296 0.144 7.57 53.4 10.12
5/14/2018 5:00:00 AM 10.71 51.278 0.144 7.56 33.3 10.12
5/14/2018 5:15:00 AM 10.7 51.26 0.144 7.56 30.9 10.13
5/14/2018 5:30:00 AM 10.7 51.26 0.146 7.56 33.7 10.13
5/14/2018 5:45:00 AM 10.69 51.242 0.144 7.57 31.5 10.13
5/14/2018 6:00:00 AM 10.68 51.224 0.145 7.56 30.1 10.13
5/14/2018 6:15:00 AM 10.67 51.206 0.147 7.57 31.8 10.13
5/14/2018 6:30:00 AM 10.67 51.206 0.145 7.57 30.1 10.15
5/14/2018 6:45:00 AM 10.68 51.224 0.147 7.55 28.6 10.15
5/14/2018 7:00:00 AM 10.67 51.206 0.146 7.57 27.9 10.19
5/14/2018 7:15:00 AM 10.69 51.242 0.148 7.57 27.8 10.19
5/14/2018 7:30:00 AM 10.7 51.26 0.147 7.58 30.4 10.21
5/14/2018 7:45:00 AM 10.71 51.278 0.146 7.58 29 10.23
5/14/2018 8:00:00 AM 10.74 51.332 0.148 7.59 27.4 10.25
5/14/2018 8:15:00 AM 10.79 51.422 0.147 7.59 27 10.3
5/14/2018 8:30:00 AM 10.85 51.53 0.147 7.6 28.1 10.35
5/14/2018 8:45:00 AM 10.98 51.764 0.148 7.61 27.7 10.4
5/14/2018 9:00:00 AM 11.03 51.854 0.146 7.61 29 10.42
5/14/2018 9:15:00 AM 11.1 51.98 0.147 7.62 27.4 10.43
5/14/2018 9:30:00 AM 11.2 52.16 0.148 7.64 27.5 10.46
5/14/2018 9:45:00 AM 11.28 52.304 0.149 7.64 27.6 10.46
5/14/2018 10:00:00 AM 11.43 52.574 0.149 7.65 27.7 10.46
5/14/2018 10:15:00 AM 11.56 52.808 0.147 7.66 29.2 10.49
5/14/2018 10:30:00 AM 11.66 52.988 0.145 7.68 28.4 10.5
5/14/2018 10:45:00 AM 11.71 53.078 0.147 7.7 27.8 10.5
5/14/2018 11:00:00 AM 11.82 53.276 0.15 7.71 32.1 10.47
5/14/2018 11:15:00 AM 11.89 53.402 0.148 7.72 61.1 10.47
5/14/2018 11:30:00 AM 12.04 53.672 0.146 7.72 31.4 10.46
5/14/2018 11:45:00 AM 12.27 54.086 0.15 7.72 75.4 10.45
5/14/2018 12:00:00 PM 12.59 54.662 0.147 7.73 149.6 10.44
5/14/2018 12:15:00 PM 12.77 54.986 0.148 7.74 32.1 10.41
5/14/2018 12:30:00 PM 13.16 55.688 0.149 7.76 34 10.38
5/14/2018 12:45:00 PM 13.53 56.354 0.15 7.77 29.4 10.39
5/14/2018 1:00:00 PM 13.76 56.768 0.148 7.79 26.7 10.34
5/14/2018 1:15:00 PM 13.92 57.056 0.149 7.8 25.4 10.28
5/14/2018 1:30:00 PM 14.07 57.326 0.148 7.81 34.1 10.25
5/14/2018 1:45:00 PM 14.42 57.956 0.149 7.82 38.1 10.25
5/14/2018 2:00:00 PM 14.7 58.46 0.148 7.83 133 10.18
5/14/2018 2:15:00 PM 14.97 58.946 0.15 7.84 57.1 10.17
5/14/2018 2:30:00 PM 15.1 59.18 0.15 7.84 32.4 10.15
5/14/2018 2:45:00 PM 15.29 59.522 0.15 7.83 30.2 10.09
5/14/2018 3:00:00 PM 15.38 59.684 0.149 7.83 30.5 10.04
5/14/2018 3:15:00 PM 15.46 59.828 0.147 7.82 33 10.01
5/14/2018 3:30:00 PM 15.45 59.81 0.148 7.82 34 9.94
5/14/2018 3:45:00 PM 15.64 60.152 0.149 7.82 31.2 9.92
5/14/2018 4:00:00 PM 15.68 60.224 0.15 7.84 57.9 9.85
5/14/2018 4:15:00 PM 15.75 60.35 0.15 7.83 74.1 9.83
5/14/2018 4:30:00 PM 15.7 60.26 0.151 7.83 95.3 9.77
5/14/2018 4:45:00 PM 15.78 60.404 0.149 7.82 82.1 9.77
5/14/2018 5:00:00 PM 15.84 60.512 0.15 7.81 58.9 9.74
5/14/2018 5:15:00 PM 15.83 60.494 0.15 7.8 62.7 9.69
5/14/2018 5:30:00 PM 15.78 60.404 0.15 7.8 67.6 9.6
5/14/2018 5:45:00 PM 15.78 60.404 0.15 7.79 65.1 9.57
5/14/2018 6:00:00 PM 15.82 60.476 0.15 7.78 96.6 9.59
5/14/2018 6:15:00 PM 15.78 60.404 0.15 7.77 106.2 9.47
5/14/2018 6:30:00 PM 15.76 60.368 0.15 7.75 130.3 9.4
5/14/2018 6:45:00 PM 15.73 60.314 0.15 7.74 139.1 9.36
5/14/2018 7:00:00 PM 15.71 60.278 0.151 7.72 114.5 9.29
5/14/2018 7:15:00 PM 15.71 60.278 0.151 7.7 325.3 9.24
5/14/2018 7:30:00 PM 15.73 60.314 0.151 7.69 85.8 9.19
5/14/2018 7:45:00 PM 15.71 60.278 0.153 7.67 96.7 9.14
5/14/2018 8:00:00 PM 15.72 60.296 0.154 7.66 123.4 9.08
5/14/2018 8:15:00 PM 15.71 60.278 0.153 7.66 101.7 9.05
5/14/2018 8:30:00 PM 15.69 60.242 0.154 7.65 136.3 9.02
5/14/2018 8:45:00 PM 15.69 60.242 0.156 7.65 88 8.99
5/14/2018 9:00:00 PM 15.67 60.206 0.155 7.65 318.8 8.97
5/14/2018 9:15:00 PM 15.62 60.116 0.157 7.65 122.8 8.99
5/14/2018 9:30:00 PM 15.58 60.044 0.155 7.65 102.9 8.99
5/14/2018 9:45:00 PM 15.54 59.972 0.156 7.64 151.4 8.99
5/14/2018 10:00:00 PM 15.5 59.9 0.156 7.65 84.5 9
5/14/2018 10:15:00 PM 15.47 59.846 0.156 7.65 133.4 9.03
5/14/2018 10:30:00 PM 15.43 59.774 0.156 7.64 74.9 9.01
5/14/2018 10:45:00 PM 15.39 59.702 0.156 7.64 120.4 9.02
5/14/2018 11:00:00 PM 15.36 59.648 0.156 7.64 64.7 9.02
5/14/2018 11:15:00 PM 15.32 59.576 0.156 7.64 177.5 9.03
5/14/2018 11:30:00 PM 15.28 59.504 0.156 7.64 91.7 9.01
5/14/2018 11:45:00 PM 15.25 59.45 0.158 7.63 898 9.05
5/15/2018 12:00:00 AM 15.21 59.378 0.155 7.63 88.2 9.04
5/15/2018 12:15:00 AM 15.17 59.306 0.155 7.63 59.7 9.03
5/15/2018 12:30:00 AM 15.14 59.252 0.156 7.63 68.3 9.05
5/15/2018 12:45:00 AM 15.1 59.18 0.156 7.62 75.2 9.04
5/15/2018 1:00:00 AM 15.07 59.126 0.156 7.63 59.7 9.05
5/15/2018 1:15:00 AM 15.03 59.054 0.156 7.62 59.5 9.06
5/15/2018 1:30:00 AM 15 59 0.156 7.63 586.1 9.05
5/15/2018 1:45:00 AM 14.95 58.91 0.156 7.63 26.5 9.06
5/15/2018 2:00:00 AM 14.91 58.838 0.157 7.62 26.7 9.08
5/15/2018 2:15:00 AM 14.87 58.766 0.157 7.62 32 9.07
5/15/2018 2:30:00 AM 14.82 58.676 0.157 7.62 27.2 9.08
5/15/2018 2:45:00 AM 14.77 58.586 0.16 7.62 31.6 9.1
5/15/2018 3:00:00 AM 14.73 58.514 0.157 7.62 32.1 9.1
5/15/2018 3:15:00 AM 14.66 58.388 0.157 7.62 44.5 9.09
5/15/2018 3:30:00 AM 14.62 58.316 0.158 7.61 29.4 9.1
5/15/2018 3:45:00 AM 14.57 58.226 0.157 7.63 23.1 9.1
5/15/2018 4:00:00 AM 14.52 58.136 0.156 7.63 39.7 9.11
5/15/2018 4:15:00 AM 14.47 58.046 0.158 7.62 22.9 9.13
5/15/2018 4:30:00 AM 14.43 57.974 0.157 7.62 30.6 9.12
5/15/2018 4:45:00 AM 14.37 57.866 0.158 7.62 21.4 9.13
5/15/2018 5:00:00 AM 14.33 57.794 0.159 7.62 24.8 9.14
5/15/2018 5:15:00 AM 14.3 57.74 0.158 7.62 69.4 9.14
5/15/2018 5:30:00 AM 14.24 57.632 0.159 7.64 25.3 9.17
5/15/2018 5:45:00 AM 14.23 57.614 0.159 7.63 25.1 9.15
5/15/2018 6:00:00 AM 14.2 57.56 0.158 7.63 22 9.16
5/15/2018 6:15:00 AM 14.17 57.506 0.159 7.63 20.7 9.19
5/15/2018 6:30:00 AM 14.16 57.488 0.158 7.63 24.7 9.21
5/15/2018 6:45:00 AM 14.13 57.434 0.158 7.63 21.1 9.25
5/15/2018 7:00:00 AM 14.13 57.434 0.158 7.65 22.7 9.26
5/15/2018 7:15:00 AM 14.13 57.434 0.158 7.66 19.6 9.32
5/15/2018 7:30:00 AM 14.13 57.434 0.161 7.67 21 9.37
5/15/2018 7:45:00 AM 14.16 57.488 0.158 7.69 20 9.44
5/15/2018 8:00:00 AM 14.18 57.524 0.159 7.71 19.5 9.5
5/15/2018 8:15:00 AM 14.24 57.632 0.16 7.71 18.5 9.57
5/15/2018 8:30:00 AM 14.32 57.776 0.16 7.74 170.7 9.65
5/15/2018 8:45:00 AM 14.44 57.992 0.16 7.77 17.6 9.7
5/15/2018 9:00:00 AM 14.42 57.956 0.161 7.77 19.2 9.69
5/15/2018 9:15:00 AM 14.44 57.992 0.159 7.79 18.1 9.76
5/15/2018 9:30:00 AM 14.54 58.172 0.161 7.8 18.9 9.81
5/15/2018 9:45:00 AM -99999.99 -179968 -99999.99 -99999.99 -99999.99 -99999.99
5/15/2018 10:00:00 AM 14.89 58.802 0.174 7.75 9.5 10.02
5/15/2018 10:15:00 AM 14.98 58.964 0.174 7.77 11 10.04
5/15/2018 10:30:00 AM 15.07 59.126 0.174 7.79 10.8 10.05
5/15/2018 10:45:00 AM 15.28 59.504 0.174 7.82 9.7 10.12
5/15/2018 11:00:00 AM 15.47 59.846 0.174 7.85 9.7 10.15
5/15/2018 11:15:00 AM 15.68 60.224 0.174 7.87 10.2 10.16
5/15/2018 11:30:00 AM 15.89 60.602 0.174 7.89 10 10.18
5/15/2018 11:45:00 AM 16.13 61.034 0.174 7.92 10.1 10.2
5/15/2018 12:00:00 PM 16.28 61.304 0.174 7.92 9.6 10.15
5/15/2018 12:15:00 PM 16.47 61.646 0.174 7.94 9 10.15
5/15/2018 12:30:00 PM 16.65 61.97 0.174 7.96 9 10.13
5/15/2018 12:45:00 PM 16.78 62.204 0.175 7.97 9.3 10.11
5/15/2018 1:00:00 PM 17.06 62.708 0.175 7.99 9.1 10.1
5/15/2018 1:15:00 PM 17.25 63.05 0.175 8.01 9.6 10.08
5/15/2018 1:30:00 PM 17.17 62.906 0.175 7.96 9.1 9.89
5/15/2018 1:45:00 PM 17.17 62.906 0.173 7.89 12.1 9.63
5/15/2018 2:00:00 PM 17.15 62.87 0.169 7.86 16.2 9.52
5/15/2018 2:15:00 PM 17.08 62.744 0.171 7.79 49.7 9.34
5/15/2018 2:30:00 PM 17.13 62.834 0.169 7.75 91 9.12
5/15/2018 2:45:00 PM 17.4 63.32 0.162 7.75 295.1 8.91
5/15/2018 3:00:00 PM 17.49 63.482 0.159 7.73 441.2 8.81
5/15/2018 3:15:00 PM 17.41 63.338 0.162 7.69 386.4 8.76
5/15/2018 3:30:00 PM 17.32 63.176 0.16 7.65 368.5 8.76
5/15/2018 3:45:00 PM 17 62.6 0.156 7.6 364.1 8.84
5/15/2018 4:00:00 PM 16.83 62.294 0.149 7.58 362.8 8.93
5/15/2018 4:15:00 PM 16.74 62.132 0.145 7.56 321.4 8.94
5/15/2018 4:30:00 PM 16.69 62.042 0.146 7.56 272.2 8.98
5/15/2018 4:45:00 PM 16.61 61.898 0.142 7.53 290.8 9
5/15/2018 5:00:00 PM 16.56 61.808 0.138 7.51 322.7 8.99
5/15/2018 5:15:00 PM 16.53 61.754 0.137 7.51 264.7 9
5/15/2018 5:30:00 PM 16.48 61.664 0.139 7.5 215 9
5/15/2018 5:45:00 PM 16.44 61.592 0.139 7.52 175.9 9.04
5/15/2018 6:00:00 PM 16.41 61.538 0.141 7.54 152 9.05
5/15/2018 6:15:00 PM 16.4 61.52 0.143 7.55 121.2 9.09
5/15/2018 6:30:00 PM 16.38 61.484 0.144 7.56 111 9.13
5/15/2018 6:45:00 PM 16.34 61.412 0.146 7.57 98.3 9.12
5/15/2018 7:00:00 PM 16.27 61.286 0.148 7.57 95 9.14
5/15/2018 7:15:00 PM 16.18 61.124 0.148 7.57 91.7 9.14
5/15/2018 7:30:00 PM 16.1 60.98 0.148 7.57 87.1 9.16
5/15/2018 7:45:00 PM 16.03 60.854 0.149 7.57 78.1 9.17
5/15/2018 8:00:00 PM 15.98 60.764 0.15 7.57 80.8 9.16
5/15/2018 8:15:00 PM 15.94 60.692 0.15 7.58 73.3 9.15
5/15/2018 8:30:00 PM 15.92 60.656 0.152 7.57 67.1 9.15
5/15/2018 8:45:00 PM 15.89 60.602 0.152 7.57 67.6 9.14
5/15/2018 9:00:00 PM 15.85 60.53 0.153 7.57 58.2 9.13
5/15/2018 9:15:00 PM 15.8 60.44 0.154 7.57 62.4 9.12
5/15/2018 9:30:00 PM 15.75 60.35 0.155 7.56 64.3 9.11
5/15/2018 9:45:00 PM 15.7 60.26 0.156 7.56 62.3 9.1
5/15/2018 10:00:00 PM 15.63 60.134 0.156 7.56 62.2 9.11
5/15/2018 10:15:00 PM 15.57 60.026 0.157 7.56 57.2 9.1
5/15/2018 10:30:00 PM 15.48 59.864 0.157 7.56 57.9 9.12
5/15/2018 10:45:00 PM 15.41 59.738 0.158 7.56 57.1 9.12
5/15/2018 11:00:00 PM 15.32 59.576 0.158 7.55 53.9 9.15
5/15/2018 11:15:00 PM 15.25 59.45 0.159 7.55 51 9.16
5/15/2018 11:30:00 PM 15.15 59.27 0.159 7.55 46.2 9.19
5/15/2018 11:45:00 PM 15.07 59.126 0.159 7.55 44.7 9.2
5/16/2018 12:00:00 AM 14.96 58.928 0.159 7.55 43.5 9.23
5/16/2018 12:15:00 AM 14.88 58.784 0.159 7.55 41.8 9.25
5/16/2018 12:30:00 AM 14.79 58.622 0.159 7.55 42 9.27
5/16/2018 12:45:00 AM 14.71 58.478 0.16 7.54 39 9.28
5/16/2018 1:00:00 AM 14.61 58.298 0.159 7.54 40.5 9.29
5/16/2018 1:15:00 AM 14.52 58.136 0.16 7.54 40.1 9.32
5/16/2018 1:30:00 AM 14.44 57.992 0.159 7.54 39.2 9.34
5/16/2018 1:45:00 AM 14.36 57.848 0.159 7.55 41.1 9.35
5/16/2018 2:00:00 AM 14.27 57.686 0.16 7.54 39.2 9.37
5/16/2018 2:15:00 AM 14.2 57.56 0.16 7.54 38.3 9.38
5/16/2018 2:30:00 AM 14.11 57.398 0.16 7.54 35.3 9.41
5/16/2018 2:45:00 AM 14.05 57.29 0.161 7.54 36.5 9.42
5/16/2018 3:00:00 AM 13.99 57.182 0.161 7.54 36.1 9.43
5/16/2018 3:15:00 AM 13.92 57.056 0.161 7.54 34.2 9.45
5/16/2018 3:30:00 AM 13.85 56.93 0.162 7.54 33.2 9.47
5/16/2018 3:45:00 AM 13.8 56.84 0.162 7.54 33.2 9.48
5/16/2018 4:00:00 AM 13.74 56.732 0.162 7.54 32.4 9.5
5/16/2018 4:15:00 AM 13.67 56.606 0.163 7.54 30.8 9.51
5/16/2018 4:30:00 AM 13.6 56.48 0.163 7.55 29.5 9.54
5/16/2018 4:45:00 AM 13.55 56.39 0.163 7.55 29.5 9.54
5/16/2018 5:00:00 AM 13.49 56.282 0.163 7.55 29 9.56
5/16/2018 5:15:00 AM 13.43 56.174 0.164 7.55 28.5 9.58
5/16/2018 5:30:00 AM 13.37 56.066 0.164 7.55 27.8 9.59
5/16/2018 5:45:00 AM 13.3 55.94 0.164 7.55 27.5 9.61
5/16/2018 6:00:00 AM 13.26 55.868 0.164 7.55 26.1 9.62
5/16/2018 6:15:00 AM 13.2 55.76 0.165 7.55 25.3 9.64
5/16/2018 6:30:00 AM 13.16 55.688 0.165 7.55 25.1 9.66
5/16/2018 6:45:00 AM 13.1 55.58 0.166 7.55 23.2 9.68
5/16/2018 7:00:00 AM 13.06 55.508 0.164 7.55 23.2 9.71
5/16/2018 7:15:00 AM 13.03 55.454 0.165 7.56 22.7 9.73
5/16/2018 7:30:00 AM 12.99 55.382 0.166 7.56 21.5 9.77
5/16/2018 7:45:00 AM 12.96 55.328 0.166 7.57 20.8 9.8
5/16/2018 8:00:00 AM 12.94 55.292 0.167 7.58 20 9.84
5/16/2018 8:15:00 AM 12.94 55.292 0.166 7.58 20.8 9.88
5/16/2018 8:30:00 AM 12.93 55.274 0.167 7.59 21.4 9.92
5/16/2018 8:45:00 AM 12.93 55.274 0.167 7.6 19.8 9.96
5/16/2018 9:00:00 AM 12.93 55.274 0.167 7.61 17.9 9.99
5/16/2018 9:15:00 AM 12.92 55.256 0.167 7.61 19 10.02
5/16/2018 9:30:00 AM 12.93 55.274 0.167 7.62 18.5 10.05
5/16/2018 9:45:00 AM 12.93 55.274 0.168 7.62 16.1 10.05
5/16/2018 10:00:00 AM 12.97 55.346 0.168 7.64 17 10.1
5/16/2018 10:15:00 AM 12.98 55.364 0.168 7.64 17 10.12
5/16/2018 10:30:00 AM 12.98 55.364 0.168 7.64 15.6 10.11
5/16/2018 10:45:00 AM 13 55.4 0.168 7.65 14.9 10.14
5/16/2018 11:00:00 AM 13.03 55.454 0.168 7.66 16 10.16
5/16/2018 11:15:00 AM 13.03 55.454 0.168 7.67 15.4 10.14
5/16/2018 11:30:00 AM 13.02 55.436 0.169 7.65 14.3 10.12
5/16/2018 11:45:00 AM 13.02 55.436 0.168 7.66 13.4 10.12
5/16/2018 12:00:00 PM 13.01 55.418 0.169 7.65 13.4 10.12
5/16/2018 12:15:00 PM 13.02 55.436 0.168 7.66 15 10.12
5/16/2018 12:30:00 PM 13.04 55.472 0.168 7.66 14.2 10.15
5/16/2018 12:45:00 PM 13.03 55.454 0.168 7.67 15.6 10.12
5/16/2018 1:00:00 PM 13.04 55.472 0.169 7.66 18.9 10.09
5/16/2018 1:15:00 PM 13.07 55.526 0.169 7.65 21.6 10.07
5/16/2018 1:30:00 PM 13.1 55.58 0.17 7.65 23.1 10.05
5/16/2018 1:45:00 PM 13.13 55.634 0.171 7.65 23.3 10.05
5/16/2018 2:00:00 PM 13.13 55.634 0.172 7.65 25 10.03
5/16/2018 2:15:00 PM 13.14 55.652 0.17 7.66 24 10.05
5/16/2018 2:30:00 PM 13.17 55.706 0.171 7.65 24.8 10.07
5/16/2018 2:45:00 PM 13.15 55.67 0.169 7.65 26.8 10.04
5/16/2018 3:00:00 PM 13.19 55.742 0.167 7.67 28 10.1
5/16/2018 3:15:00 PM 13.23 55.814 0.167 7.68 29.3 10.12
5/16/2018 3:30:00 PM 13.28 55.904 0.166 7.69 29.2 10.15
5/16/2018 3:45:00 PM 13.3 55.94 0.166 7.69 30 10.13
5/16/2018 4:00:00 PM 13.32 55.976 0.166 7.7 27.5 10.12
5/16/2018 4:15:00 PM 13.34 56.012 0.166 7.71 29 10.1
5/16/2018 4:30:00 PM 13.38 56.084 0.166 7.7 30.2 10.09
5/16/2018 4:45:00 PM 13.4 56.12 0.165 7.7 28.1 10.05
5/16/2018 5:00:00 PM 13.4 56.12 0.165 7.69 28 10.03
5/16/2018 5:15:00 PM 13.4 56.12 0.165 7.7 26.8 10.02
5/16/2018 5:30:00 PM 13.42 56.156 0.165 7.69 28.6 10.02
5/16/2018 5:45:00 PM 13.42 56.156 0.165 7.69 28.3 10
5/16/2018 6:00:00 PM 13.42 56.156 0.164 7.69 29.1 9.99
5/16/2018 6:15:00 PM 13.42 56.156 0.165 7.69 28.7 9.97
5/16/2018 6:30:00 PM 13.42 56.156 0.165 7.68 27.3 9.94
5/16/2018 6:45:00 PM 13.41 56.138 0.165 7.67 27 9.92
5/16/2018 7:00:00 PM 13.4 56.12 0.165 7.66 27.9 9.9
5/16/2018 7:15:00 PM 13.39 56.102 0.164 7.66 27.2 9.88
5/16/2018 7:30:00 PM 13.39 56.102 0.164 7.66 27.2 9.86
5/16/2018 7:45:00 PM 13.37 56.066 0.163 7.65 26.9 9.85
5/16/2018 8:00:00 PM 13.36 56.048 0.163 7.64 27.2 9.85
5/16/2018 8:15:00 PM 13.35 56.03 0.163 7.64 26.4 9.83
5/16/2018 8:30:00 PM 13.34 56.012 0.163 7.63 28.1 9.82
5/16/2018 8:45:00 PM 13.32 55.976 0.163 7.63 26 9.81
5/16/2018 9:00:00 PM 13.31 55.958 0.163 7.63 25.2 9.81
5/16/2018 9:15:00 PM 13.3 55.94 0.164 7.62 26.2 9.79
5/16/2018 9:30:00 PM 13.29 55.922 0.165 7.62 25 9.79
5/16/2018 9:45:00 PM 13.29 55.922 0.166 7.61 24.7 9.79
5/16/2018 10:00:00 PM 13.28 55.904 0.166 7.61 25.5 9.78
5/16/2018 10:15:00 PM 13.28 55.904 0.166 7.61 26.8 9.77
5/16/2018 10:30:00 PM 13.27 55.886 0.166 7.61 25.4 9.77
5/16/2018 10:45:00 PM 13.27 55.886 0.167 7.6 25.5 9.76
5/16/2018 11:00:00 PM 13.27 55.886 0.167 7.6 24.6 9.75
5/16/2018 11:15:00 PM 13.26 55.868 0.168 7.6 24.2 9.75
5/16/2018 11:30:00 PM 13.26 55.868 0.168 7.59 23.4 9.74
5/16/2018 11:45:00 PM 13.25 55.85 0.168 7.59 22.6 9.74
5/17/2018 12:00:00 AM 13.24 55.832 0.168 7.59 23.1 9.74
5/17/2018 12:15:00 AM 13.23 55.814 0.168 7.59 23.6 9.74
5/17/2018 12:30:00 AM 13.23 55.814 0.168 7.59 21.9 9.73
5/17/2018 12:45:00 AM 13.21 55.778 0.168 7.58 22.1 9.73
5/17/2018 1:00:00 AM 13.2 55.76 0.168 7.58 22.3 9.73
5/17/2018 1:15:00 AM 13.18 55.724 0.168 7.58 21.7 9.73
5/17/2018 1:30:00 AM 13.17 55.706 0.168 7.57 22.9 9.73
5/17/2018 1:45:00 AM 13.16 55.688 0.169 7.57 22.1 9.73
5/17/2018 2:00:00 AM 13.14 55.652 0.169 7.57 21 9.73
5/17/2018 2:15:00 AM 13.13 55.634 0.169 7.57 20.1 9.73
5/17/2018 2:30:00 AM 13.11 55.598 0.168 7.57 21.7 9.73
5/17/2018 2:45:00 AM 13.1 55.58 0.169 7.57 20.2 9.73
5/17/2018 3:00:00 AM 13.07 55.526 0.169 7.57 20.2 9.73
5/17/2018 3:15:00 AM 13.06 55.508 0.168 7.57 20.5 9.72
5/17/2018 3:30:00 AM 13.03 55.454 0.168 7.57 20.7 9.74
5/17/2018 3:45:00 AM 13.03 55.454 0.168 7.56 20 9.73
5/17/2018 4:00:00 AM 13 55.4 0.169 7.56 21.8 9.73
5/17/2018 4:15:00 AM 12.99 55.382 0.169 7.56 20.6 9.74
5/17/2018 4:30:00 AM 12.97 55.346 0.168 7.56 22 9.75
5/17/2018 4:45:00 AM 12.95 55.31 0.169 7.56 22.2 9.74
5/17/2018 5:00:00 AM 12.93 55.274 0.169 7.56 21.4 9.75
5/17/2018 5:15:00 AM 12.92 55.256 0.169 7.55 19.9 9.75
5/17/2018 5:30:00 AM 12.9 55.22 0.169 7.55 20.4 9.75
5/17/2018 5:45:00 AM 12.88 55.184 0.169 7.55 20.1 9.76
5/17/2018 6:00:00 AM 12.86 55.148 0.169 7.55 19.4 9.76
5/17/2018 6:15:00 AM 12.85 55.13 0.169 7.55 19.7 9.77
5/17/2018 6:30:00 AM 12.84 55.112 0.169 7.55 18.8 9.78
5/17/2018 6:45:00 AM 12.83 55.094 0.169 7.55 18.4 9.8
5/17/2018 7:00:00 AM 12.82 55.076 0.169 7.56 17.4 9.82
5/17/2018 7:15:00 AM 12.82 55.076 0.17 7.56 17.1 9.84
5/17/2018 7:30:00 AM 12.82 55.076 0.17 7.57 17.3 9.87
5/17/2018 7:45:00 AM 12.83 55.094 0.17 7.58 16.1 9.91
5/17/2018 8:00:00 AM 12.84 55.112 0.17 7.59 16 9.94
5/17/2018 8:15:00 AM 12.87 55.166 0.17 7.6 14.6 9.98
5/17/2018 8:30:00 AM 12.89 55.202 0.171 7.61 14.5 10.01
5/17/2018 8:45:00 AM 12.93 55.274 0.17 7.63 15.1 10.06
5/17/2018 9:00:00 AM 12.98 55.364 0.171 7.65 16.7 10.12
5/17/2018 9:15:00 AM 13.04 55.472 0.171 7.66 14.5 10.18
5/17/2018 9:30:00 AM 13.15 55.67 0.17 7.68 14 10.25
5/17/2018 9:45:00 AM 13.24 55.832 0.171 7.7 13.4 10.29
5/17/2018 10:00:00 AM 13.26 55.868 0.17 7.71 13.5 10.3
5/17/2018 10:15:00 AM 13.33 55.994 0.171 7.73 14 10.35
5/17/2018 10:30:00 AM 13.44 56.192 0.17 7.75 11.8 10.38
5/17/2018 10:45:00 AM 13.5 56.3 0.171 7.76 12.2 10.39
5/17/2018 11:00:00 AM 13.67 56.606 0.17 7.78 12.9 10.44
5/17/2018 11:15:00 AM 13.86 56.948 0.171 7.79 11.7 10.44
5/17/2018 11:30:00 AM 14.02 57.236 0.171 7.81 11.9 10.46
5/17/2018 11:45:00 AM 14.19 57.542 0.17 7.82 11.8 10.47
5/17/2018 12:00:00 PM 14.33 57.794 0.171 7.83 11.4 10.45
5/17/2018 12:15:00 PM 14.64 58.352 0.171 7.86 11.9 10.47
5/17/2018 12:30:00 PM 14.84 58.712 0.171 7.86 12.5 10.44
5/17/2018 12:45:00 PM 14.98 58.964 0.171 7.88 12 10.43
5/17/2018 1:00:00 PM 15.09 59.162 0.171 7.89 11.9 10.4
5/17/2018 1:15:00 PM 15.16 59.288 0.171 7.88 12 10.34
5/17/2018 1:30:00 PM 15.33 59.594 0.171 7.9 12 10.33
5/17/2018 1:45:00 PM 15.6 60.08 0.171 7.9 12 10.3
5/17/2018 2:00:00 PM 15.78 60.404 0.171 7.91 10.8 10.28
5/17/2018 2:15:00 PM 15.97 60.746 0.171 7.92 12.1 10.26
5/17/2018 2:30:00 PM 16.14 61.052 0.171 7.92 11.4 10.23
5/17/2018 2:45:00 PM 16.3 61.34 0.171 7.92 11.2 10.22
5/17/2018 3:00:00 PM 16.45 61.61 0.17 7.93 11.4 10.18
5/17/2018 3:15:00 PM 16.59 61.862 0.17 7.93 12 10.14
5/17/2018 3:30:00 PM 16.7 62.06 0.172 7.92 12.2 10.07
5/17/2018 3:45:00 PM 16.81 62.258 0.172 7.92 11.6 10.04
5/17/2018 4:00:00 PM 16.89 62.402 0.173 7.92 11.7 9.98
5/17/2018 4:15:00 PM 16.95 62.51 0.173 7.91 11.9 9.92
5/17/2018 4:30:00 PM 17 62.6 0.172 7.9 12.3 9.86
5/17/2018 4:45:00 PM 17.04 62.672 0.173 7.89 11.8 9.82
5/17/2018 5:00:00 PM 17.08 62.744 0.173 7.89 12.3 9.79
5/17/2018 5:15:00 PM 17.1 62.78 0.173 7.87 12.8 9.73
5/17/2018 5:30:00 PM 17.11 62.798 0.173 7.86 12.3 9.69
5/17/2018 5:45:00 PM 17.11 62.798 0.174 7.85 12.5 9.64
5/17/2018 6:00:00 PM 17.1 62.78 0.174 7.83 12.1 9.58
5/17/2018 6:15:00 PM 17.08 62.744 0.174 7.82 11.8 9.53
5/17/2018 6:30:00 PM 17.05 62.69 0.174 7.81 11.3 9.47
5/17/2018 6:45:00 PM 17.01 62.618 0.175 7.78 13 9.42
5/17/2018 7:00:00 PM 16.97 62.546 0.175 7.76 11.4 9.35
5/17/2018 7:15:00 PM 16.91 62.438 0.175 7.74 19.8 9.31
5/17/2018 7:30:00 PM 16.86 62.348 0.175 7.73 12.9 9.25
5/17/2018 7:45:00 PM 16.81 62.258 0.175 7.71 12.9 9.21
5/17/2018 8:00:00 PM 16.76 62.168 0.175 7.69 14.8 9.16
5/17/2018 8:15:00 PM 16.7 62.06 0.175 7.68 13.2 9.13
5/17/2018 8:30:00 PM 16.65 61.97 0.175 7.66 12.2 9.1
5/17/2018 8:45:00 PM 16.59 61.862 0.175 7.65 12.1 9.07
5/17/2018 9:00:00 PM 16.54 61.772 0.175 7.64 12.3 9.05
5/17/2018 9:15:00 PM 16.49 61.682 0.175 7.63 12.6 9.04
5/17/2018 9:30:00 PM 16.44 61.592 0.175 7.62 13.4 9.03
5/17/2018 9:45:00 PM 16.39 61.502 0.175 7.62 13 9.03
5/17/2018 10:00:00 PM 16.34 61.412 0.175 7.62 13.3 9.02
5/17/2018 10:15:00 PM 16.3 61.34 0.175 7.61 13.6 9.03
5/17/2018 10:30:00 PM 16.25 61.25 0.175 7.61 14.5 9.03
5/17/2018 10:45:00 PM 16.2 61.16 0.175 7.61 13.7 9.04
5/17/2018 11:00:00 PM 16.15 61.07 0.175 7.61 12.4 9.05
5/17/2018 11:15:00 PM 16.1 60.98 0.175 7.61 14.5 9.05
5/17/2018 11:30:00 PM 16.06 60.908 0.175 7.61 14.8 9.06
5/17/2018 11:45:00 PM 16.01 60.818 0.175 7.61 12.7 9.07
5/18/2018 12:00:00 AM 15.96 60.728 0.175 7.61 13.6 9.07
5/18/2018 12:15:00 AM 15.92 60.656 0.175 7.6 12.6 9.07
5/18/2018 12:30:00 AM 15.87 60.566 0.175 7.6 12.2 9.09
5/18/2018 12:45:00 AM 15.82 60.476 0.175 7.6 14.8 9.09
5/18/2018 1:00:00 AM 15.77 60.386 0.175 7.6 13.4 9.1
5/18/2018 1:15:00 AM 15.71 60.278 0.175 7.6 11.5 9.11
5/18/2018 1:30:00 AM 15.65 60.17 0.175 7.6 12.7 9.12
5/18/2018 1:45:00 AM 15.6 60.08 0.175 7.6 12 9.12
5/18/2018 2:00:00 AM 15.55 59.99 0.176 7.6 12.3 9.14
5/18/2018 2:15:00 AM 15.5 59.9 0.176 7.6 11.9 9.14
5/18/2018 2:30:00 AM 15.44 59.792 0.175 7.59 12.3 9.15
5/18/2018 2:45:00 AM 15.38 59.684 0.175 7.59 12 9.17
5/18/2018 3:00:00 AM 15.32 59.576 0.175 7.59 11.7 9.16
5/18/2018 3:15:00 AM 15.27 59.486 0.175 7.59 11.6 9.18
5/18/2018 3:30:00 AM 15.22 59.396 0.175 7.59 11.4 9.19
5/18/2018 3:45:00 AM 15.15 59.27 0.175 7.59 11.9 9.2
5/18/2018 4:00:00 AM 15.1 59.18 0.176 7.59 11.8 9.22
5/18/2018 4:15:00 AM 15.03 59.054 0.175 7.59 12 9.23
5/18/2018 4:30:00 AM 14.97 58.946 0.176 7.59 12.3 9.23
5/18/2018 4:45:00 AM 14.89 58.802 0.176 7.59 13.2 9.25
5/18/2018 5:00:00 AM 14.88 58.784 0.176 7.59 11.1 9.26
5/18/2018 5:15:00 AM 14.81 58.658 0.176 7.59 12.1 9.28
5/18/2018 5:30:00 AM 14.75 58.55 0.176 7.59 11.8 9.28
5/18/2018 5:45:00 AM 14.7 58.46 0.176 7.59 11.9 9.3
5/18/2018 6:00:00 AM 14.64 58.352 0.176 7.6 11.7 9.31
5/18/2018 6:15:00 AM 14.58 58.244 0.177 7.6 11.7 9.34
5/18/2018 6:30:00 AM 14.54 58.172 0.177 7.6 11.5 9.36
5/18/2018 6:45:00 AM 14.51 58.118 0.177 7.61 11.3 9.4
5/18/2018 7:00:00 AM 14.46 58.028 0.176 7.62 11.4 9.46
5/18/2018 7:15:00 AM 14.42 57.956 0.176 7.63 9.9 9.51
5/18/2018 7:30:00 AM 14.41 57.938 0.177 7.64 11.3 9.58
5/18/2018 7:45:00 AM 14.38 57.884 0.177 7.66 9.6 9.65
5/18/2018 8:00:00 AM 14.39 57.902 0.177 7.67 10.5 9.73
5/18/2018 8:15:00 AM 14.42 57.956 0.177 7.7 9.7 9.83
5/18/2018 8:30:00 AM 14.46 58.028 0.177 7.72 10.2 9.93
5/18/2018 8:45:00 AM 14.52 58.136 0.177 7.74 9.5 10
5/18/2018 9:00:00 AM 14.57 58.226 0.177 7.76 9.3 10.08
5/18/2018 9:15:00 AM 14.63 58.334 0.177 7.78 9.5 10.13
5/18/2018 9:30:00 AM 14.71 58.478 0.178 7.8 9.5 10.19
5/18/2018 9:45:00 AM 14.76 58.568 0.177 7.83 9.9 10.26
5/18/2018 10:00:00 AM 14.89 58.802 0.178 7.85 9.2 10.3
5/18/2018 10:15:00 AM 15.01 59.018 0.178 7.87 8.9 10.34
5/18/2018 10:30:00 AM 15.15 59.27 0.177 7.89 9 10.37
5/18/2018 10:45:00 AM 15.27 59.486 0.178 7.91 8 10.4
5/18/2018 11:00:00 AM 15.41 59.738 0.178 7.93 8.2 10.43
5/18/2018 11:15:00 AM 15.56 60.008 0.178 7.95 8.3 10.45
5/18/2018 11:30:00 AM 15.78 60.404 0.178 7.97 8.2 10.48
5/18/2018 11:45:00 AM 16 60.8 0.178 8 8.5 10.48
5/18/2018 12:00:00 PM 16.18 61.124 0.178 8.02 7.8 10.48
5/18/2018 12:15:00 PM 16.37 61.466 0.178 8.04 8.7 10.48
5/18/2018 12:30:00 PM 16.6 61.88 0.178 8.06 9 10.47
5/18/2018 12:45:00 PM 16.79 62.222 0.178 8.08 8.9 10.45
5/18/2018 1:00:00 PM 16.95 62.51 0.178 8.1 8.2 10.44
5/18/2018 1:15:00 PM 17.15 62.87 0.179 8.11 7.9 10.42
5/18/2018 1:30:00 PM 17.33 63.194 0.179 8.12 7.6 10.39
5/18/2018 1:45:00 PM 17.53 63.554 0.179 8.14 7.9 10.38
5/18/2018 2:00:00 PM 17.73 63.914 0.179 8.15 13.7 10.34
5/18/2018 2:15:00 PM 17.85 64.13 0.179 8.16 8 10.3
5/18/2018 2:30:00 PM 17.98 64.364 0.179 8.17 7.7 10.27
5/18/2018 2:45:00 PM 18.08 64.544 0.178 8.17 9.4 10.22
5/18/2018 3:00:00 PM 18.19 64.742 0.177 8.17 7.7 10.19
5/18/2018 3:15:00 PM 18.22 64.796 0.179 8.16 7.9 10.12
5/18/2018 3:30:00 PM 18.27 64.886 0.179 8.15 8.3 10.09
5/18/2018 3:45:00 PM 18.27 64.886 0.179 8.13 7.7 10.02
5/18/2018 4:00:00 PM 18.23 64.814 0.18 8.12 8.2 9.97
5/18/2018 4:15:00 PM 18.25 64.85 0.18 8.11 7.7 9.95
5/18/2018 4:30:00 PM 18.18 64.724 0.18 8.09 7.7 9.87
5/18/2018 4:45:00 PM 18.13 64.634 0.18 8.07 7.6 9.83
5/18/2018 5:00:00 PM 18.11 64.598 0.18 8.06 7.6 9.8
5/18/2018 5:15:00 PM 18.07 64.526 0.18 8.05 7.3 9.77
5/18/2018 5:30:00 PM 18.02 64.436 0.181 8.02 6.9 9.73
5/18/2018 5:45:00 PM 17.98 64.364 0.181 8.01 7.1 9.69
5/18/2018 6:00:00 PM 17.93 64.274 0.181 7.99 7.6 9.64
5/18/2018 6:15:00 PM 17.85 64.13 0.181 7.96 7.4 9.58
5/18/2018 6:30:00 PM 17.78 64.004 0.181 7.93 8.2 9.53
5/18/2018 6:45:00 PM 17.69 63.842 0.181 7.9 8.2 9.43
5/18/2018 7:00:00 PM 17.6 63.68 0.182 7.86 7.9 9.35
5/18/2018 7:15:00 PM 17.51 63.518 0.182 7.84 7.5 9.28
5/18/2018 7:30:00 PM 17.43 63.374 0.182 7.81 8.3 9.21
5/18/2018 7:45:00 PM 17.36 63.248 0.182 7.78 7.6 9.16
5/18/2018 8:00:00 PM 17.28 63.104 0.182 7.76 8.2 9.09
5/18/2018 8:15:00 PM 17.21 62.978 0.183 7.74 8.3 9.05
5/18/2018 8:30:00 PM 17.13 62.834 0.183 7.72 8.7 9
5/18/2018 8:45:00 PM 17.06 62.708 0.183 7.7 8.8 8.98
5/18/2018 9:00:00 PM 16.99 62.582 0.183 7.69 9.1 8.96
5/18/2018 9:15:00 PM 16.92 62.456 0.183 7.67 8.9 8.94
5/18/2018 9:30:00 PM 16.84 62.312 0.183 7.66 9.4 8.92
5/18/2018 9:45:00 PM 16.77 62.186 0.183 7.65 9 8.92
5/18/2018 10:00:00 PM 16.71 62.078 0.184 7.65 9.3 8.92
5/18/2018 10:15:00 PM 16.65 61.97 0.184 7.64 9.2 8.92
5/18/2018 10:30:00 PM 16.58 61.844 0.184 7.63 9.1 8.93
5/18/2018 10:45:00 PM 16.52 61.736 0.184 7.63 8.1 8.93
5/18/2018 11:00:00 PM 16.46 61.628 0.184 7.63 8.9 8.94
5/18/2018 11:15:00 PM 16.4 61.52 0.184 7.63 9.1 8.95
5/18/2018 11:30:00 PM 16.34 61.412 0.184 7.63 9.9 8.96
5/18/2018 11:45:00 PM 16.27 61.286 0.184 7.63 9.3 8.97
5/19/2018 12:00:00 AM 16.2 61.16 0.184 7.63 9.2 8.98
5/19/2018 12:15:00 AM 16.14 61.052 0.184 7.63 9.7 8.98
5/19/2018 12:30:00 AM 16.07 60.926 0.184 7.63 9.4 9
5/19/2018 12:45:00 AM 16 60.8 0.184 7.63 8.9 9.02
5/19/2018 1:00:00 AM 15.92 60.656 0.184 7.63 10 9.03
5/19/2018 1:15:00 AM 15.87 60.566 0.184 7.63 9.5 9.04
5/19/2018 1:30:00 AM 15.82 60.476 0.185 7.64 10.1 9.04
5/19/2018 1:45:00 AM 15.76 60.368 0.185 7.63 9.7 9.06
5/19/2018 2:00:00 AM 15.71 60.278 0.185 7.63 11.4 9.07
5/19/2018 2:15:00 AM 15.66 60.188 0.184 7.63 10 9.08
5/19/2018 2:30:00 AM 15.6 60.08 0.185 7.63 9.7 9.09
5/19/2018 2:45:00 AM 15.56 60.008 0.185 7.63 9.3 9.11
5/19/2018 3:00:00 AM 15.51 59.918 0.185 7.64 9.7 9.11
5/19/2018 3:15:00 AM 15.46 59.828 0.185 7.64 22.1 9.12
5/19/2018 3:30:00 AM 15.41 59.738 0.184 7.64 9.3 9.13
5/19/2018 3:45:00 AM 15.36 59.648 0.184 7.63 10 9.13
5/19/2018 4:00:00 AM 15.31 59.558 0.184 7.64 10.2 9.14
5/19/2018 4:15:00 AM 15.25 59.45 0.184 7.64 10.2 9.15
5/19/2018 4:30:00 AM 15.19 59.342 0.184 7.63 10 9.17
5/19/2018 4:45:00 AM 15.12 59.216 0.184 7.63 10 9.17
5/19/2018 5:00:00 AM 15.06 59.108 0.184 7.63 11 9.17
5/19/2018 5:15:00 AM 14.98 58.964 0.184 7.63 11.1 9.19
5/19/2018 5:30:00 AM 14.92 58.856 0.184 7.63 14.9 9.19
5/19/2018 5:45:00 AM 14.83 58.694 0.184 7.62 11.5 9.2
5/19/2018 6:00:00 AM 14.75 58.55 0.185 7.62 11.9 9.22
5/19/2018 6:15:00 AM 14.68 58.424 0.185 7.62 11.6 9.25
5/19/2018 6:30:00 AM 14.6 58.28 0.186 7.63 12.9 9.27
5/19/2018 6:45:00 AM 14.52 58.136 0.186 7.63 12.7 9.3
5/19/2018 7:00:00 AM 14.44 57.992 0.186 7.63 14.2 9.34
5/19/2018 7:15:00 AM 14.36 57.848 0.187 7.63 15.3 9.37
5/19/2018 7:30:00 AM 14.29 57.722 0.186 7.64 16.4 9.42
5/19/2018 7:45:00 AM 14.22 57.596 0.186 7.65 17.4 9.46
5/19/2018 8:00:00 AM 14.15 57.47 0.186 7.65 18.7 9.52
5/19/2018 8:15:00 AM 14.07 57.326 0.185 7.65 20.9 9.55
5/19/2018 8:30:00 AM 14.02 57.236 0.184 7.66 22.3 9.58
5/19/2018 8:45:00 AM 13.96 57.128 0.183 7.67 22.3 9.64
5/19/2018 9:00:00 AM 13.86 56.948 0.183 7.67 23 9.7
5/19/2018 9:15:00 AM 13.81 56.858 0.182 7.68 23.9 9.72
5/19/2018 9:30:00 AM 13.78 56.804 0.181 7.69 25.9 9.77
5/19/2018 9:45:00 AM 13.75 56.75 0.18 7.7 26.6 9.84
5/19/2018 10:00:00 AM 13.71 56.678 0.179 7.7 26.5 9.86
5/19/2018 10:15:00 AM 13.68 56.624 0.179 7.71 28.5 9.89
5/19/2018 10:30:00 AM 13.67 56.606 0.178 7.72 28.1 9.92
5/19/2018 10:45:00 AM 13.67 56.606 0.178 7.73 29.1 9.96
5/19/2018 11:00:00 AM 13.64 56.552 0.178 7.72 32.4 9.95
5/19/2018 11:15:00 AM 13.63 56.534 0.177 7.72 31.3 9.96
5/19/2018 11:30:00 AM 13.66 56.588 0.176 7.73 35.5 9.95
5/19/2018 11:45:00 AM 13.66 56.588 0.175 7.73 36.1 9.96
5/19/2018 12:00:00 PM 13.67 56.606 0.175 7.73 36.3 9.96
5/19/2018 12:15:00 PM 13.68 56.624 0.174 7.73 38.7 9.96
5/19/2018 12:30:00 PM 13.76 56.768 0.173 7.74 36.5 9.99
5/19/2018 12:45:00 PM 13.8 56.84 0.171 7.75 34.7 10.01
5/19/2018 1:00:00 PM 13.86 56.948 0.171 7.75 36 10.02
5/19/2018 1:15:00 PM 13.91 57.038 0.17 7.76 33.3 10.04
5/19/2018 1:30:00 PM 13.92 57.056 0.169 7.76 32 10.01
5/19/2018 1:45:00 PM 13.93 57.074 0.17 7.76 32.4 10
5/19/2018 2:00:00 PM 13.97 57.146 0.169 7.76 30.9 9.98
5/19/2018 2:15:00 PM 13.98 57.164 0.169 7.76 30.4 9.95
5/19/2018 2:30:00 PM 14 57.2 0.169 7.76 27.4 9.96
5/19/2018 2:45:00 PM 14.03 57.254 0.169 7.76 26.3 9.99
5/19/2018 3:00:00 PM 14.1 57.38 0.169 7.77 25.3 10.02
5/19/2018 3:15:00 PM 14.12 57.416 0.169 7.78 23.5 10
5/19/2018 3:30:00 PM 14.16 57.488 0.169 7.78 23.1 10.04
5/19/2018 3:45:00 PM 14.2 57.56 0.17 7.8 21.7 10.06
5/19/2018 4:00:00 PM 14.28 57.704 0.17 7.81 21.4 10.08
5/19/2018 4:15:00 PM 14.28 57.704 0.17 7.81 19.8 10.05
5/19/2018 4:30:00 PM 14.29 57.722 0.171 7.81 19.7 10.04
5/19/2018 4:45:00 PM 14.34 57.812 0.171 7.81 20.5 10.03
5/19/2018 5:00:00 PM 14.36 57.848 0.172 7.81 18.8 10.02
5/19/2018 5:15:00 PM 14.39 57.902 0.172 7.81 18.1 10.02
5/19/2018 5:30:00 PM 14.4 57.92 0.173 7.81 17 9.99
5/19/2018 5:45:00 PM 14.42 57.956 0.173 7.81 17.3 9.97
5/19/2018 6:00:00 PM 14.41 57.938 0.174 7.79 17.7 9.91
5/19/2018 6:15:00 PM 14.4 57.92 0.174 7.78 16.9 9.85
5/19/2018 6:30:00 PM 14.39 57.902 0.175 7.78 16.9 9.82
5/19/2018 6:45:00 PM 14.37 57.866 0.176 7.76 15.6 9.77
5/19/2018 7:00:00 PM 14.34 57.812 0.177 7.75 16.2 9.71
5/19/2018 7:15:00 PM 14.31 57.758 0.177 7.74 15.6 9.69
5/19/2018 7:30:00 PM 14.27 57.686 0.177 7.73 16.1 9.66
5/19/2018 7:45:00 PM 14.23 57.614 0.178 7.72 16.2 9.63
5/19/2018 8:00:00 PM 14.19 57.542 0.178 7.71 16.8 9.63
5/19/2018 8:15:00 PM 14.16 57.488 0.18 7.71 16 9.61
5/19/2018 8:30:00 PM 14.12 57.416 0.18 7.7 16 9.6
5/19/2018 8:45:00 PM 14.09 57.362 0.18 7.69 16 9.6
5/19/2018 9:00:00 PM 14.05 57.29 0.18 7.69 16.3 9.59
5/19/2018 9:15:00 PM 14.02 57.236 0.18 7.69 15.4 9.59
5/19/2018 9:30:00 PM 13.99 57.182 0.181 7.69 15.3 9.58
5/19/2018 9:45:00 PM 13.97 57.146 0.181 7.69 15.5 9.58
5/19/2018 10:00:00 PM 13.94 57.092 0.181 7.68 15.7 9.59
5/19/2018 10:15:00 PM 13.93 57.074 0.181 7.68 16.2 9.59
5/19/2018 10:30:00 PM 13.91 57.038 0.181 7.68 15.2 9.58
5/19/2018 10:45:00 PM 13.89 57.002 0.181 7.68 15.3 9.58
5/19/2018 11:00:00 PM 13.87 56.966 0.181 7.68 14.5 9.59
5/19/2018 11:15:00 PM 13.85 56.93 0.181 7.68 15.2 9.59
5/19/2018 11:30:00 PM 13.84 56.912 0.181 7.68 14.9 9.6
5/19/2018 11:45:00 PM 13.83 56.894 0.181 7.67 14.9 9.59
5/20/2018 12:00:00 AM 13.81 56.858 0.181 7.67 14.2 9.6
5/20/2018 12:15:00 AM 13.79 56.822 0.181 7.67 14.5 9.59
5/20/2018 12:30:00 AM 13.78 56.804 0.181 7.68 14.5 9.59
5/20/2018 12:45:00 AM 13.76 56.768 0.181 7.67 14.7 9.59
5/20/2018 1:00:00 AM 13.74 56.732 0.18 7.67 14.3 9.6
5/20/2018 1:15:00 AM 13.74 56.732 0.18 7.67 14.3 9.59
5/20/2018 1:30:00 AM 13.73 56.714 0.181 7.67 13.8 9.58
5/20/2018 1:45:00 AM 13.72 56.696 0.181 7.68 13.8 9.59
5/20/2018 2:00:00 AM 13.7 56.66 0.18 7.67 13.8 9.59
5/20/2018 2:15:00 AM 13.7 56.66 0.181 7.67 14.3 9.58
5/20/2018 2:30:00 AM 13.69 56.642 0.181 7.67 15.2 9.58
5/20/2018 2:45:00 AM 13.68 56.624 0.181 7.67 14.4 9.58
5/20/2018 3:00:00 AM 13.68 56.624 0.181 7.67 13.6 9.58
5/20/2018 3:15:00 AM 13.67 56.606 0.181 7.67 13.9 9.58
5/20/2018 3:30:00 AM 13.66 56.588 0.181 7.67 13.1 9.57
5/20/2018 3:45:00 AM 13.65 56.57 0.181 7.66 12.3 9.58
5/20/2018 4:00:00 AM 13.65 56.57 0.182 7.66 12.1 9.58
5/20/2018 4:15:00 AM 13.64 56.552 0.182 7.66 13.5 9.57
5/20/2018 4:30:00 AM 13.64 56.552 0.182 7.66 12.4 9.58
5/20/2018 4:45:00 AM 13.63 56.534 0.181 7.66 15.1 9.57
5/20/2018 5:00:00 AM 13.63 56.534 0.182 7.66 12.7 9.57
5/20/2018 5:15:00 AM 13.62 56.516 0.182 7.66 12.9 9.57
5/20/2018 5:30:00 AM 13.61 56.498 0.182 7.66 11.9 9.57
5/20/2018 5:45:00 AM 13.61 56.498 0.182 7.66 11.7 9.57
5/20/2018 6:00:00 AM 13.6 56.48 0.182 7.65 12.4 9.57
5/20/2018 6:15:00 AM 13.61 56.498 0.181 7.66 11.9 9.58
5/20/2018 6:30:00 AM 13.6 56.48 0.183 7.66 11.7 9.59
5/20/2018 6:45:00 AM 13.61 56.498 0.183 7.66 12.1 9.58
5/20/2018 7:00:00 AM 13.6 56.48 0.183 7.66 11.4 9.61
5/20/2018 7:15:00 AM 13.6 56.48 0.183 7.66 10.6 9.63
5/20/2018 7:30:00 AM 13.6 56.48 0.183 7.67 10.6 9.65
5/20/2018 7:45:00 AM 13.64 56.552 0.182 7.68 10.1 9.74
5/20/2018 8:00:00 AM 13.68 56.624 0.183 7.69 9.6 9.8
5/20/2018 8:15:00 AM 13.74 56.732 0.183 7.71 10.3 9.87
5/20/2018 8:30:00 AM 13.8 56.84 0.183 7.73 9.3 9.94
5/20/2018 8:45:00 AM 13.89 57.002 0.183 7.75 8.8 10.05
5/20/2018 9:00:00 AM 13.95 57.11 0.183 7.77 8.9 10.09
5/20/2018 9:15:00 AM 13.96 57.128 0.183 7.78 9.2 10.1
5/20/2018 9:30:00 AM 13.99 57.182 0.183 7.78 8.6 10.11
5/20/2018 9:45:00 AM 14.04 57.272 0.184 7.79 7.9 10.1
5/20/2018 10:00:00 AM 14.05 57.29 0.183 7.79 7.6 10.01
5/20/2018 10:15:00 AM 14.08 57.344 0.184 7.79 7.3 10.05
5/20/2018 10:30:00 AM 14.13 57.434 0.184 7.81 7.7 10.11
5/20/2018 10:45:00 AM 14.17 57.506 0.184 7.81 8 10.12
5/20/2018 11:00:00 AM 14.22 57.596 0.184 7.83 7.6 10.14
5/20/2018 11:15:00 AM 14.28 57.704 0.185 7.84 7.5 10.2
5/20/2018 11:30:00 AM 14.37 57.866 0.184 7.87 7.7 10.3
5/20/2018 11:45:00 AM 14.47 58.046 0.183 7.9 7.2 10.35
5/20/2018 12:00:00 PM 14.54 58.172 0.183 7.91 7.2 10.36
5/20/2018 12:15:00 PM 14.6 58.28 0.184 7.92 6.9 10.36
5/20/2018 12:30:00 PM 14.68 58.424 0.184 7.94 6.8 10.39
5/20/2018 12:45:00 PM 14.67 58.406 0.185 7.91 7.8 10.22
5/20/2018 1:00:00 PM 14.69 58.442 0.185 7.89 6.7 10.15
5/20/2018 1:15:00 PM 14.75 58.55 0.185 7.91 7 10.2
5/20/2018 1:30:00 PM 14.82 58.676 0.185 7.93 6.6 10.24
5/20/2018 1:45:00 PM 14.89 58.802 0.185 7.94 6.7 10.24
5/20/2018 2:00:00 PM 14.94 58.892 0.185 7.95 6.5 10.27
5/20/2018 2:15:00 PM 14.96 58.928 0.186 7.95 6.1 10.24
5/20/2018 2:30:00 PM 14.98 58.964 0.185 7.95 6.3 10.23
5/20/2018 2:45:00 PM 14.98 58.964 0.186 7.93 6.4 10.15
5/20/2018 3:00:00 PM 15.04 59.072 0.185 7.95 6.7 10.23
5/20/2018 3:15:00 PM 15.08 59.144 0.186 7.96 6.9 10.23
5/20/2018 3:30:00 PM 15.08 59.144 0.186 7.94 6.3 10.14
5/20/2018 3:45:00 PM 15.11 59.198 0.185 7.95 7.3 10.17
5/20/2018 4:00:00 PM 15.16 59.288 0.186 7.97 6.7 10.23
5/20/2018 4:15:00 PM 15.2 59.36 0.186 7.97 5.9 10.22
5/20/2018 4:30:00 PM 15.25 59.45 0.186 7.98 6.5 10.25
5/20/2018 4:45:00 PM 15.29 59.522 0.186 7.99 7.5 10.28
5/20/2018 5:00:00 PM 15.35 59.63 0.186 8.01 6.2 10.3
5/20/2018 5:15:00 PM 15.36 59.648 0.186 8 6.5 10.28
5/20/2018 5:30:00 PM 15.4 59.72 0.186 8.01 6.6 10.25
5/20/2018 5:45:00 PM 15.47 59.846 0.186 8.01 7.4 10.25
5/20/2018 6:00:00 PM 15.46 59.828 0.186 7.98 6 10.15
5/20/2018 6:15:00 PM 15.45 59.81 0.187 7.95 5.8 10
5/20/2018 6:30:00 PM 15.45 59.81 0.187 7.92 6.8 9.91
5/20/2018 6:45:00 PM 15.45 59.81 0.187 7.89 7.5 9.83
5/20/2018 7:00:00 PM 15.46 59.828 0.187 7.87 6.2 9.78
5/20/2018 7:15:00 PM 15.46 59.828 0.187 7.85 6.6 9.71
5/20/2018 7:30:00 PM 15.44 59.792 0.188 7.83 8.5 9.64
5/20/2018 7:45:00 PM 15.42 59.756 0.188 7.81 6.4 9.59
5/20/2018 8:00:00 PM 15.38 59.684 0.188 7.79 6.9 9.54
5/20/2018 8:15:00 PM 15.34 59.612 0.188 7.78 6.9 9.49
5/20/2018 8:30:00 PM 15.29 59.522 0.188 7.75 6.8 9.44
5/20/2018 8:45:00 PM 15.25 59.45 0.189 7.74 6.9 9.4
5/20/2018 9:00:00 PM 15.19 59.342 0.189 7.73 7 9.38
5/20/2018 9:15:00 PM 15.14 59.252 0.189 7.72 9.4 9.34
5/20/2018 9:30:00 PM 15.08 59.144 0.189 7.71 7.7 9.35
5/20/2018 9:45:00 PM 15.01 59.018 0.189 7.7 7.5 9.34
5/20/2018 10:00:00 PM 14.95 58.91 0.189 7.69 7.6 9.33
5/20/2018 10:15:00 PM 14.88 58.784 0.189 7.69 8.8 9.34
5/20/2018 10:30:00 PM 14.81 58.658 0.189 7.68 8.1 9.35
5/20/2018 10:45:00 PM 14.74 58.532 0.19 7.67 9.3 9.35
5/20/2018 11:00:00 PM 14.67 58.406 0.189 7.68 8.1 9.37
5/20/2018 11:15:00 PM 14.6 58.28 0.189 7.67 8.5 9.38
5/20/2018 11:30:00 PM 14.54 58.172 0.189 7.67 8.6 9.39
5/20/2018 11:45:00 PM 14.47 58.046 0.189 7.66 8 9.4
5/21/2018 12:00:00 AM 14.4 57.92 0.189 7.66 8.6 9.42
5/21/2018 12:15:00 AM 14.33 57.794 0.189 7.66 8.2 9.43
5/21/2018 12:30:00 AM 14.27 57.686 0.189 7.66 10 9.45
5/21/2018 12:45:00 AM 14.2 57.56 0.189 7.66 8.6 9.45
5/21/2018 1:00:00 AM 14.14 57.452 0.189 7.66 8.4 9.46
5/21/2018 1:15:00 AM 14.09 57.362 0.189 7.65 8.2 9.48
5/21/2018 1:30:00 AM 14.04 57.272 0.189 7.65 8.5 9.48
5/21/2018 1:45:00 AM 13.96 57.128 0.189 7.65 8.8 9.5
5/21/2018 2:00:00 AM 13.9 57.02 0.189 7.65 8.3 9.52
5/21/2018 2:15:00 AM 13.83 56.894 0.189 7.65 9.1 9.53
5/21/2018 2:30:00 AM 13.77 56.786 0.189 7.65 9.3 9.55
5/21/2018 2:45:00 AM 13.7 56.66 0.189 7.65 8.2 9.56
5/21/2018 3:00:00 AM 13.63 56.534 0.189 7.65 8.1 9.58
5/21/2018 3:15:00 AM 13.57 56.426 0.189 7.65 8.1 9.58
5/21/2018 3:30:00 AM 13.52 56.336 0.189 7.64 8.2 9.6
5/21/2018 3:45:00 AM 13.46 56.228 0.189 7.64 8.9 9.61
5/21/2018 4:00:00 AM 13.4 56.12 0.19 7.65 8.2 9.63
5/21/2018 4:15:00 AM 13.34 56.012 0.189 7.65 11.1 9.64
5/21/2018 4:30:00 AM 13.28 55.904 0.19 7.65 10.4 9.66
5/21/2018 4:45:00 AM 13.22 55.796 0.19 7.65 9 9.67
5/21/2018 5:00:00 AM 13.17 55.706 0.19 7.65 9.4 9.68
5/21/2018 5:15:00 AM 13.11 55.598 0.189 7.64 8 9.7
5/21/2018 5:30:00 AM 13.06 55.508 0.19 7.64 8.1 9.71
5/21/2018 5:45:00 AM 13.01 55.418 0.19 7.64 8.3 9.73
5/21/2018 6:00:00 AM 12.99 55.382 0.19 7.64 7.9 9.74
5/21/2018 6:15:00 AM 12.96 55.328 0.19 7.65 7.8 9.78
5/21/2018 6:30:00 AM 12.92 55.256 0.191 7.65 7.7 9.82
5/21/2018 6:45:00 AM 12.9 55.22 0.191 7.66 7.1 9.85
5/21/2018 7:00:00 AM 12.89 55.202 0.191 7.66 6.8 9.9
5/21/2018 7:15:00 AM 12.9 55.22 0.19 7.68 7.2 9.97
5/21/2018 7:30:00 AM 12.91 55.238 0.191 7.69 6.4 10.05
5/21/2018 7:45:00 AM 12.94 55.292 0.191 7.71 6.1 10.12
5/21/2018 8:00:00 AM 12.99 55.382 0.191 7.73 6.2 10.21
5/21/2018 8:15:00 AM 13.06 55.508 0.191 7.76 6.1 10.3
5/21/2018 8:30:00 AM 13.17 55.706 0.191 7.79 8.1 10.38
5/21/2018 8:45:00 AM 13.26 55.868 0.19 7.81 6.1 10.46
5/21/2018 9:00:00 AM 13.36 56.048 0.19 7.83 6 10.51
5/21/2018 9:15:00 AM 13.47 56.246 0.192 7.85 7.1 10.56
5/21/2018 9:30:00 AM 13.6 56.48 0.194 7.87 5.8 10.61
5/21/2018 9:45:00 AM 13.73 56.714 0.193 7.9 5.3 10.67
5/21/2018 10:00:00 AM 13.83 56.894 0.19 7.94 5.5 10.73
5/21/2018 10:15:00 AM 13.99 57.182 0.188 7.97 5.1 10.77
5/21/2018 10:30:00 AM 14.15 57.47 0.188 7.99 5.9 10.8
5/21/2018 10:45:00 AM 14.32 57.776 0.19 8 6.3 10.81
5/21/2018 11:00:00 AM 14.51 58.118 0.191 8.03 5 10.82
5/21/2018 11:15:00 AM 14.63 58.334 0.191 8.05 4.7 10.83
5/21/2018 11:30:00 AM 14.83 58.694 0.191 8.08 5.2 10.86
5/21/2018 11:45:00 AM 15.07 59.126 0.191 8.1 6.5 10.86
5/21/2018 12:00:00 PM 15.29 59.522 0.191 8.12 8.8 10.86
5/21/2018 12:15:00 PM 15.51 59.918 0.191 8.15 5.2 10.84
5/21/2018 12:30:00 PM 15.73 60.314 0.191 8.17 5.4 10.85
5/21/2018 12:45:00 PM 15.97 60.746 0.191 8.18 5.6 10.83
5/21/2018 1:00:00 PM 16.21 61.178 0.191 8.2 5.9 10.81
5/21/2018 1:15:00 PM 16.45 61.61 0.191 8.22 5.5 10.76
5/21/2018 1:30:00 PM 16.68 62.024 0.191 8.24 5.8 10.75
5/21/2018 1:45:00 PM 16.91 62.438 0.191 8.24 5.3 10.69
5/21/2018 2:00:00 PM 17.11 62.798 0.191 8.25 6.2 10.64
5/21/2018 2:15:00 PM 17.31 63.158 0.191 8.26 7.2 10.61
5/21/2018 2:30:00 PM 17.49 63.482 0.191 8.27 5.5 10.55
5/21/2018 2:45:00 PM 17.64 63.752 0.191 8.27 5.8 10.51
5/21/2018 3:00:00 PM 17.78 64.004 0.192 8.27 6.2 10.46
5/21/2018 3:15:00 PM 17.9 64.22 0.19 8.28 5.9 10.4
5/21/2018 3:30:00 PM 18 64.4 0.191 8.26 5.6 10.34
5/21/2018 3:45:00 PM 18.06 64.508 0.192 8.25 5.4 10.27
5/21/2018 4:00:00 PM 18.12 64.616 0.192 8.24 5.4 10.21
5/21/2018 4:15:00 PM 18.14 64.652 0.193 8.22 5.8 10.16
5/21/2018 4:30:00 PM 18.16 64.688 0.193 8.2 6 10.1
5/21/2018 4:45:00 PM 18.15 64.67 0.193 8.18 6.1 10.03
5/21/2018 5:00:00 PM 18.13 64.634 0.193 8.15 5.6 9.97
5/21/2018 5:15:00 PM 18.1 64.58 0.193 8.13 5.1 9.9
5/21/2018 5:30:00 PM 18.05 64.49 0.194 8.1 5.2 9.83
5/21/2018 5:45:00 PM 18.01 64.418 0.194 8.07 7.6 9.76
5/21/2018 6:00:00 PM 17.95 64.31 0.194 8.04 4.7 9.7
5/21/2018 6:15:00 PM 17.88 64.184 0.194 8.02 7.4 9.62
5/21/2018 6:30:00 PM 17.81 64.058 0.194 7.98 6.3 9.55
5/21/2018 6:45:00 PM 17.72 63.896 0.195 7.95 5.2 9.48
5/21/2018 7:00:00 PM 17.63 63.734 0.195 7.92 5.1 9.41
5/21/2018 7:15:00 PM 17.52 63.536 0.195 7.88 4.9 9.29
5/21/2018 7:30:00 PM 17.41 63.338 0.195 7.84 5.7 9.2
5/21/2018 7:45:00 PM 17.31 63.158 0.195 7.82 5.8 9.12
5/21/2018 8:00:00 PM 17.22 62.996 0.196 7.79 5.4 9.07
5/21/2018 8:15:00 PM 17.12 62.816 0.196 7.77 6.2 9.01
5/21/2018 8:30:00 PM 17.03 62.654 0.196 7.75 8.5 8.96
5/21/2018 8:45:00 PM 16.94 62.492 0.196 7.74 5.8 8.94
5/21/2018 9:00:00 PM 16.85 62.33 0.197 7.72 8.2 8.92
5/21/2018 9:15:00 PM 16.75 62.15 0.197 7.71 6.5 8.9
5/21/2018 9:30:00 PM 16.66 61.988 0.197 7.69 8 8.89
5/21/2018 9:45:00 PM 16.56 61.808 0.198 7.69 6.5 8.89
5/21/2018 10:00:00 PM 16.48 61.664 0.198 7.68 6.6 8.89
5/21/2018 10:15:00 PM 16.39 61.502 0.198 7.67 11.2 8.9
5/21/2018 10:30:00 PM 16.3 61.34 0.198 7.67 13.8 8.9
5/21/2018 10:45:00 PM 16.21 61.178 0.198 7.67 8.1 8.91
5/21/2018 11:00:00 PM 16.13 61.034 0.198 7.66 6.8 8.92
5/21/2018 11:15:00 PM 16.05 60.89 0.198 7.66 7 8.93
5/21/2018 11:30:00 PM 15.97 60.746 0.198 7.66 10.2 8.95
5/21/2018 11:45:00 PM 15.89 60.602 0.198 7.65 7.9 8.97
5/22/2018 12:00:00 AM 15.82 60.476 0.198 7.65 11.3 8.99
5/22/2018 12:15:00 AM 15.75 60.35 0.198 7.65 6.4 8.98
5/22/2018 12:30:00 AM 15.69 60.242 0.198 7.65 395.9 9
5/22/2018 12:45:00 AM 15.62 60.116 0.198 7.65 9 9.02
5/22/2018 1:00:00 AM 15.57 60.026 0.198 7.65 7.8 9.04
5/22/2018 1:15:00 AM 15.51 59.918 0.198 7.64 8.2 9.04
5/22/2018 1:30:00 AM 15.46 59.828 0.196 7.64 9.7 9.06
5/22/2018 1:45:00 AM 15.41 59.738 0.198 7.64 7.2 9.06
5/22/2018 2:00:00 AM 15.36 59.648 0.198 7.64 7.9 9.07
5/22/2018 2:15:00 AM 15.32 59.576 0.198 7.63 65.4 9.08
5/22/2018 2:30:00 AM 15.28 59.504 0.198 7.64 9.5 9.09
5/22/2018 2:45:00 AM 15.24 59.432 0.199 7.63 7.3 9.08
5/22/2018 3:00:00 AM 15.2 59.36 0.198 7.63 7 9.1
5/22/2018 3:15:00 AM 15.17 59.306 0.198 7.64 10.6 9.09
5/22/2018 3:30:00 AM 15.13 59.234 0.198 7.63 7.3 9.11
5/22/2018 3:45:00 AM 15.1 59.18 0.198 7.64 7.9 9.13
5/22/2018 4:00:00 AM 15.06 59.108 0.198 7.63 8.3 9.14
5/22/2018 4:15:00 AM 15.02 59.036 0.197 7.64 8.2 9.15
5/22/2018 4:30:00 AM 14.98 58.964 0.196 7.64 9.1 9.16
5/22/2018 4:45:00 AM 14.95 58.91 0.196 7.64 9.4 9.17
5/22/2018 5:00:00 AM 14.91 58.838 0.195 7.63 11.6 9.18
5/22/2018 5:15:00 AM 14.81 58.658 0.192 7.64 20.4 9.23
5/22/2018 5:30:00 AM 14.77 58.586 0.19 7.63 33 9.21
5/22/2018 5:45:00 AM 14.72 58.496 0.186 7.61 56.3 9.22
5/22/2018 6:00:00 AM 14.64 58.352 0.178 7.62 99.3 9.28
5/22/2018 6:15:00 AM 14.52 58.136 0.171 7.61 144.1 9.33
5/22/2018 6:30:00 AM 14.38 57.884 0.168 7.61 186.3 9.39
5/22/2018 6:45:00 AM 14.13 57.434 0.162 7.6 221.7 9.48
5/22/2018 7:00:00 AM 14.02 57.236 0.161 7.58 281.8 9.51
5/22/2018 7:15:00 AM 13.98 57.164 0.154 7.57 326.7 9.57
5/22/2018 7:30:00 AM 13.97 57.146 0.152 7.57 411.9 9.6
5/22/2018 7:45:00 AM 13.96 57.128 0.148 7.55 463.2 9.64
5/22/2018 8:00:00 AM 13.82 56.876 0.143 7.52 514 9.69
5/22/2018 8:15:00 AM 13.72 56.696 0.133 7.5 547.5 9.73
5/22/2018 8:30:00 AM 13.78 56.804 0.128 7.49 516.8 9.72
5/22/2018 8:45:00 AM 13.91 57.038 0.128 7.48 531.7 9.68
5/22/2018 9:00:00 AM 13.9 57.02 0.124 7.46 478.6 9.67
5/22/2018 9:15:00 AM 13.89 57.002 0.122 7.45 413.2 9.63
5/22/2018 9:30:00 AM 13.94 57.092 0.125 7.45 415.8 9.58
5/22/2018 9:45:00 AM 13.91 57.038 0.128 7.45 418.3 9.56
5/22/2018 10:00:00 AM 13.81 56.858 0.129 7.44 539.8 9.56
5/22/2018 10:15:00 AM 13.73 56.714 0.125 7.44 445.4 9.58
5/22/2018 10:30:00 AM 13.7 56.66 0.123 7.43 466.5 9.58
5/22/2018 10:45:00 AM 13.71 56.678 0.12 7.43 460.6 9.56
5/22/2018 11:00:00 AM 13.74 56.732 0.118 7.42 424.8 9.57
5/22/2018 11:15:00 AM 13.8 56.84 0.117 7.41 413.2 9.55
5/22/2018 11:30:00 AM 13.84 56.912 0.117 7.41 391.8 9.55
5/22/2018 11:45:00 AM 13.89 57.002 0.117 7.41 323.7 9.53
5/22/2018 12:00:00 PM 13.94 57.092 0.117 7.41 326.5 9.52
5/22/2018 12:15:00 PM 13.99 57.182 0.117 7.41 266.9 9.51
5/22/2018 12:30:00 PM 14.02 57.236 0.118 7.42 255.1 9.49
5/22/2018 12:45:00 PM 14.04 57.272 0.119 7.42 325.6 9.47
5/22/2018 1:00:00 PM 14.06 57.308 0.119 7.41 209 9.47
5/22/2018 1:15:00 PM 14.1 57.38 0.12 7.42 196.6 9.46
5/22/2018 1:30:00 PM 14.15 57.47 0.121 7.42 153.5 9.45
5/22/2018 1:45:00 PM 14.22 57.596 0.122 7.44 205.1 9.46
5/22/2018 2:00:00 PM 14.26 57.668 0.122 7.43 158.6 9.45
5/22/2018 2:15:00 PM 14.32 57.776 0.123 7.44 781.2 9.43
5/22/2018 2:30:00 PM 14.39 57.902 0.124 7.45 149.7 9.43
5/22/2018 2:45:00 PM 14.44 57.992 0.124 7.45 316.8 9.42
5/22/2018 3:00:00 PM 14.49 58.082 0.125 7.45 135.7 9.41
5/22/2018 3:15:00 PM 14.56 58.208 0.126 7.46 119.8 9.41
5/22/2018 3:30:00 PM 14.64 58.352 0.127 7.47 124.5 9.41
5/22/2018 3:45:00 PM 14.72 58.496 0.128 7.47 115.2 9.39
5/22/2018 4:00:00 PM 14.76 58.568 0.129 7.47 122.6 9.37
5/22/2018 4:15:00 PM 14.81 58.658 0.129 7.47 98.3 9.37
5/22/2018 4:30:00 PM 14.88 58.784 0.13 7.48 109.8 9.36
5/22/2018 4:45:00 PM 14.94 58.892 0.131 7.48 98.4 9.34
5/22/2018 5:00:00 PM 15 59 0.132 7.48 99.7 9.33
5/22/2018 5:15:00 PM 15.03 59.054 0.132 7.48 88.1 9.33
5/22/2018 5:30:00 PM 15.04 59.072 0.133 7.49 95 9.33
5/22/2018 5:45:00 PM 15.06 59.108 0.133 7.49 85.3 9.33
5/22/2018 6:00:00 PM 15.07 59.126 0.134 7.5 82.9 9.33
5/22/2018 6:15:00 PM 15.07 59.126 0.135 7.5 82 9.31
5/22/2018 6:30:00 PM 15.08 59.144 0.136 7.5 76.2 9.31
5/22/2018 6:45:00 PM 15.08 59.144 0.137 7.5 75.8 9.29
5/22/2018 7:00:00 PM 15.08 59.144 0.137 7.5 67.9 9.3
5/22/2018 7:15:00 PM 15.08 59.144 0.138 7.5 70.8 9.29
5/22/2018 7:30:00 PM 15.1 59.18 0.139 7.5 64.7 9.27
5/22/2018 7:45:00 PM 15.11 59.198 0.139 7.5 57.3 9.25
5/22/2018 8:00:00 PM 15.12 59.216 0.14 7.5 63.9 9.25
5/22/2018 8:15:00 PM 15.13 59.234 0.141 7.5 60.2 9.24
5/22/2018 8:30:00 PM 15.14 59.252 0.141 7.51 57.5 9.24
5/22/2018 8:45:00 PM 15.13 59.234 0.142 7.51 55.6 9.23
5/22/2018 9:00:00 PM 15.13 59.234 0.142 7.5 57.2 9.22
5/22/2018 9:15:00 PM 15.13 59.234 0.143 7.51 56.3 9.23
5/22/2018 9:30:00 PM 15.11 59.198 0.143 7.51 56.2 9.23
5/22/2018 9:45:00 PM 15.1 59.18 0.144 7.52 48.4 9.23
5/22/2018 10:00:00 PM 15.07 59.126 0.144 7.52 54.4 9.22
5/22/2018 10:15:00 PM 15.05 59.09 0.144 7.51 52.1 9.24
5/22/2018 10:30:00 PM 15.01 59.018 0.145 7.51 53.3 9.24
5/22/2018 10:45:00 PM 14.98 58.964 0.145 7.51 48.2 9.25
5/22/2018 11:00:00 PM 14.96 58.928 0.146 7.51 50.4 9.26
5/22/2018 11:15:00 PM 14.93 58.874 0.146 7.51 53.9 9.27
5/22/2018 11:30:00 PM 14.9 58.82 0.147 7.51 46.2 9.28
5/22/2018 11:45:00 PM 14.88 58.784 0.147 7.51 47.4 9.29
5/23/2018 12:00:00 AM 14.85 58.73 0.147 7.51 48.3 9.29
5/23/2018 12:15:00 AM 14.8 58.64 0.147 7.51 48 9.31
5/23/2018 12:30:00 AM 14.77 58.586 0.147 7.51 49 9.31
5/23/2018 12:45:00 AM 14.74 58.532 0.148 7.51 46.6 9.32
5/23/2018 1:00:00 AM 14.7 58.46 0.148 7.51 44.7 9.33
5/23/2018 1:15:00 AM 14.67 58.406 0.148 7.51 42.3 9.33
5/23/2018 1:30:00 AM 14.63 58.334 0.148 7.51 44 9.34
5/23/2018 1:45:00 AM 14.61 58.298 0.148 7.52 43.5 9.34
5/23/2018 2:00:00 AM 14.58 58.244 0.149 7.52 43.2 9.36
5/23/2018 2:15:00 AM 14.56 58.208 0.148 7.52 43.3 9.36
5/23/2018 2:30:00 AM 14.53 58.154 0.148 7.53 57.6 9.38
5/23/2018 2:45:00 AM 14.55 58.19 0.144 7.54 104.3 9.39
5/23/2018 3:00:00 AM 14.71 58.478 0.121 7.48 783.5 9.38
5/23/2018 3:15:00 AM 14.87 58.766 0.102 7.35 1436.8 9.27
5/23/2018 3:30:00 AM 14.85 58.73 0.103 7.35 1284.8 9.31
5/23/2018 3:45:00 AM 14.77 58.586 0.108 7.37 861 9.36
5/23/2018 4:00:00 AM 14.67 58.406 0.113 7.38 655.5 9.37
5/23/2018 4:15:00 AM 14.59 58.262 0.116 7.39 459.8 9.4
5/23/2018 4:30:00 AM 14.52 58.136 0.12 7.4 438.1 9.4
5/23/2018 4:45:00 AM 14.45 58.01 0.123 7.41 369.2 9.42
5/23/2018 5:00:00 AM 14.36 57.848 0.125 7.42 263.7 9.44
5/23/2018 5:15:00 AM 14.31 57.758 0.125 7.43 232 9.45
5/23/2018 5:30:00 AM 14.27 57.686 0.126 7.44 213.1 9.45
5/23/2018 5:45:00 AM 14.23 57.614 0.126 7.45 196 9.48
5/23/2018 6:00:00 AM 14.2 57.56 0.127 7.46 204.3 9.48
5/23/2018 6:15:00 AM 14.15 57.47 0.128 7.47 164.3 9.51
5/23/2018 6:30:00 AM 14.12 57.416 0.13 7.48 145 9.52
5/23/2018 6:45:00 AM 14.1 57.38 0.13 7.49 140.3 9.54
5/23/2018 7:00:00 AM 14.06 57.308 0.131 7.49 697.4 9.58
5/23/2018 7:15:00 AM 14.05 57.29 0.133 7.5 116.2 9.59
5/23/2018 7:30:00 AM 14.01 57.218 0.133 7.5 103.7 9.6
5/23/2018 7:45:00 AM 13.99 57.182 0.133 7.5 90.8 9.61
5/23/2018 8:00:00 AM 13.98 57.164 0.132 7.5 96.7 9.63
5/23/2018 8:15:00 AM 13.97 57.146 0.132 7.51 90.7 9.64
5/23/2018 8:30:00 AM 13.98 57.164 0.131 7.5 100.8 9.65
5/23/2018 8:45:00 AM 13.96 57.128 0.131 7.51 98.9 9.66
5/23/2018 9:00:00 AM 13.93 57.074 0.131 7.51 96 9.67
5/23/2018 9:15:00 AM 13.92 57.056 0.132 7.52 85.7 9.66
5/23/2018 9:30:00 AM 13.92 57.056 0.133 7.52 83.7 9.68
5/23/2018 9:45:00 AM 13.97 57.146 0.133 7.52 81.3 9.7
5/23/2018 10:00:00 AM 14 57.2 0.134 7.53 79.5 9.7
5/23/2018 10:15:00 AM 14.1 57.38 0.135 7.54 75.7 9.71
5/23/2018 10:30:00 AM 14.24 57.632 0.135 7.54 69.3 9.73
5/23/2018 10:45:00 AM 14.31 57.758 0.136 7.55 68.7 9.73
5/23/2018 11:00:00 AM 14.4 57.92 0.136 7.56 67.5 9.72
5/23/2018 11:15:00 AM 14.59 58.262 0.137 7.57 60.4 9.73
5/23/2018 11:30:00 AM 14.8 58.64 0.137 7.58 57.3 9.72
5/23/2018 11:45:00 AM 14.98 58.964 0.137 7.59 56.7 9.7
5/23/2018 12:00:00 PM 15.14 59.252 0.137 7.6 54.3 9.69
5/23/2018 12:15:00 PM 15.33 59.594 0.138 7.6 52.4 9.69
5/23/2018 12:30:00 PM 15.47 59.846 0.138 7.61 49.3 9.69
5/23/2018 12:45:00 PM 15.61 60.098 0.138 7.61 47.5 9.67
5/23/2018 1:00:00 PM 15.7 60.26 0.139 7.62 50.7 9.62
5/23/2018 1:15:00 PM 15.87 60.566 0.138 7.63 48.9 9.62
5/23/2018 1:30:00 PM 16 60.8 0.139 7.63 49.9 9.61
5/23/2018 1:45:00 PM 16.11 60.998 0.139 7.63 59.6 9.55
5/23/2018 2:00:00 PM 16.28 61.304 0.139 7.63 57.8 9.53
5/23/2018 2:15:00 PM 16.41 61.538 0.14 7.64 49.9 9.52
5/23/2018 2:30:00 PM 16.49 61.682 0.14 7.64 47.5 9.47
5/23/2018 2:45:00 PM 16.64 61.952 0.14 7.65 43.4 9.48
5/23/2018 3:00:00 PM 16.75 62.15 0.141 7.65 40.7 9.45
5/23/2018 3:15:00 PM 16.86 62.348 0.141 7.66 38.6 9.42
5/23/2018 3:30:00 PM 16.97 62.546 0.141 7.65 41.1 9.4
5/23/2018 3:45:00 PM 17.01 62.618 0.142 7.65 40.6 9.35
5/23/2018 4:00:00 PM 17.08 62.744 0.142 7.65 39.4 9.32
5/23/2018 4:15:00 PM 17.16 62.888 0.142 7.64 42.7 9.3
5/23/2018 4:30:00 PM 17.23 63.014 0.143 7.65 43.9 9.27
5/23/2018 4:45:00 PM 17.26 63.068 0.143 7.65 47 9.23
5/23/2018 5:00:00 PM 17.28 63.104 0.143 7.64 45.3 9.22
5/23/2018 5:15:00 PM 17.31 63.158 0.143 7.64 45.3 9.2
5/23/2018 5:30:00 PM 17.31 63.158 0.144 7.64 47.4 9.18
5/23/2018 5:45:00 PM 17.31 63.158 0.143 7.64 42.3 9.15
5/23/2018 6:00:00 PM 17.29 63.122 0.144 7.63 40.1 9.14
5/23/2018 6:15:00 PM 17.28 63.104 0.144 7.63 41.1 9.12
5/23/2018 6:30:00 PM 17.24 63.032 0.144 7.62 42.5 9.1
5/23/2018 6:45:00 PM 17.21 62.978 0.144 7.62 39.4 9.08
5/23/2018 7:00:00 PM 17.16 62.888 0.144 7.62 38 9.07
5/23/2018 7:15:00 PM 17.11 62.798 0.144 7.61 38.7 9.05
5/23/2018 7:30:00 PM 17.06 62.708 0.145 7.61 37.7 9.05
5/23/2018 7:45:00 PM 17.01 62.618 0.144 7.61 35.9 9.04
5/23/2018 8:00:00 PM 16.96 62.528 0.145 7.6 35.6 9.02
5/23/2018 8:15:00 PM 16.91 62.438 0.145 7.59 35.1 9.04
5/23/2018 8:30:00 PM 16.85 62.33 0.145 7.6 34.2 9.02
5/23/2018 8:45:00 PM 16.8 62.24 0.145 7.58 33.3 9.02
5/23/2018 9:00:00 PM 16.73 62.114 0.146 7.58 35.5 9.02
5/23/2018 9:15:00 PM 16.65 61.97 0.146 7.57 31.9 9.03
5/23/2018 9:30:00 PM 16.59 61.862 0.146 7.57 33.2 9.04
5/23/2018 9:45:00 PM 16.51 61.718 0.147 7.57 34.4 9.04
5/23/2018 10:00:00 PM 16.43 61.574 0.147 7.56 33.7 9.05
5/23/2018 10:15:00 PM 16.36 61.448 0.147 7.56 35 9.06
5/23/2018 10:30:00 PM 16.27 61.286 0.147 7.56 33.4 9.08
5/23/2018 10:45:00 PM 16.19 61.142 0.147 7.56 37.1 9.1
5/23/2018 11:00:00 PM 16.1 60.98 0.147 7.56 34.1 9.11
5/23/2018 11:15:00 PM 16.03 60.854 0.147 7.56 33 9.12
5/23/2018 11:30:00 PM 15.93 60.674 0.147 7.56 32.4 9.14
5/23/2018 11:45:00 PM 15.87 60.566 0.148 7.56 31.7 9.15
5/24/2018 12:00:00 AM 15.77 60.386 0.148 7.56 33 9.18
5/24/2018 12:15:00 AM 15.68 60.224 0.148 7.56 32.2 9.19
5/24/2018 12:30:00 AM 15.6 60.08 0.148 7.56 33.1 9.21
5/24/2018 12:45:00 AM 15.51 59.918 0.148 7.56 32.9 9.23
5/24/2018 1:00:00 AM 15.43 59.774 0.148 7.56 31.7 9.26
5/24/2018 1:15:00 AM 15.35 59.63 0.148 7.56 31 9.27
5/24/2018 1:30:00 AM 15.26 59.468 0.148 7.56 29.5 9.28
5/24/2018 1:45:00 AM 15.19 59.342 0.148 7.56 29.5 9.31
5/24/2018 2:00:00 AM 15.09 59.162 0.148 7.56 29.2 9.32
5/24/2018 2:15:00 AM 15.02 59.036 0.148 7.56 29.7 9.33
5/24/2018 2:30:00 AM 14.94 58.892 0.149 7.56 31.8 9.36
5/24/2018 2:45:00 AM 14.86 58.748 0.148 7.56 29.5 9.37
5/24/2018 3:00:00 AM 14.75 58.55 0.149 7.56 31.1 9.4
5/24/2018 3:15:00 AM 14.66 58.388 0.149 7.56 30.2 9.42
5/24/2018 3:30:00 AM 14.58 58.244 0.149 7.56 29.2 9.43
5/24/2018 3:45:00 AM 14.54 58.172 0.149 7.56 29.2 9.44
5/24/2018 4:00:00 AM 14.45 58.01 0.149 7.57 29.8 9.46
5/24/2018 4:15:00 AM 14.37 57.866 0.15 7.57 30.7 9.47
5/24/2018 4:30:00 AM 14.3 57.74 0.15 7.56 28.5 9.5
5/24/2018 4:45:00 AM 14.21 57.578 0.15 7.57 29 9.51
5/24/2018 5:00:00 AM 14.13 57.434 0.15 7.56 29.2 9.54
5/24/2018 5:15:00 AM 14.06 57.308 0.15 7.57 27.5 9.56
5/24/2018 5:30:00 AM 13.98 57.164 0.15 7.57 27.3 9.58
5/24/2018 5:45:00 AM 13.9 57.02 0.15 7.57 25.2 9.6
5/24/2018 6:00:00 AM 13.84 56.912 0.151 7.57 27.9 9.61
5/24/2018 6:15:00 AM 13.77 56.786 0.151 7.57 26.5 9.64
5/24/2018 6:30:00 AM 13.69 56.642 0.151 7.58 25.6 9.67
5/24/2018 6:45:00 AM 13.64 56.552 0.151 7.58 27.7 9.69
5/24/2018 7:00:00 AM 13.58 56.444 0.152 7.58 24.7 9.72
5/24/2018 7:15:00 AM 13.51 56.318 0.152 7.59 25.1 9.77
5/24/2018 7:30:00 AM 13.5 56.3 0.152 7.6 24.8 9.8
5/24/2018 7:45:00 AM 13.5 56.3 0.152 7.61 23.7 9.83
5/24/2018 8:00:00 AM 13.51 56.318 0.153 7.61 23.6 9.87
5/24/2018 8:15:00 AM 13.53 56.354 0.153 7.61 23.2 9.91
5/24/2018 8:30:00 AM 13.56 56.408 0.153 7.62 22.5 9.94
5/24/2018 8:45:00 AM 13.62 56.516 0.154 7.63 25.6 9.98
5/24/2018 9:00:00 AM 13.66 56.588 0.154 7.64 22.4 10.02
5/24/2018 9:15:00 AM 13.75 56.75 0.154 7.65 21.2 10.03
5/24/2018 9:30:00 AM 13.85 56.93 0.155 7.66 20.7 10.04
5/24/2018 9:45:00 AM 13.92 57.056 0.155 7.66 22.9 10.06
5/24/2018 10:00:00 AM 14.03 57.254 0.155 7.68 19.6 10.07
5/24/2018 10:15:00 AM 14.14 57.452 0.155 7.68 18.6